
Distance (Route):
Temperature : 0°C
Humidity : 0%
Pressure : 0hPa| Receiver | Frames | First received | Last received |
|---|---|---|---|
| PETON7-10 | 382 | 2026-09-05 11:32:02 | 2026-09-05 13:25:37 |
| OM5KV | 209 | 2026-09-05 11:46:13 | 2026-09-05 13:30:29 |
| OE3OSB-13 | 195 | 2026-09-05 11:33:05 | 2026-09-05 13:27:01 |
| OE5MMP-10 | 166 | 2026-09-05 12:26:32 | 2026-09-05 13:05:34 |
| OE3JTB-15 | 101 | 2026-09-05 11:30:48 | 2026-09-05 13:04:25 |
| S52SK | 87 | 2026-09-05 11:47:14 | 2026-09-05 13:22:08 |
| PG1ADW-2 | 28 | 2026-09-05 11:42:41 | 2026-09-05 12:25:17 |
| HA6NAB-11 | 13 | 2026-09-05 13:12:02 | 2026-09-05 13:23:02 |
| OK1ALN | 8 | 2026-09-05 13:01:22 | 2026-09-05 13:04:32 |
| Receiver | Date | Latitude | Longitude | Direction | Speed | Altitude | Climb | Temperature | Humidity | Pressure | Voltage | Killtimer | Uptime | BKT | XDATA |
|---|---|---|---|---|---|---|---|---|---|---|---|---|---|---|---|
| OM5KV | 2026-09-05 13:30:29 | 48.06582 | 18.14182 | 140° | 37km/h | 302m | -11.9m/s | 0°C | 0% | 0hPa | 0V | 00:00:00 | 00:00:00 | 00:00:00 | |
| OM5KV | 2026-09-05 13:30:26 | 48.06603 | 18.14156 | 142° | 31km/h | 337m | -12.1m/s | 0°C | 0% | 0hPa | 0V | 00:00:00 | 00:00:00 | 00:00:00 | |
| OM5KV | 2026-09-05 13:30:17 | 48.06660 | 18.14068 | 140° | 31km/h | 455m | -10.8m/s | 0°C | 0% | 0hPa | 0V | 00:00:00 | 00:00:00 | 00:00:00 | |
| OM5KV | 2026-09-05 13:30:12 | 48.06684 | 18.14033 | 132° | 29km/h | 497m | -9.0m/s | 0°C | 0% | 0hPa | 0V | 00:00:00 | 00:00:00 | 00:00:00 | |
| OM5KV | 2026-09-05 13:30:10 | 48.06695 | 18.14017 | 132° | 33km/h | 517m | -8.5m/s | 0°C | 0% | 0hPa | 0V | 00:00:00 | 00:00:00 | 00:00:00 | |
| OM5KV | 2026-09-05 13:30:01 | 48.06747 | 18.13938 | 138° | 33km/h | 597m | -9.8m/s | 0°C | 0% | 0hPa | 0V | 00:00:00 | 00:00:00 | 00:00:00 | |
| OM5KV | 2026-09-05 13:29:55 | 48.06783 | 18.13870 | 130° | 33km/h | 668m | -12.5m/s | 0°C | 0% | 0hPa | 0V | 00:00:00 | 00:00:00 | 00:00:00 | |
| OM5KV | 2026-09-05 13:29:54 | 48.06788 | 18.13860 | 127° | 35km/h | 681m | -11.4m/s | 0°C | 0% | 0hPa | 0V | 00:00:00 | 00:00:00 | 00:00:00 | |
| OM5KV | 2026-09-05 13:29:44 | 48.06840 | 18.13751 | 136° | 35km/h | 796m | -10.8m/s | 0°C | 0% | 0hPa | 0V | 00:00:00 | 00:00:00 | 00:00:00 | |
| OM5KV | 2026-09-05 13:29:43 | 48.06845 | 18.13742 | 122° | 31km/h | 808m | -11.4m/s | 0°C | 0% | 0hPa | 0V | 00:00:00 | 00:00:00 | 00:00:00 | |
| OM5KV | 2026-09-05 13:29:37 | 48.06873 | 18.13685 | 123° | 38km/h | 872m | -9.4m/s | 0°C | 0% | 0hPa | 0V | 00:00:00 | 00:00:00 | 00:00:00 | |
| OM5KV | 2026-09-05 13:29:32 | 48.06900 | 18.13634 | 123° | 40km/h | 925m | -10.9m/s | 0°C | 0% | 0hPa | 0V | 00:00:00 | 00:00:00 | 00:00:00 | |
| OM5KV | 2026-09-05 13:29:31 | 48.06905 | 18.13621 | 124° | 40km/h | 938m | -12.4m/s | 0°C | 0% | 0hPa | 0V | 00:00:00 | 00:00:00 | 00:00:00 | |
| OM5KV | 2026-09-05 13:29:26 | 48.06927 | 18.13563 | 123° | 35km/h | 993m | -10.1m/s | 0°C | 0% | 0hPa | 0V | 00:00:00 | 00:00:00 | 00:00:00 | |
| OM5KV | 2026-09-05 13:29:20 | 48.06951 | 18.13498 | 115° | 31km/h | 1053m | -11.0m/s | 0°C | 0% | 0hPa | 0V | 00:00:00 | 00:00:00 | 00:00:00 | |
| OM5KV | 2026-09-05 13:29:20 | 48.06951 | 18.13498 | 115° | 31km/h | 1053m | -11.0m/s | 0°C | 0% | 0hPa | 0V | 00:00:00 | 00:00:00 | 00:00:00 | |
| OM5KV | 2026-09-05 13:29:15 | 48.06974 | 18.13444 | 120° | 27km/h | 1121m | -8.8m/s | 0°C | 0% | 0hPa | 0V | 00:00:00 | 00:00:00 | 00:00:00 | |
| OM5KV | 2026-09-05 13:29:14 | 48.06974 | 18.13444 | 120° | 27km/h | 1121m | -8.8m/s | 0°C | 0% | 0hPa | 0V | 00:00:00 | 00:00:00 | 00:00:00 | |
| OM5KV | 2026-09-05 13:29:08 | 48.06996 | 18.13386 | 121° | 29km/h | 1181m | -6.4m/s | 0°C | 0% | 0hPa | 0V | 00:00:00 | 00:00:00 | 00:00:00 | |
| OM5KV | 2026-09-05 13:29:03 | 48.07015 | 18.13337 | 122° | 27km/h | 1220m | -7.5m/s | 0°C | 0% | 0hPa | 0V | 00:00:00 | 00:00:00 | 00:00:00 | |
| OM5KV | 2026-09-05 13:28:58 | 48.07034 | 18.13292 | 121° | 26km/h | 1263m | -6.5m/s | 0°C | 0% | 0hPa | 0V | 00:00:00 | 00:00:00 | 00:00:00 | |
| OM5KV | 2026-09-05 13:28:56 | 48.07041 | 18.13274 | 117° | 29km/h | 1280m | -7.3m/s | 0°C | 0% | 0hPa | 0V | 00:00:00 | 00:00:00 | 00:00:00 | |
| OM5KV | 2026-09-05 13:28:52 | 48.07053 | 18.13235 | 116° | 29km/h | 1310m | -6.6m/s | 0°C | 0% | 0hPa | 0V | 00:00:00 | 00:00:00 | 00:00:00 | |
| OM5KV | 2026-09-05 13:28:50 | 48.07060 | 18.13215 | 116° | 29km/h | 1325m | -6.4m/s | 0°C | 0% | 0hPa | 0V | 00:00:00 | 00:00:00 | 00:00:00 | |
| OM5KV | 2026-09-05 13:28:47 | 48.07070 | 18.13185 | 116° | 29km/h | 1349m | -7.1m/s | 0°C | 0% | 0hPa | 0V | 00:00:00 | 00:00:00 | 00:00:00 | |
| OM5KV | 2026-09-05 13:28:43 | 48.07084 | 18.13145 | 115° | 27km/h | 1382m | -7.3m/s | 0°C | 0% | 0hPa | 0V | 00:00:00 | 00:00:00 | 00:00:00 | |
| OM5KV | 2026-09-05 13:28:37 | 48.07104 | 18.13086 | 123° | 29km/h | 1430m | -6.6m/s | 0°C | 0% | 0hPa | 0V | 00:00:00 | 00:00:00 | 00:00:00 | |
| OM5KV | 2026-09-05 13:28:32 | 48.07125 | 18.13036 | 120° | 35km/h | 1469m | -6.7m/s | 0°C | 0% | 0hPa | 0V | 00:00:00 | 00:00:00 | 00:00:00 | |
| OM5KV | 2026-09-05 13:28:26 | 48.07151 | 18.12967 | 118° | 37km/h | 1513m | -6.4m/s | 0°C | 0% | 0hPa | 0V | 00:00:00 | 00:00:00 | 00:00:00 | |
| OM5KV | 2026-09-05 13:28:21 | 48.07173 | 18.12903 | 117° | 42km/h | 1552m | -5.9m/s | 0°C | 0% | 0hPa | 0V | 00:00:00 | 00:00:00 | 00:00:00 | |
| OM5KV | 2026-09-05 13:28:21 | 48.07173 | 18.12903 | 117° | 42km/h | 1552m | -5.9m/s | 0°C | 0% | 0hPa | 0V | 00:00:00 | 00:00:00 | 00:00:00 | |
| OM5KV | 2026-09-05 13:28:15 | 48.07208 | 18.12810 | 123° | 51km/h | 1595m | -5.1m/s | 0°C | 0% | 0hPa | 0V | 00:00:00 | 00:00:00 | 00:00:00 | |
| OM5KV | 2026-09-05 13:28:10 | 48.07248 | 18.12720 | 124° | 58km/h | 1627m | -5.9m/s | 0°C | 0% | 0hPa | 0V | 00:00:00 | 00:00:00 | 00:00:00 | |
| OM5KV | 2026-09-05 13:28:04 | 48.07300 | 18.12611 | 126° | 60km/h | 1667m | -5.4m/s | 0°C | 0% | 0hPa | 0V | 00:00:00 | 00:00:00 | 00:00:00 | |
| OM5KV | 2026-09-05 13:27:58 | 48.07353 | 18.12497 | 124° | 60km/h | 1707m | -5.6m/s | 0°C | 0% | 0hPa | 0V | 00:00:00 | 00:00:00 | 00:00:00 | |
| OM5KV | 2026-09-05 13:27:53 | 48.07396 | 18.12404 | 129° | 60km/h | 1741m | -6.0m/s | 0°C | 0% | 0hPa | 0V | 00:00:00 | 00:00:00 | 00:00:00 | |
| OM5KV | 2026-09-05 13:27:52 | 48.07405 | 18.12385 | 124° | 58km/h | 1748m | -5.2m/s | 0°C | 0% | 0hPa | 0V | 00:00:00 | 00:00:00 | 00:00:00 | |
| OM5KV | 2026-09-05 13:27:46 | 48.07457 | 18.12272 | 125° | 60km/h | 1787m | -4.7m/s | 0°C | 0% | 0hPa | 0V | 00:00:00 | 00:00:00 | 00:00:00 | |
| OM5KV | 2026-09-05 13:27:42 | 48.07491 | 18.12197 | 124° | 58km/h | 1817m | -6.0m/s | 0°C | 0% | 0hPa | 0V | 00:00:00 | 00:00:00 | 00:00:00 | |
| OM5KV | 2026-09-05 13:27:40 | 48.07508 | 18.12160 | 125° | 58km/h | 1831m | -5.7m/s | 0°C | 0% | 0hPa | 0V | 00:00:00 | 00:00:00 | 00:00:00 | |
| OM5KV | 2026-09-05 13:27:36 | 48.07545 | 18.12085 | 126° | 60km/h | 1860m | -6.3m/s | 0°C | 0% | 0hPa | 0V | 00:00:00 | 00:00:00 | 00:00:00 | |
| OM5KV | 2026-09-05 13:27:31 | 48.07587 | 18.11991 | 123° | 58km/h | 1897m | -6.2m/s | 0°C | 0% | 0hPa | 0V | 00:00:00 | 00:00:00 | 00:00:00 | |
| OM5KV | 2026-09-05 13:27:25 | 48.07635 | 18.11880 | 126° | 69km/h | 1940m | -3.6m/s | 0°C | 0% | 0hPa | 0V | 00:00:00 | 00:00:00 | 00:00:00 | |
| OM5KV | 2026-09-05 13:27:19 | 48.07683 | 18.11770 | 126° | 58km/h | 1983m | -6.7m/s | 0°C | 0% | 0hPa | 0V | 00:00:00 | 00:00:00 | 00:00:00 | |
| OM5KV | 2026-09-05 13:27:17 | 48.07699 | 18.11734 | 124° | 60km/h | 1998m | -8.0m/s | 0°C | 0% | 0hPa | 0V | 00:00:00 | 00:00:00 | 00:00:00 | |
| OM5KV | 2026-09-05 13:27:14 | 48.07723 | 18.11677 | 125° | 55km/h | 2023m | -7.6m/s | 0°C | 0% | 0hPa | 0V | 00:00:00 | 00:00:00 | 00:00:00 | |
| OM5KV | 2026-09-05 13:27:11 | 48.07747 | 18.11625 | 125° | 57km/h | 2049m | -7.9m/s | 0°C | 0% | 0hPa | 0V | 00:00:00 | 00:00:00 | 00:00:00 | |
| OM5KV | 2026-09-05 13:27:08 | 48.07771 | 18.11563 | 120° | 55km/h | 2080m | -11.3m/s | 0°C | 0% | 0hPa | 0V | 00:00:00 | 00:00:00 | 00:00:00 | |
| OM5KV | 2026-09-05 13:27:06 | 48.07785 | 18.11528 | 125° | 58km/h | 2105m | -11.4m/s | 0°C | 0% | 0hPa | 0V | 00:00:00 | 00:00:00 | 00:00:00 | |
| OE3OSB-13 | 2026-09-05 13:27:01 | 48.07834 | 18.11421 | 121° | 58km/h | 2174m | -10.3m/s | 9.1°C | 38.4% | 792.0hPa | 0V | 00:00:00 | 00:00:00 | 00:00:00 | |
| OM5KV | 2026-09-05 13:26:54 | 48.07883 | 18.11311 | 125° | 57km/h | 2241m | -8.9m/s | 0°C | 0% | 0hPa | 0V | 00:00:00 | 00:00:00 | 00:00:00 | |
| OM5KV | 2026-09-05 13:26:49 | 48.07924 | 18.11222 | 126° | 58km/h | 2288m | -7.8m/s | 0°C | 0% | 0hPa | 0V | 00:00:00 | 00:00:00 | 00:00:00 | |
| OM5KV | 2026-09-05 13:26:43 | 48.07973 | 18.11111 | 123° | 62km/h | 2344m | -10.5m/s | 0°C | 0% | 0hPa | 0V | 00:00:00 | 00:00:00 | 00:00:00 | |
| OM5KV | 2026-09-05 13:26:37 | 48.08032 | 18.10996 | 127° | 58km/h | 2419m | -11.9m/s | 0°C | 0% | 0hPa | 0V | 00:00:00 | 00:00:00 | 00:00:00 | |
| OM5KV | 2026-09-05 13:26:36 | 48.08040 | 18.10978 | 124° | 60km/h | 2431m | -11.4m/s | 0°C | 0% | 0hPa | 0V | 00:00:00 | 00:00:00 | 00:00:00 | |
| OE3OSB-13 | 2026-09-05 13:26:30 | 48.08100 | 18.10840 | 128° | 69km/h | 2518m | -12.2m/s | 6.4°C | 43.7% | 759.3hPa | 0V | 00:00:00 | 00:00:00 | 00:00:00 | |
| OM5KV | 2026-09-05 13:26:24 | 48.08144 | 18.10747 | 124° | 58km/h | 2581m | -10.0m/s | 0°C | 0% | 0hPa | 0V | 00:00:00 | 00:00:00 | 00:00:00 | |
| OM5KV | 2026-09-05 13:26:14 | 48.08240 | 18.10564 | 129° | 66km/h | 2696m | -11.2m/s | 0°C | 0% | 0hPa | 0V | 00:00:00 | 00:00:00 | 00:00:00 | |
| OM5KV | 2026-09-05 13:26:06 | 48.08324 | 18.10409 | 133° | 66km/h | 2793m | -9.7m/s | 0°C | 0% | 0hPa | 0V | 00:00:00 | 00:00:00 | 00:00:00 | |
| OM5KV | 2026-09-05 13:26:03 | 48.08355 | 18.10351 | 130° | 69km/h | 2825m | -10.5m/s | 0°C | 0% | 0hPa | 0V | 00:00:00 | 00:00:00 | 00:00:00 | |
| OE3OSB-13 | 2026-09-05 13:25:59 | 48.08411 | 18.10251 | 129° | 69km/h | 2886m | -11.6m/s | 4.6°C | 38.4% | 725.5hPa | 0V | 00:00:00 | 00:00:00 | 00:00:00 | |
| OM5KV | 2026-09-05 13:25:58 | 48.08410 | 18.10251 | 130° | 69km/h | 2886m | -11.6m/s | 0°C | 0% | 0hPa | 0V | 00:00:00 | 00:00:00 | 00:00:00 | |
| OM5KV | 2026-09-05 13:25:54 | 48.08457 | 18.10170 | 134° | 77km/h | 2938m | -12.8m/s | 0°C | 0% | 0hPa | 0V | 00:00:00 | 00:00:00 | 00:00:00 | |
| OM5KV | 2026-09-05 13:25:53 | 48.08469 | 18.10149 | 135° | 69km/h | 2952m | -13.0m/s | 0°C | 0% | 0hPa | 0V | 00:00:00 | 00:00:00 | 00:00:00 | |
| OM5KV | 2026-09-05 13:25:47 | 48.08530 | 18.10029 | 132° | 68km/h | 3027m | -12.0m/s | 0°C | 0% | 0hPa | 0V | 00:00:00 | 00:00:00 | 00:00:00 | |
| OM5KV | 2026-09-05 13:25:46 | 48.08540 | 18.10009 | 127° | 66km/h | 3039m | -12.9m/s | 0°C | 0% | 0hPa | 0V | 00:00:00 | 00:00:00 | 00:00:00 | |
| OM5KV | 2026-09-05 13:25:42 | 48.08595 | 18.09894 | 125° | 71km/h | 3101m | -10.2m/s | 0°C | 0% | 0hPa | 0V | 00:00:00 | 00:00:00 | 00:00:00 | |
| OM5KV | 2026-09-05 13:25:41 | 48.08595 | 18.09894 | 125° | 71km/h | 3101m | -10.2m/s | 0°C | 0% | 0hPa | 0V | 00:00:00 | 00:00:00 | 00:00:00 | |
| PETON7-10 | 2026-09-05 13:25:37 | 48.08636 | 18.09798 | 125° | 89km/h | 3148m | -11.2m/s | 0°C | 0% | 0hPa | 0V | 00:00:00 | 00:00:00 | 00:00:00 | |
| OM5KV | 2026-09-05 13:25:35 | 48.08657 | 18.09747 | 122° | 82km/h | 3171m | -12.6m/s | 0°C | 0% | 0hPa | 0V | 00:00:00 | 00:00:00 | 00:00:00 | |
| OM5KV | 2026-09-05 13:25:29 | 48.08717 | 18.09588 | 120° | 80km/h | 3232m | -9.0m/s | 0°C | 0% | 0hPa | 0V | 00:00:00 | 00:00:00 | 00:00:00 | |
| OE3OSB-13 | 2026-09-05 13:25:27 | 48.08737 | 18.09534 | 119° | 82km/h | 3251m | -8.6m/s | 2.7°C | 0% | 693.5hPa | 0V | 00:00:00 | 00:00:00 | 00:00:00 | |
| OM5KV | 2026-09-05 13:25:25 | 48.08758 | 18.09479 | 122° | 88km/h | 3272m | -12.1m/s | 0°C | 0% | 0hPa | 0V | 00:00:00 | 00:00:00 | 00:00:00 | |
| OM5KV | 2026-09-05 13:25:19 | 48.08823 | 18.09308 | 120° | 86km/h | 3350m | -13.2m/s | 0°C | 0% | 0hPa | 0V | 00:00:00 | 00:00:00 | 00:00:00 | |
| OM5KV | 2026-09-05 13:25:17 | 48.08848 | 18.09247 | 118° | 97km/h | 3377m | -12.9m/s | 0°C | 0% | 0hPa | 0V | 00:00:00 | 00:00:00 | 00:00:00 | |
| PETON7-10 | 2026-09-05 13:25:14 | 48.08880 | 18.09149 | 119° | 102km/h | 3417m | -11.4m/s | 0°C | 0% | 0hPa | 0V | 00:00:00 | 00:00:00 | 00:00:00 | |
| OM5KV | 2026-09-05 13:25:12 | 48.08904 | 18.09085 | 119° | 100km/h | 3444m | -11.7m/s | 0°C | 0% | 0hPa | 0V | 00:00:00 | 00:00:00 | 00:00:00 | |
| OM5KV | 2026-09-05 13:25:08 | 48.08950 | 18.08950 | 117° | 104km/h | 3491m | -9.4m/s | 0°C | 0% | 0hPa | 0V | 00:00:00 | 00:00:00 | 00:00:00 | |
| OM5KV | 2026-09-05 13:25:06 | 48.08974 | 18.08881 | 116° | 106km/h | 3512m | -10.9m/s | 0°C | 0% | 0hPa | 0V | 00:00:00 | 00:00:00 | 00:00:00 | |
| OM5KV | 2026-09-05 13:25:03 | 48.09008 | 18.08774 | 118° | 104km/h | 3541m | -9.1m/s | 0°C | 0% | 0hPa | 0V | 00:00:00 | 00:00:00 | 00:00:00 | |
| OM5KV | 2026-09-05 13:25:01 | 48.09032 | 18.08703 | 119° | 108km/h | 3560m | -8.6m/s | 0°C | 0% | 0hPa | 0V | 00:00:00 | 00:00:00 | 00:00:00 | |
| OE3OSB-13 | 2026-09-05 13:24:56 | 48.09102 | 18.08492 | 118° | 102km/h | 3623m | -12.0m/s | 0.8°C | 50.9% | 661.8hPa | 0V | 00:00:00 | 00:00:00 | 00:00:00 | |
| OM5KV | 2026-09-05 13:24:52 | 48.09135 | 18.08385 | 115° | 108km/h | 3658m | -11.2m/s | 0°C | 0% | 0hPa | 0V | 00:00:00 | 00:00:00 | 00:00:00 | |
| OM5KV | 2026-09-05 13:24:50 | 48.09158 | 18.08312 | 112° | 108km/h | 3683m | -13.3m/s | 0°C | 0% | 0hPa | 0V | 00:00:00 | 00:00:00 | 00:00:00 | |
| OM5KV | 2026-09-05 13:24:46 | 48.09199 | 18.08165 | 112° | 104km/h | 3732m | -11.8m/s | 0°C | 0% | 0hPa | 0V | 00:00:00 | 00:00:00 | 00:00:00 | |
| PETON7-10 | 2026-09-05 13:24:41 | 48.09245 | 18.07973 | 106° | 110km/h | 3795m | -12.7m/s | 0°C | 0% | 0hPa | 0V | 00:00:00 | 00:00:00 | 00:00:00 | |
| OM5KV | 2026-09-05 13:24:40 | 48.09252 | 18.07933 | 106° | 111km/h | 3809m | -12.9m/s | 0°C | 0% | 0hPa | 0V | 00:00:00 | 00:00:00 | 00:00:00 | |
| OM5KV | 2026-09-05 13:24:34 | 48.09294 | 18.07689 | 102° | 111km/h | 3882m | -12.6m/s | 0°C | 0% | 0hPa | 0V | 00:00:00 | 00:00:00 | 00:00:00 | |
| OM5KV | 2026-09-05 13:24:32 | 48.09305 | 18.07604 | 100° | 106km/h | 3908m | -11.9m/s | 0°C | 0% | 0hPa | 0V | 00:00:00 | 00:00:00 | 00:00:00 | |
| PETON7-10 | 2026-09-05 13:24:25 | 48.09338 | 18.07327 | 97° | 108km/h | 3995m | -12.3m/s | 0°C | 0% | 0hPa | 0V | 00:00:00 | 00:00:00 | 00:00:00 | |
| OM5KV | 2026-09-05 13:24:22 | 48.09351 | 18.07207 | 98° | 110km/h | 4032m | -12.4m/s | 0°C | 0% | 0hPa | 0V | 00:00:00 | 00:00:00 | 00:00:00 | |
| OM5KV | 2026-09-05 13:24:18 | 48.09367 | 18.07047 | 96° | 111km/h | 4080m | -12.0m/s | 0°C | 0% | 0hPa | 0V | 00:00:00 | 00:00:00 | 00:00:00 | |
| OM5KV | 2026-09-05 13:24:16 | 48.09375 | 18.06966 | 100° | 111km/h | 4105m | -13.1m/s | 0°C | 0% | 0hPa | 0V | 00:00:00 | 00:00:00 | 00:00:00 | |
| OM5KV | 2026-09-05 13:24:12 | 48.09394 | 18.06800 | 99° | 111km/h | 4157m | -13.2m/s | 0°C | 0% | 0hPa | 0V | 00:00:00 | 00:00:00 | 00:00:00 | |
| PETON7-10 | 2026-09-05 13:24:10 | 48.09399 | 18.06716 | 98° | 108km/h | 4183m | -11.7m/s | 0°C | 0% | 0hPa | 0V | 00:00:00 | 00:00:00 | 00:00:00 | |
| OM5KV | 2026-09-05 13:24:06 | 48.09414 | 18.06545 | 99° | 113km/h | 4235m | -12.6m/s | 0°C | 0% | 0hPa | 0V | 00:00:00 | 00:00:00 | 00:00:00 | |
| OM5KV | 2026-09-05 13:24:04 | 48.09419 | 18.06461 | 97° | 113km/h | 4261m | -13.2m/s | 0°C | 0% | 0hPa | 0V | 00:00:00 | 00:00:00 | 00:00:00 | |
| OM5KV | 2026-09-05 13:24:00 | 48.09432 | 18.06299 | 98° | 97km/h | 4313m | -12.6m/s | 0°C | 0% | 0hPa | 0V | 00:00:00 | 00:00:00 | 00:00:00 | |
| OM5KV | 2026-09-05 13:23:58 | 48.09439 | 18.06223 | 95° | 102km/h | 4339m | -10.6m/s | 0°C | 0% | 0hPa | 0V | 00:00:00 | 00:00:00 | 00:00:00 | |
| PETON7-10 | 2026-09-05 13:23:55 | 48.09445 | 18.06101 | 94° | 108km/h | 4375m | -11.7m/s | 0°C | 0% | 0hPa | 0V | 00:00:00 | 00:00:00 | 00:00:00 | |
| OM5KV | 2026-09-05 13:23:54 | 48.09446 | 18.06060 | 93° | 108km/h | 4388m | -13.1m/s | 0°C | 0% | 0hPa | 0V | 00:00:00 | 00:00:00 | 00:00:00 | |
| OM5KV | 2026-09-05 13:23:53 | 48.09447 | 18.06019 | 95° | 110km/h | 4401m | -13.4m/s | 0°C | 0% | 0hPa | 0V | 00:00:00 | 00:00:00 | 00:00:00 | |
| OM5KV | 2026-09-05 13:23:48 | 48.09466 | 18.05812 | 97° | 108km/h | 4472m | -13.8m/s | 0°C | 0% | 0hPa | 0V | 00:00:00 | 00:00:00 | 00:00:00 | |
| OM5KV | 2026-09-05 13:23:47 | 48.09469 | 18.05772 | 97° | 108km/h | 4485m | -11.6m/s | 0°C | 0% | 0hPa | 0V | 00:00:00 | 00:00:00 | 00:00:00 | |
| OM5KV | 2026-09-05 13:23:41 | 48.09493 | 18.05527 | 99° | 100km/h | 4566m | -13.4m/s | 0°C | 0% | 0hPa | 0V | 00:00:00 | 00:00:00 | 00:00:00 | |
| PETON7-10 | 2026-09-05 13:23:40 | 48.09496 | 18.05489 | 98° | 102km/h | 4580m | -13.2m/s | 0°C | 0% | 0hPa | 0V | 00:00:00 | 00:00:00 | 00:00:00 | |
| OM5KV | 2026-09-05 13:23:33 | 48.09524 | 18.05228 | 99° | 99km/h | 4676m | -12.5m/s | 0°C | 0% | 0hPa | 0V | 00:00:00 | 00:00:00 | 00:00:00 | |
| OM5KV | 2026-09-05 13:23:31 | 48.09533 | 18.05153 | 101° | 100km/h | 4702m | -14.1m/s | 0°C | 0% | 0hPa | 0V | 00:00:00 | 00:00:00 | 00:00:00 | |
| OM5KV | 2026-09-05 13:23:28 | 48.09550 | 18.05041 | 107° | 99km/h | 4745m | -13.9m/s | 0°C | 0% | 0hPa | 0V | 00:00:00 | 00:00:00 | 00:00:00 | |
| OM5KV | 2026-09-05 13:23:25 | 48.09563 | 18.04929 | 104° | 106km/h | 4787m | -12.9m/s | 0°C | 0% | 0hPa | 0V | 00:00:00 | 00:00:00 | 00:00:00 | |
| PETON7-10 | 2026-09-05 13:23:23 | 48.09573 | 18.04852 | 102° | 108km/h | 4813m | -13.4m/s | 0°C | 0% | 0hPa | 0V | 00:00:00 | 00:00:00 | 00:00:00 | |
| OM5KV | 2026-09-05 13:23:22 | 48.09579 | 18.04813 | 101° | 106km/h | 4827m | -14.4m/s | 0°C | 0% | 0hPa | 0V | 00:00:00 | 00:00:00 | 00:00:00 | |
| OM5KV | 2026-09-05 13:23:16 | 48.09606 | 18.04579 | 97° | 100km/h | 4909m | -14.0m/s | 0°C | 0% | 0hPa | 0V | 00:00:00 | 00:00:00 | 00:00:00 | |
| OM5KV | 2026-09-05 13:23:10 | 48.09627 | 18.04343 | 102° | 106km/h | 4993m | -14.9m/s | 0°C | 0% | 0hPa | 0V | 00:00:00 | 00:00:00 | 00:00:00 | |
| PETON7-10 | 2026-09-05 13:23:07 | 48.09640 | 18.04228 | 99° | 102km/h | 5037m | -13.5m/s | 0°C | 0% | 0hPa | 0V | 00:00:00 | 00:00:00 | 00:00:00 | |
| OM5KV | 2026-09-05 13:23:03 | 48.09653 | 18.04075 | 97° | 106km/h | 5094m | -12.0m/s | 0°C | 0% | 0hPa | 0V | 00:00:00 | 00:00:00 | 00:00:00 | |
| HA6NAB-11 | 2026-09-05 13:23:02 | 48.09656 | 18.04037 | 98° | 99km/h | 5106m | -12.5m/s | 0°C | 0% | 0hPa | 0V | 00:00:00 | 00:00:00 | 00:00:00 | |
| OE3OSB-13 | 2026-09-05 13:22:52 | 48.09681 | 18.03575 | 94° | 104km/h | 5277m | -13.1m/s | -7.5°C | 8.0% | 536.6hPa | 0V | 00:00:00 | 00:00:00 | 00:00:00 | |
| HA6NAB-11 | 2026-09-05 13:22:50 | 48.09681 | 18.03575 | 95° | 106km/h | 5277m | -13.1m/s | 0°C | 0% | 0hPa | 0V | 00:00:00 | 00:00:00 | 00:00:00 | |
| OM5KV | 2026-09-05 13:22:46 | 48.09687 | 18.03412 | 94° | 113km/h | 5332m | -14.2m/s | 0°C | 0% | 0hPa | 0V | 00:00:00 | 00:00:00 | 00:00:00 | |
| HA6NAB-11 | 2026-09-05 13:22:44 | 48.09690 | 18.03333 | 95° | 104km/h | 5360m | -14.1m/s | 0°C | 0% | 0hPa | 0V | 00:00:00 | 00:00:00 | 00:00:00 | |
| OM5KV | 2026-09-05 13:22:41 | 48.09690 | 18.03215 | 90° | 104km/h | 5404m | -14.3m/s | 0°C | 0% | 0hPa | 0V | 00:00:00 | 00:00:00 | 00:00:00 | |
| HA6NAB-11 | 2026-09-05 13:22:39 | 48.09688 | 18.03136 | 89° | 104km/h | 5435m | -14.5m/s | 0°C | 0% | 0hPa | 0V | 00:00:00 | 00:00:00 | 00:00:00 | |
| PETON7-10 | 2026-09-05 13:22:37 | 48.09687 | 18.03059 | 92° | 100km/h | 5465m | -12.8m/s | 0°C | 0% | 0hPa | 0V | 00:00:00 | 00:00:00 | 00:00:00 | |
| OM5KV | 2026-09-05 13:22:36 | 48.09688 | 18.03020 | 95° | 100km/h | 5479m | -13.6m/s | 0°C | 0% | 0hPa | 0V | 00:00:00 | 00:00:00 | 00:00:00 | |
| HA6NAB-11 | 2026-09-05 13:22:33 | 48.09690 | 18.02908 | 93° | 102km/h | 5521m | -12.9m/s | 0°C | 0% | 0hPa | 0V | 00:00:00 | 00:00:00 | 00:00:00 | |
| OM5KV | 2026-09-05 13:22:30 | 48.09694 | 18.02796 | 96° | 93km/h | 5561m | -13.2m/s | 0°C | 0% | 0hPa | 0V | 00:00:00 | 00:00:00 | 00:00:00 | |
| PETON7-10 | 2026-09-05 13:22:22 | 48.09704 | 18.02497 | 90° | 102km/h | 5672m | -14.5m/s | 0°C | 0% | 0hPa | 0V | 00:00:00 | 00:00:00 | 00:00:00 | |
| OM5KV | 2026-09-05 13:22:19 | 48.09706 | 18.02381 | 92° | 100km/h | 5716m | -13.1m/s | 0°C | 0% | 0hPa | 0V | 00:00:00 | 00:00:00 | 00:00:00 | |
| OM5KV | 2026-09-05 13:22:13 | 48.09709 | 18.02145 | 88° | 102km/h | 5802m | -12.9m/s | 0°C | 0% | 0hPa | 0V | 00:00:00 | 00:00:00 | 00:00:00 | |
| S52SK | 2026-09-05 13:22:08 | 48.09706 | 18.01952 | 90° | 104km/h | 5876m | -15.9m/s | 0°C | 0% | 0hPa | 0V | 00:00:00 | 00:00:00 | 00:00:00 | |
| PETON7-10 | 2026-09-05 13:22:07 | 48.09706 | 18.01912 | 89° | 106km/h | 5891m | -15.6m/s | 0°C | 0% | 0hPa | 0V | 00:00:00 | 00:00:00 | 00:00:00 | |
| OM5KV | 2026-09-05 13:22:01 | 48.09708 | 18.01671 | 92° | 106km/h | 5980m | -15.5m/s | 0°C | 0% | 0hPa | 0V | 00:00:00 | 00:00:00 | 00:00:00 | |
| OE3OSB-13 | 2026-09-05 13:21:50 | 48.09699 | 18.01186 | 90° | 106km/h | 6159m | -14.2m/s | -12.9°C | 9.1% | 477.8hPa | 0V | 00:00:00 | 00:00:00 | 00:00:00 | |
| PETON7-10 | 2026-09-05 13:21:49 | 48.09699 | 18.01186 | 91° | 104km/h | 6159m | -14.1m/s | 0°C | 0% | 0hPa | 0V | 00:00:00 | 00:00:00 | 00:00:00 | |
| OM5KV | 2026-09-05 13:21:46 | 48.09699 | 18.01068 | 92° | 104km/h | 6203m | -15.8m/s | 0°C | 0% | 0hPa | 0V | 00:00:00 | 00:00:00 | 00:00:00 | |
| OM5KV | 2026-09-05 13:21:40 | 48.09693 | 18.00829 | 88° | 100km/h | 6298m | -14.2m/s | 0°C | 0% | 0hPa | 0V | 00:00:00 | 00:00:00 | 00:00:00 | |
| OM5KV | 2026-09-05 13:21:38 | 48.09689 | 18.00752 | 87° | 102km/h | 6328m | -15.2m/s | 0°C | 0% | 0hPa | 0V | 00:00:00 | 00:00:00 | 00:00:00 | |
| PETON7-10 | 2026-09-05 13:21:34 | 48.09684 | 18.00597 | 89° | 106km/h | 6386m | -15.7m/s | 0°C | 0% | 0hPa | 0V | 00:00:00 | 00:00:00 | 00:00:00 | |
| OM5KV | 2026-09-05 13:21:32 | 48.09684 | 18.00519 | 93° | 106km/h | 6416m | -15.0m/s | 0°C | 0% | 0hPa | 0V | 00:00:00 | 00:00:00 | 00:00:00 | |
| OM5KV | 2026-09-05 13:21:28 | 48.09686 | 18.00360 | 92° | 104km/h | 6479m | -14.3m/s | 0°C | 0% | 0hPa | 0V | 00:00:00 | 00:00:00 | 00:00:00 | |
| OM5KV | 2026-09-05 13:21:27 | 48.09686 | 18.00321 | 94° | 104km/h | 6494m | -14.7m/s | 0°C | 0% | 0hPa | 0V | 00:00:00 | 00:00:00 | 00:00:00 | |
| OM5KV | 2026-09-05 13:21:21 | 48.09692 | 18.00077 | 91° | 102km/h | 6587m | -13.1m/s | 0°C | 0% | 0hPa | 0V | 00:00:00 | 00:00:00 | 00:00:00 | |
| OE3OSB-13 | 2026-09-05 13:21:19 | 48.09696 | 17.99960 | 92° | 108km/h | 6633m | -16.0m/s | -15.8°C | 8.7% | 448.8hPa | 0V | 00:00:00 | 00:00:00 | 00:00:00 | |
| OM5KV | 2026-09-05 13:21:17 | 48.09697 | 17.99919 | 97° | 110km/h | 6649m | -14.2m/s | 0°C | 0% | 0hPa | 0V | 00:00:00 | 00:00:00 | 00:00:00 | |
| OM5KV | 2026-09-05 13:21:11 | 48.09714 | 17.99680 | 99° | 108km/h | 6740m | -15.4m/s | 0°C | 0% | 0hPa | 0V | 00:00:00 | 00:00:00 | 00:00:00 | |
| OM5KV | 2026-09-05 13:21:09 | 48.09721 | 17.99600 | 96° | 106km/h | 6770m | -15.0m/s | 0°C | 0% | 0hPa | 0V | 00:00:00 | 00:00:00 | 00:00:00 | |
| OM5KV | 2026-09-05 13:21:05 | 48.09735 | 17.99446 | 101° | 104km/h | 6835m | -13.0m/s | 0°C | 0% | 0hPa | 0V | 00:00:00 | 00:00:00 | 00:00:00 | |
| PETON7-10 | 2026-09-05 13:21:04 | 48.09740 | 17.99408 | 101° | 104km/h | 6849m | -14.8m/s | 0°C | 0% | 0hPa | 0V | 00:00:00 | 00:00:00 | 00:00:00 | |
| OM5KV | 2026-09-05 13:21:03 | 48.09744 | 17.99370 | 99° | 104km/h | 6865m | -14.5m/s | 0°C | 0% | 0hPa | 0V | 00:00:00 | 00:00:00 | 00:00:00 | |
| OE3OSB-13 | 2026-09-05 13:20:48 | 48.09831 | 17.98750 | 103° | 104km/h | 7112m | -16.2m/s | -19.9°C | 10.2% | 420.5hPa | 0V | 00:00:00 | 00:00:00 | 00:00:00 | |
| OM5KV | 2026-09-05 13:20:46 | 48.09838 | 17.98712 | 106° | 104km/h | 7129m | -16.5m/s | 0°C | 0% | 0hPa | 0V | 00:00:00 | 00:00:00 | 00:00:00 | |
| OM5KV | 2026-09-05 13:20:40 | 48.09875 | 17.98479 | 105° | 115km/h | 7230m | -16.2m/s | 0°C | 0% | 0hPa | 0V | 00:00:00 | 00:00:00 | 00:00:00 | |
| S52SK | 2026-09-05 13:20:39 | 48.09882 | 17.98440 | 103° | 102km/h | 7246m | -15.7m/s | 0°C | 0% | 0hPa | 0V | 00:00:00 | 00:00:00 | 00:00:00 | |
| OM5KV | 2026-09-05 13:20:34 | 48.09909 | 17.98250 | 102° | 108km/h | 7325m | -16.0m/s | 0°C | 0% | 0hPa | 0V | 00:00:00 | 00:00:00 | 00:00:00 | |
| S52SK | 2026-09-05 13:20:33 | 48.09916 | 17.98211 | 108° | 110km/h | 7341m | -15.2m/s | 0°C | 0% | 0hPa | 0V | 00:00:00 | 00:00:00 | 00:00:00 | |
| PETON7-10 | 2026-09-05 13:20:30 | 48.09938 | 17.98091 | 103° | 113km/h | 7390m | -14.8m/s | 0°C | 0% | 0hPa | 0V | 00:00:00 | 00:00:00 | 00:00:00 | |
| OM5KV | 2026-09-05 13:20:29 | 48.09944 | 17.98051 | 104° | 111km/h | 7405m | -14.3m/s | 0°C | 0% | 0hPa | 0V | 00:00:00 | 00:00:00 | 00:00:00 | |
| S52SK | 2026-09-05 13:20:24 | 48.09973 | 17.97849 | 103° | 110km/h | 7486m | -16.4m/s | 0°C | 0% | 0hPa | 0V | 00:00:00 | 00:00:00 | 00:00:00 | |
| OM5KV | 2026-09-05 13:20:23 | 48.09978 | 17.97807 | 101° | 115km/h | 7503m | -16.3m/s | 0°C | 0% | 0hPa | 0V | 00:00:00 | 00:00:00 | 00:00:00 | |
| OE3OSB-13 | 2026-09-05 13:20:17 | 48.10028 | 17.97509 | 107° | 122km/h | 7619m | -16.4m/s | -23.7°C | 13.3% | 392.5hPa | 0V | 00:00:00 | 00:00:00 | 00:00:00 | |
| PETON7-10 | 2026-09-05 13:20:15 | 48.10038 | 17.97466 | 110° | 117km/h | 7636m | -14.1m/s | 0°C | 0% | 0hPa | 0V | 00:00:00 | 00:00:00 | 00:00:00 | |
| OM5KV | 2026-09-05 13:20:12 | 48.10064 | 17.97340 | 107° | 119km/h | 7682m | -15.3m/s | 0°C | 0% | 0hPa | 0V | 00:00:00 | 00:00:00 | 00:00:00 | |
| OM5KV | 2026-09-05 13:20:06 | 48.10116 | 17.97084 | 105° | 115km/h | 7778m | -15.2m/s | 0°C | 0% | 0hPa | 0V | 00:00:00 | 00:00:00 | 00:00:00 | |
| S52SK | 2026-09-05 13:20:05 | 48.10123 | 17.97042 | 108° | 117km/h | 7794m | -15.9m/s | 0°C | 0% | 0hPa | 0V | 00:00:00 | 00:00:00 | 00:00:00 | |
| OM5KV | 2026-09-05 13:20:01 | 48.10153 | 17.96869 | 107° | 119km/h | 7859m | -14.2m/s | 0°C | 0% | 0hPa | 0V | 00:00:00 | 00:00:00 | 00:00:00 | |
| HA6NAB-11 | 2026-09-05 13:20:00 | 48.10161 | 17.96826 | 106° | 117km/h | 7873m | -14.6m/s | 0°C | 0% | 0hPa | 0V | 00:00:00 | 00:00:00 | 00:00:00 | |
| OE3OSB-13 | 2026-09-05 13:19:46 | 48.10266 | 17.96122 | 101° | 124km/h | 8140m | -15.4m/s | -28.0°C | 13.6% | 364.8hPa | 0V | 00:00:00 | 00:00:00 | 00:00:00 | |
| PETON7-10 | 2026-09-05 13:19:44 | 48.10266 | 17.96122 | 102° | 120km/h | 8140m | -15.3m/s | 0°C | 0% | 0hPa | 0V | 00:00:00 | 00:00:00 | 00:00:00 | |
| HA6NAB-11 | 2026-09-05 13:19:43 | 48.10273 | 17.96077 | 104° | 122km/h | 8157m | -18.2m/s | 0°C | 0% | 0hPa | 0V | 00:00:00 | 00:00:00 | 00:00:00 | |
| OM5KV | 2026-09-05 13:19:38 | 48.10305 | 17.95854 | 107° | 117km/h | 8241m | -16.9m/s | 0°C | 0% | 0hPa | 0V | 00:00:00 | 00:00:00 | 00:00:00 | |
| OM5KV | 2026-09-05 13:19:32 | 48.10338 | 17.95586 | 103° | 110km/h | 8345m | -16.4m/s | 0°C | 0% | 0hPa | 0V | 00:00:00 | 00:00:00 | 00:00:00 | |
| OM5KV | 2026-09-05 13:19:27 | 48.10363 | 17.95370 | 104° | 115km/h | 8431m | -15.7m/s | 0°C | 0% | 0hPa | 0V | 00:00:00 | 00:00:00 | 00:00:00 | |
| OM5KV | 2026-09-05 13:19:22 | 48.10392 | 17.95146 | 100° | 126km/h | 8515m | -16.6m/s | 0°C | 0% | 0hPa | 0V | 00:00:00 | 00:00:00 | 00:00:00 | |
| OM5KV | 2026-09-05 13:19:16 | 48.10430 | 17.94877 | 106° | 124km/h | 8614m | -16.9m/s | 0°C | 0% | 0hPa | 0V | 00:00:00 | 00:00:00 | 00:00:00 | |
| PETON7-10 | 2026-09-05 13:19:14 | 48.10442 | 17.94788 | 101° | 120km/h | 8648m | -14.6m/s | 0°C | 0% | 0hPa | 0V | 00:00:00 | 00:00:00 | 00:00:00 | |
| OM5KV | 2026-09-05 13:19:10 | 48.10461 | 17.94608 | 97° | 126km/h | 8718m | -17.1m/s | 0°C | 0% | 0hPa | 0V | 00:00:00 | 00:00:00 | 00:00:00 | |
| OM5KV | 2026-09-05 13:19:05 | 48.10486 | 17.94380 | 100° | 120km/h | 8806m | -16.6m/s | 0°C | 0% | 0hPa | 0V | 00:00:00 | 00:00:00 | 00:00:00 | |
| PETON7-10 | 2026-09-05 13:18:59 | 48.10525 | 17.94114 | 101° | 124km/h | 8907m | -17.6m/s | 0°C | 0% | 0hPa | 0V | 00:00:00 | 00:00:00 | 00:00:00 | |
| OM5KV | 2026-09-05 13:18:54 | 48.10553 | 17.93890 | 105° | 126km/h | 8996m | -17.5m/s | 0°C | 0% | 0hPa | 0V | 00:00:00 | 00:00:00 | 00:00:00 | |
| OM5KV | 2026-09-05 13:18:48 | 48.10587 | 17.93608 | 103° | 128km/h | 9098m | -17.1m/s | 0°C | 0% | 0hPa | 0V | 00:00:00 | 00:00:00 | 00:00:00 | |
| PETON7-10 | 2026-09-05 13:18:43 | 48.10610 | 17.93374 | 97° | 130km/h | 9182m | -15.7m/s | 0°C | 0% | 0hPa | 0V | 00:00:00 | 00:00:00 | 00:00:00 | |
| OM5KV | 2026-09-05 13:18:42 | 48.10615 | 17.93326 | 100° | 131km/h | 9198m | -15.7m/s | 0°C | 0% | 0hPa | 0V | 00:00:00 | 00:00:00 | 00:00:00 | |
| OM5KV | 2026-09-05 13:18:36 | 48.10644 | 17.93034 | 98° | 128km/h | 9299m | -18.2m/s | 0°C | 0% | 0hPa | 0V | 00:00:00 | 00:00:00 | 00:00:00 | |
| S52SK | 2026-09-05 13:18:35 | 48.10647 | 17.92986 | 94° | 130km/h | 9317m | -19.0m/s | 0°C | 0% | 0hPa | 0V | 00:00:00 | 00:00:00 | 00:00:00 | |
| OM5KV | 2026-09-05 13:18:31 | 48.10658 | 17.92790 | 99° | 133km/h | 9389m | -17.4m/s | 0°C | 0% | 0hPa | 0V | 00:00:00 | 00:00:00 | 00:00:00 | |
| PETON7-10 | 2026-09-05 13:18:28 | 48.10670 | 17.92640 | 98° | 139km/h | 9437m | -15.7m/s | 0°C | 0% | 0hPa | 0V | 00:00:00 | 00:00:00 | 00:00:00 | |
| OM5KV | 2026-09-05 13:18:25 | 48.10682 | 17.92490 | 99° | 137km/h | 9486m | -15.5m/s | 0°C | 0% | 0hPa | 0V | 00:00:00 | 00:00:00 | 00:00:00 | |
| OM5KV | 2026-09-05 13:18:18 | 48.10708 | 17.92119 | 99° | 137km/h | 9612m | -17.8m/s | 0°C | 0% | 0hPa | 0V | 00:00:00 | 00:00:00 | 00:00:00 | |
| OM5KV | 2026-09-05 13:18:12 | 48.10743 | 17.91809 | 102° | 139km/h | 9720m | -18.7m/s | 0°C | 0% | 0hPa | 0V | 00:00:00 | 00:00:00 | 00:00:00 | |
| PETON7-10 | 2026-09-05 13:18:11 | 48.10750 | 17.91758 | 101° | 133km/h | 9739m | -17.1m/s | 0°C | 0% | 0hPa | 0V | 00:00:00 | 00:00:00 | 00:00:00 | |
| OM5KV | 2026-09-05 13:18:04 | 48.10789 | 17.91409 | 101° | 133km/h | 9865m | -17.2m/s | 0°C | 0% | 0hPa | 0V | 00:00:00 | 00:00:00 | 00:00:00 | |
| PETON7-10 | 2026-09-05 13:17:56 | 48.10848 | 17.91007 | 104° | 135km/h | 10014m | -18.1m/s | 0°C | 0% | 0hPa | 0V | 00:00:00 | 00:00:00 | 00:00:00 | |
| OM5KV | 2026-09-05 13:17:55 | 48.10856 | 17.90957 | 105° | 135km/h | 10032m | -16.2m/s | 0°C | 0% | 0hPa | 0V | 00:00:00 | 00:00:00 | 00:00:00 | |
| PETON7-10 | 2026-09-05 13:17:41 | 48.10959 | 17.90266 | 101° | 131km/h | 10282m | -15.1m/s | 0°C | 0% | 0hPa | 0V | 00:00:00 | 00:00:00 | 00:00:00 | |
| OM5KV | 2026-09-05 13:17:40 | 48.10966 | 17.90216 | 104° | 133km/h | 10297m | -14.6m/s | 0°C | 0% | 0hPa | 0V | 00:00:00 | 00:00:00 | 00:00:00 | |
| OM5KV | 2026-09-05 13:17:30 | 48.11028 | 17.89726 | 102° | 131km/h | 10446m | -14.3m/s | 0°C | 0% | 0hPa | 0V | 00:00:00 | 00:00:00 | 00:00:00 | |
| PETON7-10 | 2026-09-05 13:17:26 | 48.11052 | 17.89530 | 102° | 131km/h | 10507m | -14.1m/s | 0°C | 0% | 0hPa | 0V | 00:00:00 | 00:00:00 | 00:00:00 | |
| OM5KV | 2026-09-05 13:17:24 | 48.11065 | 17.89432 | 103° | 135km/h | 10537m | -15.2m/s | 0°C | 0% | 0hPa | 0V | 00:00:00 | 00:00:00 | 00:00:00 | |
| OM5KV | 2026-09-05 13:17:18 | 48.11101 | 17.89137 | 101° | 133km/h | 10629m | -14.6m/s | 0°C | 0% | 0hPa | 0V | 00:00:00 | 00:00:00 | 00:00:00 | |
| OM5KV | 2026-09-05 13:17:13 | 48.11129 | 17.88890 | 101° | 133km/h | 10705m | -14.8m/s | 0°C | 0% | 0hPa | 0V | 00:00:00 | 00:00:00 | 00:00:00 | |
| PETON7-10 | 2026-09-05 13:17:11 | 48.11140 | 17.88793 | 100° | 133km/h | 10736m | -14.7m/s | 0°C | 0% | 0hPa | 0V | 00:00:00 | 00:00:00 | 00:00:00 | |
| OM5KV | 2026-09-05 13:17:06 | 48.11166 | 17.88547 | 100° | 135km/h | 10814m | -15.3m/s | 0°C | 0% | 0hPa | 0V | 00:00:00 | 00:00:00 | 00:00:00 | |
| OM5KV | 2026-09-05 13:17:01 | 48.11190 | 17.88297 | 99° | 135km/h | 10892m | -14.9m/s | 0°C | 0% | 0hPa | 0V | 00:00:00 | 00:00:00 | 00:00:00 | |
| PETON7-10 | 2026-09-05 13:16:56 | 48.11214 | 17.88047 | 99° | 133km/h | 10970m | -15.1m/s | 0°C | 0% | 0hPa | 0V | 00:00:00 | 00:00:00 | 00:00:00 | |
| OM5KV | 2026-09-05 13:16:44 | 48.11270 | 17.87444 | 100° | 135km/h | 11163m | -15.6m/s | 0°C | 0% | 0hPa | 0V | 00:00:00 | 00:00:00 | 00:00:00 | |
| PETON7-10 | 2026-09-05 13:16:40 | 48.11291 | 17.87245 | 101° | 131km/h | 11230m | -16.0m/s | 0°C | 0% | 0hPa | 0V | 00:00:00 | 00:00:00 | 00:00:00 | |
| OE3OSB-13 | 2026-09-05 13:16:39 | 48.11302 | 17.87146 | 100° | 133km/h | 11263m | -15.9m/s | -52.9°C | 24.0% | 229.9hPa | 0V | 00:00:00 | 00:00:00 | 00:00:00 | |
| OM5KV | 2026-09-05 13:16:38 | 48.11302 | 17.87146 | 102° | 133km/h | 11264m | -15.9m/s | 0°C | 0% | 0hPa | 0V | 00:00:00 | 00:00:00 | 00:00:00 | |
| OM5KV | 2026-09-05 13:16:33 | 48.11330 | 17.86899 | 101° | 130km/h | 11345m | -15.7m/s | 0°C | 0% | 0hPa | 0V | 00:00:00 | 00:00:00 | 00:00:00 | |
| PETON7-10 | 2026-09-05 13:16:25 | 48.11381 | 17.86510 | 102° | 130km/h | 11475m | -16.3m/s | 0°C | 0% | 0hPa | 0V | 00:00:00 | 00:00:00 | 00:00:00 | |
| OM5KV | 2026-09-05 13:16:17 | 48.11440 | 17.86126 | 104° | 128km/h | 11610m | -16.6m/s | 0°C | 0% | 0hPa | 0V | 00:00:00 | 00:00:00 | 00:00:00 | |
| OM5KV | 2026-09-05 13:16:12 | 48.11481 | 17.85888 | 106° | 130km/h | 11699m | -16.6m/s | 0°C | 0% | 0hPa | 0V | 00:00:00 | 00:00:00 | 00:00:00 | |
| PETON7-10 | 2026-09-05 13:16:10 | 48.11499 | 17.85792 | 106° | 137km/h | 11735m | -16.2m/s | 0°C | 0% | 0hPa | 0V | 00:00:00 | 00:00:00 | 00:00:00 | |
| OE3OSB-13 | 2026-09-05 13:16:08 | 48.11526 | 17.85647 | 106° | 133km/h | 11787m | -16.6m/s | -57.1°C | 9.5% | 211.4hPa | 0V | 00:00:00 | 00:00:00 | 00:00:00 | |
| OM5KV | 2026-09-05 13:16:06 | 48.11536 | 17.85597 | 107° | 137km/h | 11804m | -16.9m/s | 0°C | 0% | 0hPa | 0V | 00:00:00 | 00:00:00 | 00:00:00 | |
| OM5KV | 2026-09-05 13:16:01 | 48.11576 | 17.85347 | 102° | 141km/h | 11890m | -16.7m/s | 0°C | 0% | 0hPa | 0V | 00:00:00 | 00:00:00 | 00:00:00 | |
| PETON7-10 | 2026-09-05 13:15:54 | 48.11624 | 17.84986 | 102° | 148km/h | 12012m | -16.2m/s | 0°C | 0% | 0hPa | 0V | 00:00:00 | 00:00:00 | 00:00:00 | |
| OM5KV | 2026-09-05 13:15:47 | 48.11681 | 17.84613 | 104° | 144km/h | 12136m | -17.6m/s | 0°C | 0% | 0hPa | 0V | 00:00:00 | 00:00:00 | 00:00:00 | |
| OM5KV | 2026-09-05 13:15:41 | 48.11743 | 17.84284 | 108° | 157km/h | 12243m | -17.2m/s | 0°C | 0% | 0hPa | 0V | 00:00:00 | 00:00:00 | 00:00:00 | |
| PETON7-10 | 2026-09-05 13:15:39 | 48.11766 | 17.84171 | 109° | 162km/h | 12279m | -18.3m/s | 0°C | 0% | 0hPa | 0V | 00:00:00 | 00:00:00 | 00:00:00 | |
| OE3OSB-13 | 2026-09-05 13:15:37 | 48.11804 | 17.84000 | 108° | 161km/h | 12336m | -17.6m/s | -57.6°C | 2.2% | 193.5hPa | 0V | 00:00:00 | 00:00:00 | 00:00:00 | |
| OM5KV | 2026-09-05 13:15:35 | 48.11818 | 17.83942 | 110° | 162km/h | 12354m | -17.0m/s | 0°C | 0% | 0hPa | 0V | 00:00:00 | 00:00:00 | 00:00:00 | |
| PETON7-10 | 2026-09-05 13:15:24 | 48.11986 | 17.83312 | 116° | 153km/h | 12560m | -18.2m/s | 0°C | 0% | 0hPa | 0V | 00:00:00 | 00:00:00 | 00:00:00 | |
| PETON7-10 | 2026-09-05 13:15:09 | 48.12239 | 17.82533 | 117° | 124km/h | 12840m | -17.3m/s | 0°C | 0% | 0hPa | 0V | 00:00:00 | 00:00:00 | 00:00:00 | |
| OE3OSB-13 | 2026-09-05 13:15:06 | 48.12297 | 17.82341 | 112° | 133km/h | 12915m | -17.9m/s | -57.9°C | 0.0% | 176.3hPa | 0V | 00:00:00 | 00:00:00 | 00:00:00 | |
| PETON7-10 | 2026-09-05 13:14:53 | 48.12390 | 17.81816 | 99° | 117km/h | 13142m | -18.9m/s | 0°C | 0% | 0hPa | 0V | 00:00:00 | 00:00:00 | 00:00:00 | |
| PETON7-10 | 2026-09-05 13:14:38 | 48.12407 | 17.81162 | 88° | 122km/h | 13431m | -17.5m/s | 0°C | 0% | 0hPa | 0V | 00:00:00 | 00:00:00 | 00:00:00 | |
| PETON7-10 | 2026-09-05 13:14:22 | 48.12417 | 17.80416 | 96° | 133km/h | 13740m | -18.7m/s | 0°C | 0% | 0hPa | 0V | 00:00:00 | 00:00:00 | 00:00:00 | |
| PETON7-10 | 2026-09-05 13:14:07 | 48.12514 | 17.79685 | 108° | 110km/h | 14031m | -18.9m/s | 0°C | 0% | 0hPa | 0V | 00:00:00 | 00:00:00 | 00:00:00 | |
| OE3OSB-13 | 2026-09-05 13:14:04 | 48.12554 | 17.79512 | 109° | 115km/h | 14111m | -18.3m/s | -55.5°C | 0.0% | 145.5hPa | 0V | 00:00:00 | 00:00:00 | 00:00:00 | |
| PETON7-10 | 2026-09-05 13:13:52 | 48.12642 | 17.79099 | 101° | 91km/h | 14329m | -19.5m/s | 0°C | 0% | 0hPa | 0V | 00:00:00 | 00:00:00 | 00:00:00 | |
| PETON7-10 | 2026-09-05 13:13:37 | 48.12683 | 17.78585 | 93° | 104km/h | 14639m | -20.2m/s | 0°C | 0% | 0hPa | 0V | 00:00:00 | 00:00:00 | 00:00:00 | |
| OE3OSB-13 | 2026-09-05 13:13:33 | 48.12683 | 17.78398 | 88° | 102km/h | 14746m | -21.2m/s | -56.3°C | 0.0% | 131.3hPa | 0V | 00:00:00 | 00:00:00 | 00:00:00 | |
| PETON7-10 | 2026-09-05 13:13:22 | 48.12670 | 17.78001 | 88° | 111km/h | 14962m | -21.5m/s | 0°C | 0% | 0hPa | 0V | 00:00:00 | 00:00:00 | 00:00:00 | |
| PETON7-10 | 2026-09-05 13:13:07 | 48.12667 | 17.77391 | 97° | 93km/h | 15306m | -22.4m/s | 0°C | 0% | 0hPa | 0V | 00:00:00 | 00:00:00 | 00:00:00 | |
| OE3OSB-13 | 2026-09-05 13:13:02 | 48.12683 | 17.77113 | 89° | 95km/h | 15495m | -23.3m/s | -56.3°C | 0.0% | 116.3hPa | 0V | 00:00:00 | 00:00:00 | 00:00:00 | |
| PETON7-10 | 2026-09-05 13:12:52 | 48.12674 | 17.76862 | 84° | 93km/h | 15663m | -22.8m/s | 0°C | 0% | 0hPa | 0V | 00:00:00 | 00:00:00 | 00:00:00 | |
| PETON7-10 | 2026-09-05 13:12:36 | 48.12631 | 17.76305 | 90° | 84km/h | 16054m | -23.2m/s | 0°C | 0% | 0hPa | 0V | 00:00:00 | 00:00:00 | 00:00:00 | |
| OE3OSB-13 | 2026-09-05 13:12:31 | 48.12644 | 17.76109 | 96° | 82km/h | 16207m | -25.0m/s | -56.1°C | 0.0% | 103.6hPa | 0V | 00:00:00 | 00:00:00 | 00:00:00 | |
| HA6NAB-11 | 2026-09-05 13:12:30 | 48.12644 | 17.76109 | 98° | 82km/h | 16207m | -25.0m/s | 0°C | 0% | 0hPa | 0V | 00:00:00 | 00:00:00 | 00:00:00 | |
| HA6NAB-11 | 2026-09-05 13:12:24 | 48.12660 | 17.75927 | 100° | 78km/h | 16360m | -25.6m/s | 0°C | 0% | 0hPa | 0V | 00:00:00 | 00:00:00 | 00:00:00 | |
| PETON7-10 | 2026-09-05 13:12:21 | 48.12671 | 17.75845 | 100° | 77km/h | 16437m | -24.8m/s | 0°C | 0% | 0hPa | 0V | 00:00:00 | 00:00:00 | 00:00:00 | |
| HA6NAB-11 | 2026-09-05 13:12:19 | 48.12677 | 17.75791 | 98° | 71km/h | 16488m | -24.6m/s | 0°C | 0% | 0hPa | 0V | 00:00:00 | 00:00:00 | 00:00:00 | |
| HA6NAB-11 | 2026-09-05 13:12:13 | 48.12688 | 17.75625 | 91° | 78km/h | 16639m | -24.0m/s | 0°C | 0% | 0hPa | 0V | 00:00:00 | 00:00:00 | 00:00:00 | |
| HA6NAB-11 | 2026-09-05 13:12:08 | 48.12697 | 17.75476 | 98° | 84km/h | 16765m | -23.4m/s | 0°C | 0% | 0hPa | 0V | 00:00:00 | 00:00:00 | 00:00:00 | |
| PETON7-10 | 2026-09-05 13:12:06 | 48.12701 | 17.75415 | 97° | 78km/h | 16814m | -23.4m/s | 0°C | 0% | 0hPa | 0V | 00:00:00 | 00:00:00 | 00:00:00 | |
| HA6NAB-11 | 2026-09-05 13:12:02 | 48.12712 | 17.75290 | 99° | 82km/h | 16913m | -23.5m/s | 0°C | 0% | 0hPa | 0V | 00:00:00 | 00:00:00 | 00:00:00 | |
| OE3OSB-13 | 2026-09-05 13:12:00 | 48.12722 | 17.75196 | 98° | 82km/h | 16987m | -23.6m/s | -55.7°C | 0.0% | 91.3hPa | 0V | 00:00:00 | 00:00:00 | 00:00:00 | |
| PETON7-10 | 2026-09-05 13:11:48 | 48.12777 | 17.74899 | 106° | 49km/h | 17260m | -23.7m/s | 0°C | 0% | 0hPa | 0V | 00:00:00 | 00:00:00 | 00:00:00 | |
| PETON7-10 | 2026-09-05 13:11:28 | 48.12785 | 17.74532 | 99° | 44km/h | 17784m | -25.5m/s | 0°C | 0% | 0hPa | 0V | 00:00:00 | 00:00:00 | 00:00:00 | |
| PETON7-10 | 2026-09-05 13:11:12 | 48.12817 | 17.74286 | 78° | 35km/h | 18221m | -28.3m/s | 0°C | 0% | 0hPa | 0V | 00:00:00 | 00:00:00 | 00:00:00 | |
| PETON7-10 | 2026-09-05 13:10:57 | 48.12785 | 17.74099 | 80° | 37km/h | 18647m | -28.4m/s | 0°C | 0% | 0hPa | 0V | 00:00:00 | 00:00:00 | 00:00:00 | |
| PETON7-10 | 2026-09-05 13:10:42 | 48.12765 | 17.73899 | 79° | 35km/h | 19091m | -28.6m/s | 0°C | 0% | 0hPa | 0V | 00:00:00 | 00:00:00 | 00:00:00 | |
| PETON7-10 | 2026-09-05 13:10:23 | 48.12730 | 17.73646 | 87° | 24km/h | 19668m | -30.2m/s | 0°C | 0% | 0hPa | 0V | 00:00:00 | 00:00:00 | 00:00:00 | |
| PETON7-10 | 2026-09-05 13:10:08 | 48.12724 | 17.73512 | 95° | 20km/h | 20141m | -31.0m/s | 0°C | 0% | 0hPa | 0V | 00:00:00 | 00:00:00 | 00:00:00 | |
| OE3OSB-13 | 2026-09-05 13:09:56 | 48.12735 | 17.73408 | 94° | 16km/h | 20587m | -30.8m/s | -52.8°C | 0.0% | 50.6hPa | 0V | 00:00:00 | 00:00:00 | 00:00:00 | |
| PETON7-10 | 2026-09-05 13:09:49 | 48.12731 | 17.73377 | 76° | 18km/h | 20747m | -32.5m/s | 0°C | 0% | 0hPa | 0V | 00:00:00 | 00:00:00 | 00:00:00 | |
| PETON7-10 | 2026-09-05 13:09:28 | 48.12718 | 17.73209 | 80° | 18km/h | 21460m | -33.2m/s | 0°C | 0% | 0hPa | 0V | 00:00:00 | 00:00:00 | 00:00:00 | |
| OE3OSB-13 | 2026-09-05 13:09:24 | 48.12713 | 17.73177 | 95° | 16km/h | 21633m | -34.4m/s | -54.1°C | 0.0% | 42.5hPa | 0V | 00:00:00 | 00:00:00 | 00:00:00 | |
| PETON7-10 | 2026-09-05 13:09:13 | 48.12719 | 17.73106 | 98° | 11km/h | 21997m | -35.4m/s | 0°C | 0% | 0hPa | 0V | 00:00:00 | 00:00:00 | 00:00:00 | |
| OE3OSB-13 | 2026-09-05 13:08:55 | 48.12690 | 17.73067 | 35° | 11km/h | 22794m | -38.6m/s | -51.8°C | 0.0% | 35.0hPa | 0V | 00:00:00 | 00:00:00 | 00:00:00 | |
| PETON7-10 | 2026-09-05 13:08:35 | 48.12638 | 17.73034 | 48° | 18km/h | 23488m | -41.5m/s | 0°C | 0% | 0hPa | 0V | 00:00:00 | 00:00:00 | 00:00:00 | |
| PETON7-10 | 2026-09-05 13:08:20 | 48.12621 | 17.72954 | 39° | 16km/h | 24133m | -41.5m/s | 0°C | 0% | 0hPa | 0V | 00:00:00 | 00:00:00 | 00:00:00 | |
| PETON7-10 | 2026-09-05 13:08:02 | 48.12588 | 17.72868 | 81° | 26km/h | 24930m | -44.7m/s | 0°C | 0% | 0hPa | 0V | 00:00:00 | 00:00:00 | 00:00:00 | |
| OE3OSB-13 | 2026-09-05 13:07:51 | 48.12581 | 17.72728 | 97° | 24km/h | 25622m | -46.1m/s | -50.0°C | 0.0% | 21.4hPa | 0V | 00:00:00 | 00:00:00 | 00:00:00 | |
| PETON7-10 | 2026-09-05 13:07:44 | 48.12585 | 17.72700 | 93° | 22km/h | 25765m | -46.5m/s | 0°C | 0% | 0hPa | 0V | 00:00:00 | 00:00:00 | 00:00:00 | |
| PETON7-10 | 2026-09-05 13:07:29 | 48.12610 | 17.72584 | 124° | 13km/h | 26505m | -49.8m/s | 0°C | 0% | 0hPa | 0V | 00:00:00 | 00:00:00 | 00:00:00 | |
| PETON7-10 | 2026-09-05 13:07:13 | 48.12608 | 17.72519 | 80° | 16km/h | 27355m | -53.8m/s | 0°C | 0% | 0hPa | 0V | 00:00:00 | 00:00:00 | 00:00:00 | |
| OE3OSB-13 | 2026-09-05 13:06:49 | 48.12638 | 17.72409 | 84° | 13km/h | 28821m | -61.5m/s | -43.2°C | 0.0% | 11.9hPa | 0V | 00:00:00 | 00:00:00 | 00:00:00 | |
| OE3OSB-13 | 2026-09-05 13:06:18 | 48.12647 | 17.72218 | 63° | 16km/h | 31096m | -63.0m/s | -41.2°C | 0.0% | 7.5hPa | 0V | 00:00:00 | 00:00:00 | 00:00:00 | |
| PETON7-10 | 2026-09-05 13:06:13 | 48.12647 | 17.72218 | 64° | 26km/h | 31096m | -62.9m/s | 0°C | 0% | 0hPa | 0V | 00:00:00 | 00:00:00 | 00:00:00 | |
| OE3OSB-13 | 2026-09-05 13:05:47 | 48.12680 | 17.72011 | 82° | 37km/h | 32800m | -51.8m/s | -37.6°C | 0.0% | 5.2hPa | 0V | 00:00:00 | 00:00:00 | 00:00:00 | |
| PETON7-10 | 2026-09-05 13:05:45 | 48.12678 | 17.71995 | 75° | 29km/h | 32851m | -46.0m/s | 0°C | 0% | 0hPa | 0V | 00:00:00 | 00:00:00 | 00:00:00 | |
| OE5MMP-10 | 2026-09-05 13:05:34 | 48.12689 | 17.71899 | 101° | 22km/h | 32922m | 3.4m/s | 0°C | 0% | 0hPa | 0V | 00:00:00 | 00:00:00 | 00:00:00 | |
| PETON7-10 | 2026-09-05 13:05:26 | 48.12710 | 17.71837 | 179° | 31km/h | 32875m | 4.6m/s | 0°C | 0% | 0hPa | 0V | 00:00:00 | 00:00:00 | 00:00:00 | |
| OE5MMP-10 | 2026-09-05 13:05:24 | 48.12717 | 17.71832 | 141° | 26km/h | 32865m | 8.3m/s | 0°C | 0% | 0hPa | 0V | 00:00:00 | 00:00:00 | 00:00:00 | |
| OE3OSB-13 | 2026-09-05 13:05:16 | 48.12743 | 17.71753 | 146° | 37km/h | 32805m | 8.8m/s | -37.5°C | 0.0% | 5.3hPa | 0V | 00:00:00 | 00:00:00 | 00:00:00 | |
| OE5MMP-10 | 2026-09-05 13:05:14 | 48.12751 | 17.71744 | 146° | 33km/h | 32798m | 5.6m/s | 0°C | 0% | 0hPa | 0V | 00:00:00 | 00:00:00 | 00:00:00 | |
| PETON7-10 | 2026-09-05 13:05:10 | 48.12773 | 17.71706 | 96° | 38km/h | 32774m | 6.2m/s | 0°C | 0% | 0hPa | 0V | 00:00:00 | 00:00:00 | 00:00:00 | |
| S52SK | 2026-09-05 13:05:03 | 48.12812 | 17.71643 | 180° | 37km/h | 32729m | 7.3m/s | 0°C | 0% | 0hPa | 0V | 00:00:00 | 00:00:00 | 00:00:00 | |
| OE5MMP-10 | 2026-09-05 13:05:01 | 48.12824 | 17.71640 | 143° | 38km/h | 32719m | 3.1m/s | 0°C | 0% | 0hPa | 0V | 00:00:00 | 00:00:00 | 00:00:00 | |
| OE3OSB-13 | 2026-09-05 13:04:44 | 48.12878 | 17.71432 | 148° | 20km/h | 32610m | 6.3m/s | -37.7°C | 0.0% | 5.5hPa | 0V | 00:00:00 | 00:00:00 | 00:00:00 | |
| OE5MMP-10 | 2026-09-05 13:04:39 | 48.12902 | 17.71407 | 120° | 31km/h | 32591m | 6.5m/s | 0°C | 0% | 0hPa | 0V | 00:00:00 | 00:00:00 | 00:00:00 | |
| OK1ALN | 2026-09-05 13:04:32 | 48.12904 | 17.71338 | 136° | 44km/h | 32541m | 5.0m/s | 0°C | 0% | 0hPa | 0V | 00:00:00 | 00:00:00 | 00:00:00 | |
| OE5MMP-10 | 2026-09-05 13:04:28 | 48.12917 | 17.71310 | 50° | 24km/h | 32516m | 4.0m/s | 0°C | 0% | 0hPa | 0V | 00:00:00 | 00:00:00 | 00:00:00 | |
| OE3JTB-15 | 2026-09-05 13:04:25 | 48.12910 | 17.71284 | 93° | 24km/h | 32497m | 9.4m/s | 0°C | 0% | 0hPa | 0V | 00:00:00 | 00:00:00 | 00:00:00 | |
| PETON7-10 | 2026-09-05 13:04:24 | 48.12912 | 17.71270 | 108° | 27km/h | 32490m | 5.1m/s | 0°C | 0% | 0hPa | 0V | 00:00:00 | 00:00:00 | 00:00:00 | |
| OE5MMP-10 | 2026-09-05 13:04:18 | 48.12912 | 17.71225 | 61° | 27km/h | 32456m | 2.9m/s | 0°C | 0% | 0hPa | 0V | 00:00:00 | 00:00:00 | 00:00:00 | |
| OE3OSB-13 | 2026-09-05 13:04:13 | 48.12922 | 17.71175 | 139° | 16km/h | 32426m | 5.3m/s | -38.0°C | 0.0% | 5.8hPa | 0V | 00:00:00 | 00:00:00 | 00:00:00 | |
| OK1ALN | 2026-09-05 13:04:12 | 48.12923 | 17.71172 | 108° | 7km/h | 32419m | 5.4m/s | 0°C | 0% | 0hPa | 0V | 00:00:00 | 00:00:00 | 00:00:00 | |
| PETON7-10 | 2026-09-05 13:04:09 | 48.12912 | 17.71158 | 54° | 18km/h | 32398m | 6.4m/s | 0°C | 0% | 0hPa | 0V | 00:00:00 | 00:00:00 | 00:00:00 | |
| OE5MMP-10 | 2026-09-05 13:04:08 | 48.12909 | 17.71147 | 77° | 18km/h | 32393m | 5.1m/s | 0°C | 0% | 0hPa | 0V | 00:00:00 | 00:00:00 | 00:00:00 | |
| OE5MMP-10 | 2026-09-05 13:03:58 | 48.12913 | 17.71088 | 68° | 22km/h | 32327m | 7.3m/s | 0°C | 0% | 0hPa | 0V | 00:00:00 | 00:00:00 | 00:00:00 | |
| OE3JTB-15 | 2026-09-05 13:03:56 | 48.12908 | 17.71078 | 26° | 20km/h | 32312m | 5.2m/s | 0°C | 0% | 0hPa | 0V | 00:00:00 | 00:00:00 | 00:00:00 | |
| PETON7-10 | 2026-09-05 13:03:54 | 48.12903 | 17.71075 | 77° | 20km/h | 32300m | 6.7m/s | 0°C | 0% | 0hPa | 0V | 00:00:00 | 00:00:00 | 00:00:00 | |
| OK1ALN | 2026-09-05 13:03:51 | 48.12914 | 17.71057 | 135° | 31km/h | 32276m | 5.4m/s | 0°C | 0% | 0hPa | 0V | 00:00:00 | 00:00:00 | 00:00:00 | |
| OE5MMP-10 | 2026-09-05 13:03:47 | 48.12917 | 17.71027 | 47° | 16km/h | 32249m | 5.9m/s | 0°C | 0% | 0hPa | 0V | 00:00:00 | 00:00:00 | 00:00:00 | |
| OE3OSB-13 | 2026-09-05 13:03:42 | 48.12931 | 17.71009 | 171° | 13km/h | 32207m | 4.6m/s | -39.2°C | 0.0% | 6.0hPa | 0V | 00:00:00 | 00:00:00 | 00:00:00 | |
| PETON7-10 | 2026-09-05 13:03:39 | 48.12935 | 17.71001 | 93° | 27km/h | 32195m | 5.5m/s | 0°C | 0% | 0hPa | 0V | 00:00:00 | 00:00:00 | 00:00:00 | |
| OE5MMP-10 | 2026-09-05 13:03:37 | 48.12934 | 17.70982 | 85° | 26km/h | 32181m | 5.5m/s | 0°C | 0% | 0hPa | 0V | 00:00:00 | 00:00:00 | 00:00:00 | |
| S52SK | 2026-09-05 13:03:34 | 48.12936 | 17.70958 | 141° | 7km/h | 32165m | 7.4m/s | 0°C | 0% | 0hPa | 0V | 00:00:00 | 00:00:00 | 00:00:00 | |
| OK1ALN | 2026-09-05 13:03:31 | 48.12939 | 17.70961 | 173° | 7km/h | 32146m | 2.6m/s | 0°C | 0% | 0hPa | 0V | 00:00:00 | 00:00:00 | 00:00:00 | |
| S52SK | 2026-09-05 13:03:29 | 48.12947 | 17.70951 | 126° | 31km/h | 32137m | 7.7m/s | 0°C | 0% | 0hPa | 0V | 00:00:00 | 00:00:00 | 00:00:00 | |
| OE3JTB-15 | 2026-09-05 13:03:27 | 48.12958 | 17.70922 | 108° | 31km/h | 32121m | 4.5m/s | 0°C | 0% | 0hPa | 0V | 00:00:00 | 00:00:00 | 00:00:00 | |
| OE5MMP-10 | 2026-09-05 13:03:26 | 48.12961 | 17.70903 | 99° | 38km/h | 32116m | 4.0m/s | 0°C | 0% | 0hPa | 0V | 00:00:00 | 00:00:00 | 00:00:00 | |
| PETON7-10 | 2026-09-05 13:03:24 | 48.12959 | 17.70872 | 64° | 26km/h | 32102m | 12.4m/s | 0°C | 0% | 0hPa | 0V | 00:00:00 | 00:00:00 | 00:00:00 | |
| S52SK | 2026-09-05 13:03:23 | 48.12954 | 17.70865 | 14° | 26km/h | 32092m | 6.7m/s | 0°C | 0% | 0hPa | 0V | 00:00:00 | 00:00:00 | 00:00:00 | |
| OE5MMP-10 | 2026-09-05 13:03:15 | 48.12966 | 17.70796 | 64° | 40km/h | 32042m | 5.2m/s | 0°C | 0% | 0hPa | 0V | 00:00:00 | 00:00:00 | 00:00:00 | |
| OE3OSB-13 | 2026-09-05 13:03:11 | 48.12957 | 17.70772 | 146° | 22km/h | 32009m | 6.0m/s | -39.7°C | 0.0% | 6.3hPa | 0V | 00:00:00 | 00:00:00 | 00:00:00 | |
| PETON7-10 | 2026-09-05 13:03:09 | 48.12961 | 17.70765 | 121° | 31km/h | 32002m | 7.5m/s | 0°C | 0% | 0hPa | 0V | 00:00:00 | 00:00:00 | 00:00:00 | |
| OE5MMP-10 | 2026-09-05 13:03:05 | 48.12959 | 17.70709 | 74° | 29km/h | 31976m | 6.3m/s | 0°C | 0% | 0hPa | 0V | 00:00:00 | 00:00:00 | 00:00:00 | |
| OE3JTB-15 | 2026-09-05 13:02:58 | 48.12942 | 17.70644 | 62° | 29km/h | 31930m | 7.3m/s | 0°C | 0% | 0hPa | 0V | 00:00:00 | 00:00:00 | 00:00:00 | |
| OE5MMP-10 | 2026-09-05 13:02:55 | 48.12940 | 17.70613 | 93° | 27km/h | 31909m | 6.0m/s | 0°C | 0% | 0hPa | 0V | 00:00:00 | 00:00:00 | 00:00:00 | |
| PETON7-10 | 2026-09-05 13:02:53 | 48.12939 | 17.70587 | 74° | 29km/h | 31897m | 7.7m/s | 0°C | 0% | 0hPa | 0V | 00:00:00 | 00:00:00 | 00:00:00 | |
| OK1ALN | 2026-09-05 13:02:48 | 48.12918 | 17.70555 | 42° | 13km/h | 31863m | 6.7m/s | 0°C | 0% | 0hPa | 0V | 00:00:00 | 00:00:00 | 00:00:00 | |
| OE5MMP-10 | 2026-09-05 13:02:45 | 48.12909 | 17.70534 | 54° | 31km/h | 31842m | 7.5m/s | 0°C | 0% | 0hPa | 0V | 00:00:00 | 00:00:00 | 00:00:00 | |
| OE3OSB-13 | 2026-09-05 13:02:40 | 48.12877 | 17.70476 | 22° | 29km/h | 31792m | 6.5m/s | -40.0°C | 0.0% | 6.7hPa | 0V | 00:00:00 | 00:00:00 | 00:00:00 | |
| OE5MMP-10 | 2026-09-05 13:02:35 | 48.12852 | 17.70462 | 28° | 33km/h | 31774m | 7.2m/s | 0°C | 0% | 0hPa | 0V | 00:00:00 | 00:00:00 | 00:00:00 | |
| OE3JTB-15 | 2026-09-05 13:02:29 | 48.12825 | 17.70396 | 42° | 29km/h | 31731m | 5.7m/s | 0°C | 0% | 0hPa | 0V | 00:00:00 | 00:00:00 | 00:00:00 | |
| OK1ALN | 2026-09-05 13:02:26 | 48.12806 | 17.70386 | 11° | 16km/h | 31709m | 7.1m/s | 0°C | 0% | 0hPa | 0V | 00:00:00 | 00:00:00 | 00:00:00 | |
| OE5MMP-10 | 2026-09-05 13:02:25 | 48.12803 | 17.70383 | 32° | 26km/h | 31703m | 4.4m/s | 0°C | 0% | 0hPa | 0V | 00:00:00 | 00:00:00 | 00:00:00 | |
| PETON7-10 | 2026-09-05 13:02:22 | 48.12788 | 17.70358 | 43° | 33km/h | 31683m | 7.1m/s | 0°C | 0% | 0hPa | 0V | 00:00:00 | 00:00:00 | 00:00:00 | |
| OE5MMP-10 | 2026-09-05 13:02:14 | 48.12751 | 17.70319 | 28° | 35km/h | 31632m | 6.6m/s | 0°C | 0% | 0hPa | 0V | 00:00:00 | 00:00:00 | 00:00:00 | |
| OE3OSB-13 | 2026-09-05 13:02:09 | 48.12725 | 17.70256 | 21° | 15km/h | 31595m | 6.9m/s | -40.8°C | 0.0% | 6.9hPa | 0V | 00:00:00 | 00:00:00 | 00:00:00 | |
| PETON7-10 | 2026-09-05 13:02:07 | 48.12719 | 17.70255 | 358° | 31km/h | 31587m | 8.3m/s | 0°C | 0% | 0hPa | 0V | 00:00:00 | 00:00:00 | 00:00:00 | |
| OE5MMP-10 | 2026-09-05 13:02:04 | 48.12696 | 17.70250 | 32° | 29km/h | 31571m | 4.3m/s | 0°C | 0% | 0hPa | 0V | 00:00:00 | 00:00:00 | 00:00:00 | |
| OE3JTB-15 | 2026-09-05 13:02:00 | 48.12686 | 17.70202 | 76° | 29km/h | 31545m | 4.4m/s | 0°C | 0% | 0hPa | 0V | 00:00:00 | 00:00:00 | 00:00:00 | |
| S52SK | 2026-09-05 13:01:58 | 48.12676 | 17.70179 | 25° | 33km/h | 31535m | 6.0m/s | 0°C | 0% | 0hPa | 0V | 00:00:00 | 00:00:00 | 00:00:00 | |
| PETON7-10 | 2026-09-05 13:01:52 | 48.12644 | 17.70180 | 50° | 33km/h | 31497m | 8.2m/s | 0°C | 0% | 0hPa | 0V | 00:00:00 | 00:00:00 | 00:00:00 | |
| OE5MMP-10 | 2026-09-05 13:01:51 | 48.12638 | 17.70169 | 55° | 29km/h | 31488m | 10.3m/s | 0°C | 0% | 0hPa | 0V | 00:00:00 | 00:00:00 | 00:00:00 | |
| OK1ALN | 2026-09-05 13:01:43 | 48.12608 | 17.70131 | 344° | 27km/h | 31439m | 5.0m/s | 0°C | 0% | 0hPa | 0V | 00:00:00 | 00:00:00 | 00:00:00 | |
| OE5MMP-10 | 2026-09-05 13:01:41 | 48.12595 | 17.70125 | 53° | 29km/h | 31431m | 5.6m/s | 0°C | 0% | 0hPa | 0V | 00:00:00 | 00:00:00 | 00:00:00 | |
| OE3OSB-13 | 2026-09-05 13:01:38 | 48.12593 | 17.70081 | 78° | 18km/h | 31406m | 2.1m/s | -41.1°C | 0.0% | 7.2hPa | 0V | 00:00:00 | 00:00:00 | 00:00:00 | |
| PETON7-10 | 2026-09-05 13:01:37 | 48.12593 | 17.70081 | 79° | 24km/h | 31406m | 2.0m/s | 0°C | 0% | 0hPa | 0V | 00:00:00 | 00:00:00 | 00:00:00 | |
| OE5MMP-10 | 2026-09-05 13:01:31 | 48.12564 | 17.70082 | 345° | 22km/h | 31370m | 7.0m/s | 0°C | 0% | 0hPa | 0V | 00:00:00 | 00:00:00 | 00:00:00 | |
| OK1ALN | 2026-09-05 13:01:22 | 48.12544 | 17.70044 | 271° | 20km/h | 31311m | 4.6m/s | 0°C | 0% | 0hPa | 0V | 00:00:00 | 00:00:00 | 00:00:00 | |
| OE5MMP-10 | 2026-09-05 13:01:21 | 48.12543 | 17.70051 | 286° | 18km/h | 31307m | 3.9m/s | 0°C | 0% | 0hPa | 0V | 00:00:00 | 00:00:00 | 00:00:00 | |
| OE5MMP-10 | 2026-09-05 13:01:11 | 48.12512 | 17.70024 | 339° | 18km/h | 31248m | 3.6m/s | 0°C | 0% | 0hPa | 0V | 00:00:00 | 00:00:00 | 00:00:00 | |
| OE3OSB-13 | 2026-09-05 13:01:07 | 48.12528 | 17.70013 | 140° | 15km/h | 31219m | 3.2m/s | -41.9°C | 0.0% | 7.5hPa | 0V | 00:00:00 | 00:00:00 | 00:00:00 | |
| PETON7-10 | 2026-09-05 13:01:06 | 48.12528 | 17.70013 | 141° | 27km/h | 31220m | 3.1m/s | 0°C | 0% | 0hPa | 0V | 00:00:00 | 00:00:00 | 00:00:00 | |
| OE3JTB-15 | 2026-09-05 13:01:02 | 48.12511 | 17.70003 | 356° | 26km/h | 31196m | 2.3m/s | 0°C | 0% | 0hPa | 0V | 00:00:00 | 00:00:00 | 00:00:00 | |
| OE5MMP-10 | 2026-09-05 13:01:01 | 48.12504 | 17.70006 | 332° | 35km/h | 31194m | 1.8m/s | 0°C | 0% | 0hPa | 0V | 00:00:00 | 00:00:00 | 00:00:00 | |
| OE5MMP-10 | 2026-09-05 13:00:50 | 48.12526 | 17.70001 | 253° | 18km/h | 31125m | 6.1m/s | 0°C | 0% | 0hPa | 0V | 00:00:00 | 00:00:00 | 00:00:00 | |
| PETON7-10 | 2026-09-05 13:00:49 | 48.12529 | 17.70007 | 215° | 22km/h | 31119m | 4.2m/s | 0°C | 0% | 0hPa | 0V | 00:00:00 | 00:00:00 | 00:00:00 | |
| S52SK | 2026-09-05 13:00:44 | 48.12549 | 17.69978 | 118° | 29km/h | 31087m | 5.7m/s | 0°C | 0% | 0hPa | 0V | 00:00:00 | 00:00:00 | 00:00:00 | |
| OE5MMP-10 | 2026-09-05 13:00:40 | 48.12559 | 17.69968 | 290° | 16km/h | 31060m | 6.4m/s | 0°C | 0% | 0hPa | 0V | 00:00:00 | 00:00:00 | 00:00:00 | |
| S52SK | 2026-09-05 13:00:39 | 48.12558 | 17.69968 | 39° | 7km/h | 31053m | 6.4m/s | 0°C | 0% | 0hPa | 0V | 00:00:00 | 00:00:00 | 00:00:00 | |
| OE3OSB-13 | 2026-09-05 13:00:36 | 48.12570 | 17.69945 | 152° | 38km/h | 31029m | 6.6m/s | -42.2°C | 0.0% | 7.8hPa | 0V | 00:00:00 | 00:00:00 | 00:00:00 | |
| S52SK | 2026-09-05 13:00:34 | 48.12578 | 17.69939 | 150° | 29km/h | 31025m | 1.9m/s | 0°C | 0% | 0hPa | 0V | 00:00:00 | 00:00:00 | 00:00:00 | |
| PETON7-10 | 2026-09-05 13:00:33 | 48.12583 | 17.69933 | 134° | 26km/h | 31023m | 1.1m/s | 0°C | 0% | 0hPa | 0V | 00:00:00 | 00:00:00 | 00:00:00 | |
| OE5MMP-10 | 2026-09-05 13:00:30 | 48.12577 | 17.69917 | 15° | 20km/h | 30998m | 6.4m/s | 0°C | 0% | 0hPa | 0V | 00:00:00 | 00:00:00 | 00:00:00 | |
| PETON7-10 | 2026-09-05 13:00:20 | 48.12573 | 17.69845 | 120° | 20km/h | 30927m | 5.1m/s | 0°C | 0% | 0hPa | 0V | 00:00:00 | 00:00:00 | 00:00:00 | |
| OE5MMP-10 | 2026-09-05 13:00:19 | 48.12573 | 17.69843 | 80° | 22km/h | 30921m | 4.0m/s | 0°C | 0% | 0hPa | 0V | 00:00:00 | 00:00:00 | 00:00:00 | |
| OE5MMP-10 | 2026-09-05 13:00:08 | 48.12567 | 17.69770 | 39° | 27km/h | 30856m | 5.3m/s | 0°C | 0% | 0hPa | 0V | 00:00:00 | 00:00:00 | 00:00:00 | |
| OE3JTB-15 | 2026-09-05 13:00:05 | 48.12551 | 17.69754 | 46° | 27km/h | 30834m | 6.5m/s | 0°C | 0% | 0hPa | 0V | 00:00:00 | 00:00:00 | 00:00:00 | |
| OE5MMP-10 | 2026-09-05 12:59:57 | 48.12551 | 17.69684 | 86° | 24km/h | 30785m | 6.9m/s | 0°C | 0% | 0hPa | 0V | 00:00:00 | 00:00:00 | 00:00:00 | |
| PETON7-10 | 2026-09-05 12:59:46 | 48.12535 | 17.69605 | 86° | 27km/h | 30717m | 8.2m/s | 0°C | 0% | 0hPa | 0V | 00:00:00 | 00:00:00 | 00:00:00 | |
| OE5MMP-10 | 2026-09-05 12:59:45 | 48.12533 | 17.69598 | 53° | 29km/h | 30709m | 9.3m/s | 0°C | 0% | 0hPa | 0V | 00:00:00 | 00:00:00 | 00:00:00 | |
| OE5MMP-10 | 2026-09-05 12:59:35 | 48.12518 | 17.69497 | 61° | 24km/h | 30640m | 6.9m/s | 0°C | 0% | 0hPa | 0V | 00:00:00 | 00:00:00 | 00:00:00 | |
| OE3OSB-13 | 2026-09-05 12:59:34 | 48.12512 | 17.69480 | 59° | 18km/h | 30625m | 5.1m/s | -43.3°C | 0.0% | 8.5hPa | 0V | 00:00:00 | 00:00:00 | 00:00:00 | |
| PETON7-10 | 2026-09-05 12:59:30 | 48.12507 | 17.69457 | 87° | 20km/h | 30607m | 7.6m/s | 0°C | 0% | 0hPa | 0V | 00:00:00 | 00:00:00 | 00:00:00 | |
| OE5MMP-10 | 2026-09-05 12:59:25 | 48.12512 | 17.69413 | 127° | 18km/h | 30577m | 9.9m/s | 0°C | 0% | 0hPa | 0V | 00:00:00 | 00:00:00 | 00:00:00 | |
| PETON7-10 | 2026-09-05 12:59:15 | 48.12492 | 17.69372 | 97° | 22km/h | 30502m | 8.2m/s | 0°C | 0% | 0hPa | 0V | 00:00:00 | 00:00:00 | 00:00:00 | |
| OE5MMP-10 | 2026-09-05 12:59:14 | 48.12492 | 17.69358 | 88° | 18km/h | 30496m | 5.3m/s | 0°C | 0% | 0hPa | 0V | 00:00:00 | 00:00:00 | 00:00:00 | |
| S52SK | 2026-09-05 12:59:09 | 48.12483 | 17.69330 | 25° | 9km/h | 30459m | 6.9m/s | 0°C | 0% | 0hPa | 0V | 00:00:00 | 00:00:00 | 00:00:00 | |
| OE3JTB-15 | 2026-09-05 12:59:06 | 48.12480 | 17.69310 | 88° | 20km/h | 30439m | 7.5m/s | 0°C | 0% | 0hPa | 0V | 00:00:00 | 00:00:00 | 00:00:00 | |
| OE5MMP-10 | 2026-09-05 12:59:04 | 48.12479 | 17.69291 | 82° | 16km/h | 30424m | 7.9m/s | 0°C | 0% | 0hPa | 0V | 00:00:00 | 00:00:00 | 00:00:00 | |
| OE3OSB-13 | 2026-09-05 12:59:03 | 48.12473 | 17.69275 | 38° | 16km/h | 30399m | 6.4m/s | -43.4°C | 0.0% | 8.9hPa | 0V | 00:00:00 | 00:00:00 | 00:00:00 | |
| PETON7-10 | 2026-09-05 12:58:59 | 48.12466 | 17.69269 | 39° | 20km/h | 30387m | 7.0m/s | 0°C | 0% | 0hPa | 0V | 00:00:00 | 00:00:00 | 00:00:00 | |
| OE5MMP-10 | 2026-09-05 12:58:52 | 48.12454 | 17.69233 | 57° | 26km/h | 30339m | 4.9m/s | 0°C | 0% | 0hPa | 0V | 00:00:00 | 00:00:00 | 00:00:00 | |
| OE5MMP-10 | 2026-09-05 12:58:41 | 48.12422 | 17.69179 | 19° | 18km/h | 30263m | 5.9m/s | 0°C | 0% | 0hPa | 0V | 00:00:00 | 00:00:00 | 00:00:00 | |
| OE3JTB-15 | 2026-09-05 12:58:37 | 48.12414 | 17.69170 | 116° | 16km/h | 30230m | 6.3m/s | 0°C | 0% | 0hPa | 0V | 00:00:00 | 00:00:00 | 00:00:00 | |
| OE3OSB-13 | 2026-09-05 12:58:32 | 48.12409 | 17.69140 | 69° | 18km/h | 30196m | 7.5m/s | -42.9°C | 0.0% | 9.3hPa | 0V | 00:00:00 | 00:00:00 | 00:00:00 | |
| OE5MMP-10 | 2026-09-05 12:58:31 | 48.12409 | 17.69140 | 70° | 18km/h | 30196m | 7.4m/s | 0°C | 0% | 0hPa | 0V | 00:00:00 | 00:00:00 | 00:00:00 | |
| PETON7-10 | 2026-09-05 12:58:25 | 48.12411 | 17.69108 | 22° | 15km/h | 30154m | 6.8m/s | 0°C | 0% | 0hPa | 0V | 00:00:00 | 00:00:00 | 00:00:00 | |
| OE5MMP-10 | 2026-09-05 12:58:21 | 48.12405 | 17.69081 | 94° | 16km/h | 30126m | 7.0m/s | 0°C | 0% | 0hPa | 0V | 00:00:00 | 00:00:00 | 00:00:00 | |
| PETON7-10 | 2026-09-05 12:58:10 | 48.12404 | 17.69025 | 85° | 16km/h | 30050m | 6.9m/s | 0°C | 0% | 0hPa | 0V | 00:00:00 | 00:00:00 | 00:00:00 | |
| OE3JTB-15 | 2026-09-05 12:58:06 | 48.12414 | 17.69006 | 128° | 18km/h | 30023m | 6.7m/s | 0°C | 0% | 0hPa | 0V | 00:00:00 | 00:00:00 | 00:00:00 | |
| OE3OSB-13 | 2026-09-05 12:58:01 | 48.12414 | 17.68989 | 102° | 18km/h | 29979m | 6.3m/s | -42.9°C | 0.0% | 9.7hPa | 0V | 00:00:00 | 00:00:00 | 00:00:00 | |
| OE5MMP-10 | 2026-09-05 12:58:00 | 48.12414 | 17.68989 | 103° | 16km/h | 29979m | 6.2m/s | 0°C | 0% | 0hPa | 0V | 00:00:00 | 00:00:00 | 00:00:00 | |
| PETON7-10 | 2026-09-05 12:57:55 | 48.12432 | 17.68973 | 193° | 18km/h | 29944m | 5.8m/s | 0°C | 0% | 0hPa | 0V | 00:00:00 | 00:00:00 | 00:00:00 | |
| OE5MMP-10 | 2026-09-05 12:57:50 | 48.12437 | 17.68947 | 55° | 24km/h | 29911m | 9.2m/s | 0°C | 0% | 0hPa | 0V | 00:00:00 | 00:00:00 | 00:00:00 | |
| S52SK | 2026-09-05 12:57:49 | 48.12434 | 17.68942 | 42° | 15km/h | 29902m | 6.5m/s | 0°C | 0% | 0hPa | 0V | 00:00:00 | 00:00:00 | 00:00:00 | |
| S52SK | 2026-09-05 12:57:43 | 48.12453 | 17.68909 | 117° | 33km/h | 29866m | 3.8m/s | 0°C | 0% | 0hPa | 0V | 00:00:00 | 00:00:00 | 00:00:00 | |
| PETON7-10 | 2026-09-05 12:57:40 | 48.12449 | 17.68890 | 353° | 22km/h | 29845m | 4.8m/s | 0°C | 0% | 0hPa | 0V | 00:00:00 | 00:00:00 | 00:00:00 | |
| OE5MMP-10 | 2026-09-05 12:57:39 | 48.12445 | 17.68892 | 321° | 27km/h | 29841m | 4.5m/s | 0°C | 0% | 0hPa | 0V | 00:00:00 | 00:00:00 | 00:00:00 | |
| OE3JTB-15 | 2026-09-05 12:57:37 | 48.12446 | 17.68895 | 156° | 20km/h | 29827m | 7.7m/s | 0°C | 0% | 0hPa | 0V | 00:00:00 | 00:00:00 | 00:00:00 | |
| OE3OSB-13 | 2026-09-05 12:57:30 | 48.12483 | 17.68863 | 199° | 20km/h | 29775m | 6.4m/s | -42.8°C | 0.0% | 10.1hPa | 0V | 00:00:00 | 00:00:00 | 00:00:00 | |
| OE5MMP-10 | 2026-09-05 12:57:28 | 48.12487 | 17.68864 | 186° | 18km/h | 29769m | 6.0m/s | 0°C | 0% | 0hPa | 0V | 00:00:00 | 00:00:00 | 00:00:00 | |
| PETON7-10 | 2026-09-05 12:57:25 | 48.12490 | 17.68856 | 78° | 20km/h | 29751m | 5.3m/s | 0°C | 0% | 0hPa | 0V | 00:00:00 | 00:00:00 | 00:00:00 | |
| OE5MMP-10 | 2026-09-05 12:57:18 | 48.12524 | 17.68813 | 144° | 16km/h | 29703m | 8.9m/s | 0°C | 0% | 0hPa | 0V | 00:00:00 | 00:00:00 | 00:00:00 | |
| PETON7-10 | 2026-09-05 12:57:10 | 48.12540 | 17.68787 | 140° | 20km/h | 29648m | 6.5m/s | 0°C | 0% | 0hPa | 0V | 00:00:00 | 00:00:00 | 00:00:00 | |
| OE5MMP-10 | 2026-09-05 12:57:08 | 48.12548 | 17.68777 | 133° | 20km/h | 29634m | 6.7m/s | 0°C | 0% | 0hPa | 0V | 00:00:00 | 00:00:00 | 00:00:00 | |
| OE3OSB-13 | 2026-09-05 12:56:58 | 48.12581 | 17.68721 | 137° | 26km/h | 29570m | 6.7m/s | -43.5°C | 0.0% | 10.6hPa | 0V | 00:00:00 | 00:00:00 | 00:00:00 | |
| OE5MMP-10 | 2026-09-05 12:56:57 | 48.12586 | 17.68715 | 147° | 20km/h | 29563m | 7.7m/s | 0°C | 0% | 0hPa | 0V | 00:00:00 | 00:00:00 | 00:00:00 | |
| PETON7-10 | 2026-09-05 12:56:55 | 48.12594 | 17.68708 | 143° | 26km/h | 29551m | 4.7m/s | 0°C | 0% | 0hPa | 0V | 00:00:00 | 00:00:00 | 00:00:00 | |
| OE5MMP-10 | 2026-09-05 12:56:47 | 48.12605 | 17.68652 | 319° | 24km/h | 29495m | 6.5m/s | 0°C | 0% | 0hPa | 0V | 00:00:00 | 00:00:00 | 00:00:00 | |
| PETON7-10 | 2026-09-05 12:56:40 | 48.12608 | 17.68592 | 95° | 27km/h | 29457m | 8.8m/s | 0°C | 0% | 0hPa | 0V | 00:00:00 | 00:00:00 | 00:00:00 | |
| OE3JTB-15 | 2026-09-05 12:56:37 | 48.12602 | 17.68573 | 12° | 26km/h | 29438m | 4.6m/s | 0°C | 0% | 0hPa | 0V | 00:00:00 | 00:00:00 | 00:00:00 | |
| OE5MMP-10 | 2026-09-05 12:56:34 | 48.12601 | 17.68557 | 112° | 29km/h | 29416m | 6.6m/s | 0°C | 0% | 0hPa | 0V | 00:00:00 | 00:00:00 | 00:00:00 | |
| OE3OSB-13 | 2026-09-05 12:56:28 | 48.12603 | 17.68482 | 74° | 31km/h | 29373m | 5.5m/s | -43.5°C | 0.0% | 11.0hPa | 0V | 00:00:00 | 00:00:00 | 00:00:00 | |
| PETON7-10 | 2026-09-05 12:56:25 | 48.12601 | 17.68459 | 91° | 26km/h | 29361m | 7.6m/s | 0°C | 0% | 0hPa | 0V | 00:00:00 | 00:00:00 | 00:00:00 | |
| OE5MMP-10 | 2026-09-05 12:56:24 | 48.12600 | 17.68451 | 86° | 24km/h | 29353m | 7.9m/s | 0°C | 0% | 0hPa | 0V | 00:00:00 | 00:00:00 | 00:00:00 | |
| S52SK | 2026-09-05 12:56:21 | 48.12596 | 17.68432 | 70° | 24km/h | 29335m | 6.4m/s | 0°C | 0% | 0hPa | 0V | 00:00:00 | 00:00:00 | 00:00:00 | |
| S52SK | 2026-09-05 12:56:16 | 48.12588 | 17.68365 | 66° | 24km/h | 29301m | 7.3m/s | 0°C | 0% | 0hPa | 0V | 00:00:00 | 00:00:00 | 00:00:00 | |
| S52SK | 2026-09-05 12:56:10 | 48.12568 | 17.68325 | 92° | 26km/h | 29262m | 7.1m/s | 0°C | 0% | 0hPa | 0V | 00:00:00 | 00:00:00 | 00:00:00 | |
| PETON7-10 | 2026-09-05 12:56:09 | 48.12568 | 17.68316 | 101° | 24km/h | 29256m | 5.6m/s | 0°C | 0% | 0hPa | 0V | 00:00:00 | 00:00:00 | 00:00:00 | |
| OE5MMP-10 | 2026-09-05 12:56:04 | 48.12561 | 17.68269 | 49° | 20km/h | 29223m | 8.1m/s | 0°C | 0% | 0hPa | 0V | 00:00:00 | 00:00:00 | 00:00:00 | |
| OE3JTB-15 | 2026-09-05 12:56:01 | 48.12551 | 17.68262 | 358° | 20km/h | 29203m | 6.2m/s | 0°C | 0% | 0hPa | 0V | 00:00:00 | 00:00:00 | 00:00:00 | |
| OE3OSB-13 | 2026-09-05 12:55:56 | 48.12539 | 17.68213 | 40° | 15km/h | 29156m | 6.5m/s | -43.0°C | 0.0% | 11.4hPa | 0V | 00:00:00 | 00:00:00 | 00:00:00 | |
| PETON7-10 | 2026-09-05 12:55:54 | 48.12538 | 17.68213 | 41° | 24km/h | 29156m | 6.4m/s | 0°C | 0% | 0hPa | 0V | 00:00:00 | 00:00:00 | 00:00:00 | |
| OE5MMP-10 | 2026-09-05 12:55:52 | 48.12532 | 17.68205 | 43° | 20km/h | 29143m | 4.5m/s | 0°C | 0% | 0hPa | 0V | 00:00:00 | 00:00:00 | 00:00:00 | |
| OE5MMP-10 | 2026-09-05 12:55:42 | 48.12509 | 17.68154 | 2° | 20km/h | 29077m | 7.9m/s | 0°C | 0% | 0hPa | 0V | 00:00:00 | 00:00:00 | 00:00:00 | |
| PETON7-10 | 2026-09-05 12:55:35 | 48.12494 | 17.68110 | 47° | 20km/h | 29036m | 5.6m/s | 0°C | 0% | 0hPa | 0V | 00:00:00 | 00:00:00 | 00:00:00 | |
| OE5MMP-10 | 2026-09-05 12:55:32 | 48.12474 | 17.68100 | 319° | 22km/h | 29017m | 6.5m/s | 0°C | 0% | 0hPa | 0V | 00:00:00 | 00:00:00 | 00:00:00 | |
| OE3JTB-15 | 2026-09-05 12:55:31 | 48.12473 | 17.68104 | 260° | 13km/h | 29010m | 7.9m/s | 0°C | 0% | 0hPa | 0V | 00:00:00 | 00:00:00 | 00:00:00 | |
| OE3OSB-13 | 2026-09-05 12:55:25 | 48.12466 | 17.68066 | 31° | 24km/h | 28965m | 6.9m/s | -43.1°C | 0.0% | 11.9hPa | 0V | 00:00:00 | 00:00:00 | 00:00:00 | |
| OE5MMP-10 | 2026-09-05 12:55:22 | 48.12459 | 17.68057 | 53° | 13km/h | 28952m | 6.6m/s | 0°C | 0% | 0hPa | 0V | 00:00:00 | 00:00:00 | 00:00:00 | |
| PETON7-10 | 2026-09-05 12:55:19 | 48.12457 | 17.68051 | 238° | 11km/h | 28933m | 6.6m/s | 0°C | 0% | 0hPa | 0V | 00:00:00 | 00:00:00 | 00:00:00 | |
| OE5MMP-10 | 2026-09-05 12:55:12 | 48.12444 | 17.68034 | 349° | 11km/h | 28885m | 6.8m/s | 0°C | 0% | 0hPa | 0V | 00:00:00 | 00:00:00 | 00:00:00 | |
| PETON7-10 | 2026-09-05 12:55:03 | 48.12433 | 17.68021 | 32° | 15km/h | 28825m | 5.6m/s | 0°C | 0% | 0hPa | 0V | 00:00:00 | 00:00:00 | 00:00:00 | |
| OE5MMP-10 | 2026-09-05 12:55:02 | 48.12430 | 17.68017 | 43° | 15km/h | 28820m | 5.2m/s | 0°C | 0% | 0hPa | 0V | 00:00:00 | 00:00:00 | 00:00:00 | |
| OE3JTB-15 | 2026-09-05 12:55:01 | 48.12426 | 17.68012 | 35° | 13km/h | 28814m | 5.0m/s | 0°C | 0% | 0hPa | 0V | 00:00:00 | 00:00:00 | 00:00:00 | |
| OE3OSB-13 | 2026-09-05 12:54:54 | 48.12412 | 17.67994 | 56° | 16km/h | 28764m | 7.6m/s | -43.6°C | 0.0% | 12.3hPa | 0V | 00:00:00 | 00:00:00 | 00:00:00 | |
| OE5MMP-10 | 2026-09-05 12:54:52 | 48.12409 | 17.67989 | 25° | 11km/h | 28757m | 6.8m/s | 0°C | 0% | 0hPa | 0V | 00:00:00 | 00:00:00 | 00:00:00 | |
| PETON7-10 | 2026-09-05 12:54:48 | 48.12395 | 17.67980 | 115° | 11km/h | 28729m | 7.0m/s | 0°C | 0% | 0hPa | 0V | 00:00:00 | 00:00:00 | 00:00:00 | |
| S52SK | 2026-09-05 12:54:46 | 48.12398 | 17.67974 | 145° | 7km/h | 28716m | 5.4m/s | 0°C | 0% | 0hPa | 0V | 00:00:00 | 00:00:00 | 00:00:00 | |
| S52SK | 2026-09-05 12:54:41 | 48.12399 | 17.67960 | 83° | 16km/h | 28686m | 7.1m/s | 0°C | 0% | 0hPa | 0V | 00:00:00 | 00:00:00 | 00:00:00 | |
| OE5MMP-10 | 2026-09-05 12:54:39 | 48.12397 | 17.67948 | 47° | 9km/h | 28672m | 6.2m/s | 0°C | 0% | 0hPa | 0V | 00:00:00 | 00:00:00 | 00:00:00 | |
| PETON7-10 | 2026-09-05 12:54:33 | 48.12401 | 17.67952 | 208° | 15km/h | 28637m | 6.3m/s | 0°C | 0% | 0hPa | 0V | 00:00:00 | 00:00:00 | 00:00:00 | |
| OE5MMP-10 | 2026-09-05 12:54:29 | 48.12399 | 17.67947 | 77° | 16km/h | 28609m | 8.3m/s | 0°C | 0% | 0hPa | 0V | 00:00:00 | 00:00:00 | 00:00:00 | |
| OE3JTB-15 | 2026-09-05 12:54:28 | 48.12399 | 17.67941 | 103° | 18km/h | 28602m | 5.9m/s | 0°C | 0% | 0hPa | 0V | 00:00:00 | 00:00:00 | 00:00:00 | |
| OE5MMP-10 | 2026-09-05 12:54:19 | 48.12408 | 17.67959 | 121° | 16km/h | 28550m | 3.7m/s | 0°C | 0% | 0hPa | 0V | 00:00:00 | 00:00:00 | 00:00:00 | |
| PETON7-10 | 2026-09-05 12:54:18 | 48.12410 | 17.67953 | 95° | 16km/h | 28545m | 6.2m/s | 0°C | 0% | 0hPa | 0V | 00:00:00 | 00:00:00 | 00:00:00 | |
| OE5MMP-10 | 2026-09-05 12:54:09 | 48.12411 | 17.67944 | 72° | 18km/h | 28483m | 7.0m/s | 0°C | 0% | 0hPa | 0V | 00:00:00 | 00:00:00 | 00:00:00 | |
| PETON7-10 | 2026-09-05 12:54:01 | 48.12426 | 17.67937 | 179° | 22km/h | 28434m | 6.8m/s | 0°C | 0% | 0hPa | 0V | 00:00:00 | 00:00:00 | 00:00:00 | |
| OE3OSB-13 | 2026-09-05 12:53:52 | 48.12452 | 17.67880 | 162° | 24km/h | 28371m | 3.8m/s | -44.1°C | 0.0% | 13.3hPa | 0V | 00:00:00 | 00:00:00 | 00:00:00 | |
| PETON7-10 | 2026-09-05 12:53:46 | 48.12460 | 17.67861 | 95° | 22km/h | 28342m | 6.2m/s | 0°C | 0% | 0hPa | 0V | 00:00:00 | 00:00:00 | 00:00:00 | |
| OE5MMP-10 | 2026-09-05 12:53:45 | 48.12461 | 17.67856 | 122° | 16km/h | 28335m | 6.4m/s | 0°C | 0% | 0hPa | 0V | 00:00:00 | 00:00:00 | 00:00:00 | |
| OE5MMP-10 | 2026-09-05 12:53:34 | 48.12491 | 17.67810 | 72° | 24km/h | 28266m | 5.9m/s | 0°C | 0% | 0hPa | 0V | 00:00:00 | 00:00:00 | 00:00:00 | |
| PETON7-10 | 2026-09-05 12:53:30 | 48.12502 | 17.67772 | 162° | 26km/h | 28240m | 5.1m/s | 0°C | 0% | 0hPa | 0V | 00:00:00 | 00:00:00 | 00:00:00 | |
| OE3JTB-15 | 2026-09-05 12:53:28 | 48.12518 | 17.67773 | 209° | 22km/h | 28228m | 8.6m/s | 0°C | 0% | 0hPa | 0V | 00:00:00 | 00:00:00 | 00:00:00 | |
| OE3OSB-13 | 2026-09-05 12:53:21 | 48.12543 | 17.67733 | 147° | 33km/h | 28178m | 8.8m/s | -44.8°C | 0.0% | 13.8hPa | 0V | 00:00:00 | 00:00:00 | 00:00:00 | |
| OE5MMP-10 | 2026-09-05 12:53:19 | 48.12548 | 17.67729 | 174° | 20km/h | 28171m | 6.0m/s | 0°C | 0% | 0hPa | 0V | 00:00:00 | 00:00:00 | 00:00:00 | |
| PETON7-10 | 2026-09-05 12:53:14 | 48.12560 | 17.67713 | 115° | 24km/h | 28140m | 7.3m/s | 0°C | 0% | 0hPa | 0V | 00:00:00 | 00:00:00 | 00:00:00 | |
| OE5MMP-10 | 2026-09-05 12:53:09 | 48.12579 | 17.67670 | 131° | 22km/h | 28107m | 6.8m/s | 0°C | 0% | 0hPa | 0V | 00:00:00 | 00:00:00 | 00:00:00 | |
| OE3OSB-13 | 2026-09-05 12:52:50 | 48.12593 | 17.67544 | 102° | 20km/h | 27976m | 9.0m/s | -45.3°C | 0.0% | 14.3hPa | 0V | 00:00:00 | 00:00:00 | 00:00:00 | |
| OE5MMP-10 | 2026-09-05 12:52:49 | 48.12592 | 17.67544 | 103° | 22km/h | 27976m | 9.0m/s | 0°C | 0% | 0hPa | 0V | 00:00:00 | 00:00:00 | 00:00:00 | |
| PETON7-10 | 2026-09-05 12:52:44 | 48.12609 | 17.67513 | 161° | 13km/h | 27942m | 5.8m/s | 0°C | 0% | 0hPa | 0V | 00:00:00 | 00:00:00 | 00:00:00 | |
| S52SK | 2026-09-05 12:52:41 | 48.12612 | 17.67500 | 97° | 26km/h | 27923m | 6.6m/s | 0°C | 0% | 0hPa | 0V | 00:00:00 | 00:00:00 | 00:00:00 | |
| OE5MMP-10 | 2026-09-05 12:52:39 | 48.12615 | 17.67477 | 104° | 13km/h | 27908m | 8.1m/s | 0°C | 0% | 0hPa | 0V | 00:00:00 | 00:00:00 | 00:00:00 | |
| S52SK | 2026-09-05 12:52:36 | 48.12623 | 17.67460 | 149° | 11km/h | 27890m | 6.5m/s | 0°C | 0% | 0hPa | 0V | 00:00:00 | 00:00:00 | 00:00:00 | |
| S52SK | 2026-09-05 12:52:30 | 48.12629 | 17.67438 | 107° | 11km/h | 27846m | 5.1m/s | 0°C | 0% | 0hPa | 0V | 00:00:00 | 00:00:00 | 00:00:00 | |
| PETON7-10 | 2026-09-05 12:52:29 | 48.12630 | 17.67433 | 106° | 20km/h | 27840m | 6.0m/s | 0°C | 0% | 0hPa | 0V | 00:00:00 | 00:00:00 | 00:00:00 | |
| OE5MMP-10 | 2026-09-05 12:52:28 | 48.12631 | 17.67426 | 96° | 22km/h | 27833m | 7.7m/s | 0°C | 0% | 0hPa | 0V | 00:00:00 | 00:00:00 | 00:00:00 | |
| OE3OSB-13 | 2026-09-05 12:52:19 | 48.12627 | 17.67361 | 71° | 22km/h | 27768m | 7.3m/s | -45.5°C | 0.0% | 14.8hPa | 0V | 00:00:00 | 00:00:00 | 00:00:00 | |
| OE5MMP-10 | 2026-09-05 12:52:18 | 48.12627 | 17.67361 | 72° | 24km/h | 27768m | 7.2m/s | 0°C | 0% | 0hPa | 0V | 00:00:00 | 00:00:00 | 00:00:00 | |
| PETON7-10 | 2026-09-05 12:52:14 | 48.12624 | 17.67330 | 94° | 24km/h | 27740m | 8.0m/s | 0°C | 0% | 0hPa | 0V | 00:00:00 | 00:00:00 | 00:00:00 | |
| OE5MMP-10 | 2026-09-05 12:52:08 | 48.12624 | 17.67281 | 92° | 24km/h | 27699m | 7.0m/s | 0°C | 0% | 0hPa | 0V | 00:00:00 | 00:00:00 | 00:00:00 | |
| OE3OSB-13 | 2026-09-05 12:51:48 | 48.12605 | 17.67116 | 9° | 15km/h | 27559m | 7.1m/s | -46.1°C | 0.0% | 15.4hPa | 0V | 00:00:00 | 00:00:00 | 00:00:00 | |
| PETON7-10 | 2026-09-05 12:51:44 | 48.12600 | 17.67107 | 74° | 15km/h | 27539m | 5.6m/s | 0°C | 0% | 0hPa | 0V | 00:00:00 | 00:00:00 | 00:00:00 | |
| OE5MMP-10 | 2026-09-05 12:51:43 | 48.12600 | 17.67104 | 95° | 15km/h | 27533m | 7.0m/s | 0°C | 0% | 0hPa | 0V | 00:00:00 | 00:00:00 | 00:00:00 | |
| OE5MMP-10 | 2026-09-05 12:51:33 | 48.12591 | 17.67074 | 202° | 16km/h | 27468m | 6.1m/s | 0°C | 0% | 0hPa | 0V | 00:00:00 | 00:00:00 | 00:00:00 | |
| PETON7-10 | 2026-09-05 12:51:29 | 48.12595 | 17.67061 | 37° | 13km/h | 27441m | 7.4m/s | 0°C | 0% | 0hPa | 0V | 00:00:00 | 00:00:00 | 00:00:00 | |
| OE5MMP-10 | 2026-09-05 12:51:23 | 48.12597 | 17.67053 | 156° | 13km/h | 27401m | 6.0m/s | 0°C | 0% | 0hPa | 0V | 00:00:00 | 00:00:00 | 00:00:00 | |
| OE3OSB-13 | 2026-09-05 12:51:17 | 48.12610 | 17.67045 | 62° | 16km/h | 27359m | 5.6m/s | -46.8°C | 0.0% | 16.0hPa | 0V | 00:00:00 | 00:00:00 | 00:00:00 | |
| OE5MMP-10 | 2026-09-05 12:51:13 | 48.12613 | 17.67036 | 162° | 22km/h | 27340m | 6.7m/s | 0°C | 0% | 0hPa | 0V | 00:00:00 | 00:00:00 | 00:00:00 | |
| OE5MMP-10 | 2026-09-05 12:51:02 | 48.12659 | 17.66985 | 112° | 24km/h | 27269m | 7.1m/s | 0°C | 0% | 0hPa | 0V | 00:00:00 | 00:00:00 | 00:00:00 | |
| OE3JTB-15 | 2026-09-05 12:51:01 | 48.12666 | 17.66978 | 164° | 24km/h | 27257m | 4.9m/s | 0°C | 0% | 0hPa | 0V | 00:00:00 | 00:00:00 | 00:00:00 | |
| OE3OSB-13 | 2026-09-05 12:50:46 | 48.12702 | 17.66886 | 105° | 29km/h | 27161m | 5.8m/s | -47.5°C | 0.0% | 16.6hPa | 0V | 00:00:00 | 00:00:00 | 00:00:00 | |
| S52SK | 2026-09-05 12:50:45 | 48.12701 | 17.66886 | 106° | 31km/h | 27162m | 5.8m/s | 0°C | 0% | 0hPa | 0V | 00:00:00 | 00:00:00 | 00:00:00 | |
| PETON7-10 | 2026-09-05 12:50:43 | 48.12702 | 17.66861 | 84° | 26km/h | 27148m | 7.6m/s | 0°C | 0% | 0hPa | 0V | 00:00:00 | 00:00:00 | 00:00:00 | |
| OE5MMP-10 | 2026-09-05 12:50:41 | 48.12697 | 17.66841 | 58° | 27km/h | 27134m | 5.5m/s | 0°C | 0% | 0hPa | 0V | 00:00:00 | 00:00:00 | 00:00:00 | |
| S52SK | 2026-09-05 12:50:39 | 48.12692 | 17.66827 | 85° | 24km/h | 27123m | 7.6m/s | 0°C | 0% | 0hPa | 0V | 00:00:00 | 00:00:00 | 00:00:00 | |
| OE5MMP-10 | 2026-09-05 12:50:31 | 48.12693 | 17.66742 | 71° | 20km/h | 27068m | 5.1m/s | 0°C | 0% | 0hPa | 0V | 00:00:00 | 00:00:00 | 00:00:00 | |
| PETON7-10 | 2026-09-05 12:50:27 | 48.12682 | 17.66719 | 39° | 15km/h | 27044m | 5.8m/s | 0°C | 0% | 0hPa | 0V | 00:00:00 | 00:00:00 | 00:00:00 | |
| OE5MMP-10 | 2026-09-05 12:50:21 | 48.12694 | 17.66677 | 110° | 13km/h | 27004m | 5.5m/s | 0°C | 0% | 0hPa | 0V | 00:00:00 | 00:00:00 | 00:00:00 | |
| OE3OSB-13 | 2026-09-05 12:50:15 | 48.12689 | 17.66661 | 211° | 9km/h | 26962m | 5.5m/s | -47.9°C | 0.0% | 17.2hPa | 0V | 00:00:00 | 00:00:00 | 00:00:00 | |
| PETON7-10 | 2026-09-05 12:50:12 | 48.12693 | 17.66660 | 131° | 15km/h | 26951m | 4.1m/s | 0°C | 0% | 0hPa | 0V | 00:00:00 | 00:00:00 | 00:00:00 | |
| OE5MMP-10 | 2026-09-05 12:50:11 | 48.12696 | 17.66655 | 125° | 13km/h | 26946m | 7.2m/s | 0°C | 0% | 0hPa | 0V | 00:00:00 | 00:00:00 | 00:00:00 | |
| OE3JTB-15 | 2026-09-05 12:50:02 | 48.12710 | 17.66634 | 176° | 18km/h | 26884m | 5.1m/s | 0°C | 0% | 0hPa | 0V | 00:00:00 | 00:00:00 | 00:00:00 | |
| OE5MMP-10 | 2026-09-05 12:50:00 | 48.12718 | 17.66629 | 135° | 20km/h | 26873m | 5.6m/s | 0°C | 0% | 0hPa | 0V | 00:00:00 | 00:00:00 | 00:00:00 | |
| OE3OSB-13 | 2026-09-05 12:49:44 | 48.12760 | 17.66575 | 130° | 13km/h | 26768m | 7.5m/s | -48.5°C | 0.0% | 17.8hPa | 0V | 00:00:00 | 00:00:00 | 00:00:00 | |
| OE5MMP-10 | 2026-09-05 12:49:35 | 48.12787 | 17.66549 | 177° | 16km/h | 26720m | 6.4m/s | 0°C | 0% | 0hPa | 0V | 00:00:00 | 00:00:00 | 00:00:00 | |
| OE3JTB-15 | 2026-09-05 12:49:32 | 48.12795 | 17.66542 | 146° | 22km/h | 26699m | 7.0m/s | 0°C | 0% | 0hPa | 0V | 00:00:00 | 00:00:00 | 00:00:00 | |
| PETON7-10 | 2026-09-05 12:49:27 | 48.12816 | 17.66521 | 201° | 22km/h | 26669m | 4.7m/s | 0°C | 0% | 0hPa | 0V | 00:00:00 | 00:00:00 | 00:00:00 | |
| OE5MMP-10 | 2026-09-05 12:49:25 | 48.12826 | 17.66521 | 164° | 20km/h | 26655m | 6.5m/s | 0°C | 0% | 0hPa | 0V | 00:00:00 | 00:00:00 | 00:00:00 | |
| OE3OSB-13 | 2026-09-05 12:49:13 | 48.12883 | 17.66457 | 152° | 24km/h | 26579m | 8.1m/s | -48.1°C | 0.0% | 18.4hPa | 0V | 00:00:00 | 00:00:00 | 00:00:00 | |
| PETON7-10 | 2026-09-05 12:49:12 | 48.12883 | 17.66457 | 153° | 24km/h | 26579m | 8.0m/s | 0°C | 0% | 0hPa | 0V | 00:00:00 | 00:00:00 | 00:00:00 | |
| OE3JTB-15 | 2026-09-05 12:49:03 | 48.12934 | 17.66406 | 136° | 24km/h | 26512m | 6.8m/s | 0°C | 0% | 0hPa | 0V | 00:00:00 | 00:00:00 | 00:00:00 | |
| PETON7-10 | 2026-09-05 12:48:57 | 48.12959 | 17.66383 | 148° | 24km/h | 26480m | 4.2m/s | 0°C | 0% | 0hPa | 0V | 00:00:00 | 00:00:00 | 00:00:00 | |
| OE5MMP-10 | 2026-09-05 12:48:51 | 48.12989 | 17.66361 | 151° | 27km/h | 26442m | 7.9m/s | 0°C | 0% | 0hPa | 0V | 00:00:00 | 00:00:00 | 00:00:00 | |
| S52SK | 2026-09-05 12:48:48 | 48.13003 | 17.66336 | 128° | 33km/h | 26421m | 6.1m/s | 0°C | 0% | 0hPa | 0V | 00:00:00 | 00:00:00 | 00:00:00 | |
| S52SK | 2026-09-05 12:48:43 | 48.13027 | 17.66303 | 126° | 16km/h | 26391m | 6.9m/s | 0°C | 0% | 0hPa | 0V | 00:00:00 | 00:00:00 | 00:00:00 | |
| PETON7-10 | 2026-09-05 12:48:42 | 48.13031 | 17.66298 | 139° | 26km/h | 26384m | 7.0m/s | 0°C | 0% | 0hPa | 0V | 00:00:00 | 00:00:00 | 00:00:00 | |
| OE5MMP-10 | 2026-09-05 12:48:41 | 48.13035 | 17.66292 | 138° | 24km/h | 26377m | 6.2m/s | 0°C | 0% | 0hPa | 0V | 00:00:00 | 00:00:00 | 00:00:00 | |
| S52SK | 2026-09-05 12:48:37 | 48.13055 | 17.66259 | 115° | 33km/h | 26352m | 5.5m/s | 0°C | 0% | 0hPa | 0V | 00:00:00 | 00:00:00 | 00:00:00 | |
| OE3JTB-15 | 2026-09-05 12:48:33 | 48.13076 | 17.66218 | 120° | 27km/h | 26307m | 4.3m/s | 0°C | 0% | 0hPa | 0V | 00:00:00 | 00:00:00 | 00:00:00 | |
| OE5MMP-10 | 2026-09-05 12:48:28 | 48.13085 | 17.66202 | 133° | 26km/h | 26296m | 5.2m/s | 0°C | 0% | 0hPa | 0V | 00:00:00 | 00:00:00 | 00:00:00 | |
| PETON7-10 | 2026-09-05 12:48:27 | 48.13091 | 17.66194 | 137° | 24km/h | 26291m | 5.7m/s | 0°C | 0% | 0hPa | 0V | 00:00:00 | 00:00:00 | 00:00:00 | |
| OE5MMP-10 | 2026-09-05 12:48:17 | 48.13116 | 17.66116 | 92° | 26km/h | 26227m | 6.4m/s | 0°C | 0% | 0hPa | 0V | 00:00:00 | 00:00:00 | 00:00:00 | |
| PETON7-10 | 2026-09-05 12:48:12 | 48.13128 | 17.66075 | 107° | 29km/h | 26193m | 6.2m/s | 0°C | 0% | 0hPa | 0V | 00:00:00 | 00:00:00 | 00:00:00 | |
| OE3OSB-13 | 2026-09-05 12:48:10 | 48.13130 | 17.66042 | 92° | 27km/h | 26173m | 8.5m/s | -48.0°C | 0.0% | 19.8hPa | 0V | 00:00:00 | 00:00:00 | 00:00:00 | |
| OE5MMP-10 | 2026-09-05 12:48:05 | 48.13132 | 17.66003 | 77° | 31km/h | 26151m | 3.6m/s | 0°C | 0% | 0hPa | 0V | 00:00:00 | 00:00:00 | 00:00:00 | |
| OE3JTB-15 | 2026-09-05 12:48:00 | 48.13144 | 17.65910 | 86° | 33km/h | 26098m | 7.7m/s | 0°C | 0% | 0hPa | 0V | 00:00:00 | 00:00:00 | 00:00:00 | |
| PETON7-10 | 2026-09-05 12:47:57 | 48.13144 | 17.65910 | 86° | 37km/h | 26098m | 7.7m/s | 0°C | 0% | 0hPa | 0V | 00:00:00 | 00:00:00 | 00:00:00 | |
| OE5MMP-10 | 2026-09-05 12:47:46 | 48.13147 | 17.65760 | 82° | 33km/h | 26028m | 5.5m/s | 0°C | 0% | 0hPa | 0V | 00:00:00 | 00:00:00 | 00:00:00 | |
| PETON7-10 | 2026-09-05 12:47:41 | 48.13141 | 17.65693 | 105° | 31km/h | 25994m | 7.7m/s | 0°C | 0% | 0hPa | 0V | 00:00:00 | 00:00:00 | 00:00:00 | |
| OE3OSB-13 | 2026-09-05 12:47:39 | 48.13146 | 17.65660 | 88° | 27km/h | 25974m | 4.6m/s | -48.2°C | 0.0% | 20.4hPa | 0V | 00:00:00 | 00:00:00 | 00:00:00 | |
| OE5MMP-10 | 2026-09-05 12:47:35 | 48.13144 | 17.65628 | 92° | 27km/h | 25958m | 4.3m/s | 0°C | 0% | 0hPa | 0V | 00:00:00 | 00:00:00 | 00:00:00 | |
| OE3JTB-15 | 2026-09-05 12:47:27 | 48.13139 | 17.65511 | 61° | 26km/h | 25889m | 6.8m/s | 0°C | 0% | 0hPa | 0V | 00:00:00 | 00:00:00 | 00:00:00 | |
| OE5MMP-10 | 2026-09-05 12:47:25 | 48.13139 | 17.65511 | 61° | 29km/h | 25889m | 6.8m/s | 0°C | 0% | 0hPa | 0V | 00:00:00 | 00:00:00 | 00:00:00 | |
| PETON7-10 | 2026-09-05 12:47:10 | 48.13114 | 17.65367 | 76° | 24km/h | 25789m | 5.6m/s | 0°C | 0% | 0hPa | 0V | 00:00:00 | 00:00:00 | 00:00:00 | |
| OE3OSB-13 | 2026-09-05 12:47:08 | 48.13112 | 17.65335 | 85° | 16km/h | 25766m | 5.0m/s | -49.3°C | 0.0% | 21.2hPa | 0V | 00:00:00 | 00:00:00 | 00:00:00 | |
| OE5MMP-10 | 2026-09-05 12:47:00 | 48.13112 | 17.65294 | 66° | 20km/h | 25724m | 6.9m/s | 0°C | 0% | 0hPa | 0V | 00:00:00 | 00:00:00 | 00:00:00 | |
| OE3JTB-15 | 2026-09-05 12:46:58 | 48.13108 | 17.65257 | 88° | 22km/h | 25699m | 3.7m/s | 0°C | 0% | 0hPa | 0V | 00:00:00 | 00:00:00 | 00:00:00 | |
| PETON7-10 | 2026-09-05 12:46:55 | 48.13106 | 17.65247 | 80° | 20km/h | 25693m | 7.3m/s | 0°C | 0% | 0hPa | 0V | 00:00:00 | 00:00:00 | 00:00:00 | |
| OE5MMP-10 | 2026-09-05 12:46:48 | 48.13103 | 17.65192 | 91° | 15km/h | 25651m | 6.3m/s | 0°C | 0% | 0hPa | 0V | 00:00:00 | 00:00:00 | 00:00:00 | |
| S52SK | 2026-09-05 12:46:45 | 48.13101 | 17.65177 | 105° | 15km/h | 25631m | 5.7m/s | 0°C | 0% | 0hPa | 0V | 00:00:00 | 00:00:00 | 00:00:00 | |
| PETON7-10 | 2026-09-05 12:46:40 | 48.13117 | 17.65138 | 56° | 29km/h | 25596m | 4.5m/s | 0°C | 0% | 0hPa | 0V | 00:00:00 | 00:00:00 | 00:00:00 | |
| OE5MMP-10 | 2026-09-05 12:46:38 | 48.13093 | 17.65120 | 64° | 29km/h | 25585m | 4.3m/s | 0°C | 0% | 0hPa | 0V | 00:00:00 | 00:00:00 | 00:00:00 | |
| OE3OSB-13 | 2026-09-05 12:46:37 | 48.13088 | 17.65101 | 66° | 24km/h | 25572m | 7.3m/s | -50.2°C | 0.0% | 22.0hPa | 0V | 00:00:00 | 00:00:00 | 00:00:00 | |
| OE3JTB-15 | 2026-09-05 12:46:29 | 48.13067 | 17.65019 | 39° | 31km/h | 25506m | 7.8m/s | 0°C | 0% | 0hPa | 0V | 00:00:00 | 00:00:00 | 00:00:00 | |
| OE5MMP-10 | 2026-09-05 12:46:26 | 48.13067 | 17.65019 | 39° | 31km/h | 25506m | 7.8m/s | 0°C | 0% | 0hPa | 0V | 00:00:00 | 00:00:00 | 00:00:00 | |
| PETON7-10 | 2026-09-05 12:46:25 | 48.13044 | 17.65010 | 52° | 29km/h | 25499m | 7.1m/s | 0°C | 0% | 0hPa | 0V | 00:00:00 | 00:00:00 | 00:00:00 | |
| OE5MMP-10 | 2026-09-05 12:46:14 | 48.12992 | 17.64920 | 37° | 26km/h | 25428m | 8.1m/s | 0°C | 0% | 0hPa | 0V | 00:00:00 | 00:00:00 | 00:00:00 | |
| PETON7-10 | 2026-09-05 12:46:10 | 48.12979 | 17.64887 | 58° | 27km/h | 25400m | 5.4m/s | 0°C | 0% | 0hPa | 0V | 00:00:00 | 00:00:00 | 00:00:00 | |
| OE3OSB-13 | 2026-09-05 12:46:06 | 48.12959 | 17.64851 | 39° | 22km/h | 25366m | 7.6m/s | -50.1°C | 0.0% | 22.8hPa | 0V | 00:00:00 | 00:00:00 | 00:00:00 | |
| OE5MMP-10 | 2026-09-05 12:46:04 | 48.12955 | 17.64844 | 52° | 24km/h | 25361m | 2.8m/s | 0°C | 0% | 0hPa | 0V | 00:00:00 | 00:00:00 | 00:00:00 | |
| OE3JTB-15 | 2026-09-05 12:45:59 | 48.12928 | 17.64778 | 53° | 26km/h | 25312m | 5.2m/s | 0°C | 0% | 0hPa | 0V | 00:00:00 | 00:00:00 | 00:00:00 | |
| PETON7-10 | 2026-09-05 12:45:55 | 48.12924 | 17.64772 | 50° | 26km/h | 25307m | 6.2m/s | 0°C | 0% | 0hPa | 0V | 00:00:00 | 00:00:00 | 00:00:00 | |
| OE5MMP-10 | 2026-09-05 12:45:53 | 48.12919 | 17.64757 | 70° | 27km/h | 25291m | 6.2m/s | 0°C | 0% | 0hPa | 0V | 00:00:00 | 00:00:00 | 00:00:00 | |
| OE5MMP-10 | 2026-09-05 12:45:42 | 48.12873 | 17.64671 | 43° | 26km/h | 25224m | 8.1m/s | 0°C | 0% | 0hPa | 0V | 00:00:00 | 00:00:00 | 00:00:00 | |
| PETON7-10 | 2026-09-05 12:45:40 | 48.12866 | 17.64659 | 50° | 24km/h | 25209m | 6.7m/s | 0°C | 0% | 0hPa | 0V | 00:00:00 | 00:00:00 | 00:00:00 | |
| OE3OSB-13 | 2026-09-05 12:45:35 | 48.12841 | 17.64617 | 73° | 33km/h | 25169m | 4.4m/s | -49.7°C | 0.0% | 23.6hPa | 0V | 00:00:00 | 00:00:00 | 00:00:00 | |
| OE5MMP-10 | 2026-09-05 12:45:32 | 48.12836 | 17.64596 | 59° | 22km/h | 25159m | 4.1m/s | 0°C | 0% | 0hPa | 0V | 00:00:00 | 00:00:00 | 00:00:00 | |
| OE3JTB-15 | 2026-09-05 12:45:30 | 48.12818 | 17.64566 | 73° | 24km/h | 25123m | 6.5m/s | 0°C | 0% | 0hPa | 0V | 00:00:00 | 00:00:00 | 00:00:00 | |
| PETON7-10 | 2026-09-05 12:45:25 | 48.12813 | 17.64551 | 52° | 22km/h | 25110m | 4.6m/s | 0°C | 0% | 0hPa | 0V | 00:00:00 | 00:00:00 | 00:00:00 | |
| OE5MMP-10 | 2026-09-05 12:45:20 | 48.12804 | 17.64513 | 74° | 20km/h | 25080m | 7.1m/s | 0°C | 0% | 0hPa | 0V | 00:00:00 | 00:00:00 | 00:00:00 | |
| OE5MMP-10 | 2026-09-05 12:45:10 | 48.12781 | 17.64444 | 96° | 22km/h | 25020m | 5.7m/s | 0°C | 0% | 0hPa | 0V | 00:00:00 | 00:00:00 | 00:00:00 | |
| PETON7-10 | 2026-09-05 12:45:09 | 48.12781 | 17.64440 | 80° | 20km/h | 25015m | 5.1m/s | 0°C | 0% | 0hPa | 0V | 00:00:00 | 00:00:00 | 00:00:00 | |
| OE3OSB-13 | 2026-09-05 12:45:04 | 48.12766 | 17.64394 | 55° | 20km/h | 24978m | 6.2m/s | -49.3°C | 0.0% | 24.4hPa | 0V | 00:00:00 | 00:00:00 | 00:00:00 | |
| OE5MMP-10 | 2026-09-05 12:45:00 | 48.12761 | 17.64375 | 68° | 16km/h | 24959m | 5.7m/s | 0°C | 0% | 0hPa | 0V | 00:00:00 | 00:00:00 | 00:00:00 | |
| PETON7-10 | 2026-09-05 12:44:54 | 48.12755 | 17.64345 | 62° | 20km/h | 24924m | 4.4m/s | 0°C | 0% | 0hPa | 0V | 00:00:00 | 00:00:00 | 00:00:00 | |
| S52SK | 2026-09-05 12:44:52 | 48.12748 | 17.64334 | 40° | 24km/h | 24914m | 6.6m/s | 0°C | 0% | 0hPa | 0V | 00:00:00 | 00:00:00 | 00:00:00 | |
| OE5MMP-10 | 2026-09-05 12:44:50 | 48.12740 | 17.64323 | 61° | 18km/h | 24902m | 5.9m/s | 0°C | 0% | 0hPa | 0V | 00:00:00 | 00:00:00 | 00:00:00 | |
| S52SK | 2026-09-05 12:44:47 | 48.12731 | 17.64306 | 37° | 13km/h | 24881m | 7.6m/s | 0°C | 0% | 0hPa | 0V | 00:00:00 | 00:00:00 | 00:00:00 | |
| PETON7-10 | 2026-09-05 12:44:39 | 48.12706 | 17.64266 | 29° | 16km/h | 24831m | 6.6m/s | 0°C | 0% | 0hPa | 0V | 00:00:00 | 00:00:00 | 00:00:00 | |
| OE5MMP-10 | 2026-09-05 12:44:37 | 48.12699 | 17.64256 | 53° | 16km/h | 24820m | 5.4m/s | 0°C | 0% | 0hPa | 0V | 00:00:00 | 00:00:00 | 00:00:00 | |
| OE3OSB-13 | 2026-09-05 12:44:33 | 48.12688 | 17.64226 | 39° | 22km/h | 24775m | 5.0m/s | -49.1°C | 0.0% | 25.3hPa | 0V | 00:00:00 | 00:00:00 | 00:00:00 | |
| OE3JTB-15 | 2026-09-05 12:44:32 | 48.12688 | 17.64226 | 40° | 20km/h | 24775m | 4.9m/s | 0°C | 0% | 0hPa | 0V | 00:00:00 | 00:00:00 | 00:00:00 | |
| OE5MMP-10 | 2026-09-05 12:44:26 | 48.12674 | 17.64215 | 31° | 16km/h | 24757m | 7.9m/s | 0°C | 0% | 0hPa | 0V | 00:00:00 | 00:00:00 | 00:00:00 | |
| PETON7-10 | 2026-09-05 12:44:24 | 48.12670 | 17.64208 | 59° | 16km/h | 24743m | 8.8m/s | 0°C | 0% | 0hPa | 0V | 00:00:00 | 00:00:00 | 00:00:00 | |
| OE5MMP-10 | 2026-09-05 12:44:15 | 48.12635 | 17.64176 | 21° | 20km/h | 24687m | 5.8m/s | 0°C | 0% | 0hPa | 0V | 00:00:00 | 00:00:00 | 00:00:00 | |
| PETON7-10 | 2026-09-05 12:44:09 | 48.12613 | 17.64168 | 4° | 24km/h | 24650m | 7.4m/s | 0°C | 0% | 0hPa | 0V | 00:00:00 | 00:00:00 | 00:00:00 | |
| OE5MMP-10 | 2026-09-05 12:44:05 | 48.12584 | 17.64150 | 31° | 22km/h | 24623m | 5.9m/s | 0°C | 0% | 0hPa | 0V | 00:00:00 | 00:00:00 | 00:00:00 | |
| OE3OSB-13 | 2026-09-05 12:44:02 | 48.12561 | 17.64142 | 328° | 5km/h | 24600m | 5.9m/s | -49.4°C | 0.0% | 26.0hPa | 0V | 00:00:00 | 00:00:00 | 00:00:00 | |
| PETON7-10 | 2026-09-05 12:43:54 | 48.12532 | 17.64136 | 31° | 16km/h | 24560m | 6.1m/s | 0°C | 0% | 0hPa | 0V | 00:00:00 | 00:00:00 | 00:00:00 | |
| OE5MMP-10 | 2026-09-05 12:43:51 | 48.12519 | 17.64127 | 10° | 18km/h | 24541m | 5.2m/s | 0°C | 0% | 0hPa | 0V | 00:00:00 | 00:00:00 | 00:00:00 | |
| OE5MMP-10 | 2026-09-05 12:43:41 | 48.12481 | 17.64138 | 14° | 9km/h | 24484m | 6.8m/s | 0°C | 0% | 0hPa | 0V | 00:00:00 | 00:00:00 | 00:00:00 | |
| PETON7-10 | 2026-09-05 12:43:39 | 48.12478 | 17.64137 | 28° | 11km/h | 24474m | 6.6m/s | 0°C | 0% | 0hPa | 0V | 00:00:00 | 00:00:00 | 00:00:00 | |
| OE3JTB-15 | 2026-09-05 12:43:34 | 48.12463 | 17.64133 | 1° | 38km/h | 24436m | 4.8m/s | 0°C | 0% | 0hPa | 0V | 00:00:00 | 00:00:00 | 00:00:00 | |
| OE3OSB-13 | 2026-09-05 12:43:31 | 48.12453 | 17.64134 | 311° | 2km/h | 24421m | 4.8m/s | -50.3°C | 0% | 26.8hPa | 0V | 00:00:00 | 00:00:00 | 00:00:00 | |
| PETON7-10 | 2026-09-05 12:43:23 | 48.12431 | 17.64130 | 33° | 9km/h | 24376m | 6.7m/s | 0°C | 0% | 0hPa | 0V | 00:00:00 | 00:00:00 | 00:00:00 | |
| OE5MMP-10 | 2026-09-05 12:43:21 | 48.12426 | 17.64126 | 21° | 11km/h | 24363m | 5.5m/s | 0°C | 0% | 0hPa | 0V | 00:00:00 | 00:00:00 | 00:00:00 | |
| OE5MMP-10 | 2026-09-05 12:43:10 | 48.12403 | 17.64112 | 106° | 7km/h | 24293m | 7.4m/s | 0°C | 0% | 0hPa | 0V | 00:00:00 | 00:00:00 | 00:00:00 | |
| PETON7-10 | 2026-09-05 12:43:08 | 48.12401 | 17.64108 | 40° | 13km/h | 24283m | 5.3m/s | 0°C | 0% | 0hPa | 0V | 00:00:00 | 00:00:00 | 00:00:00 | |
| OE3OSB-13 | 2026-09-05 12:43:00 | 48.12396 | 17.64085 | 132° | 16km/h | 24226m | 6.8m/s | -51.5°C | 0.0% | 27.7hPa | 0V | 00:00:00 | 00:00:00 | 00:00:00 | |
| S52SK | 2026-09-05 12:42:58 | 48.12399 | 17.64080 | 124° | 16km/h | 24220m | 6.3m/s | 0°C | 0% | 0hPa | 0V | 00:00:00 | 00:00:00 | 00:00:00 | |
| S52SK | 2026-09-05 12:42:53 | 48.12396 | 17.64051 | 111° | 20km/h | 24190m | 5.6m/s | 0°C | 0% | 0hPa | 0V | 00:00:00 | 00:00:00 | 00:00:00 | |
| PETON7-10 | 2026-09-05 12:42:52 | 48.12398 | 17.64044 | 124° | 24km/h | 24184m | 6.5m/s | 0°C | 0% | 0hPa | 0V | 00:00:00 | 00:00:00 | 00:00:00 | |
| OE5MMP-10 | 2026-09-05 12:42:50 | 48.12404 | 17.64032 | 122° | 24km/h | 24171m | 4.8m/s | 0°C | 0% | 0hPa | 0V | 00:00:00 | 00:00:00 | 00:00:00 | |
| OE5MMP-10 | 2026-09-05 12:42:40 | 48.12401 | 17.63947 | 119° | 20km/h | 24113m | 3.6m/s | 0°C | 0% | 0hPa | 0V | 00:00:00 | 00:00:00 | 00:00:00 | |
| PETON7-10 | 2026-09-05 12:42:37 | 48.12405 | 17.63925 | 65° | 15km/h | 24096m | 6.1m/s | 0°C | 0% | 0hPa | 0V | 00:00:00 | 00:00:00 | 00:00:00 | |
| OE3OSB-13 | 2026-09-05 12:42:29 | 48.12393 | 17.63870 | 96° | 16km/h | 24042m | 6.0m/s | -51.7°C | 0.0% | 28.6hPa | 0V | 00:00:00 | 00:00:00 | 00:00:00 | |
| OE5MMP-10 | 2026-09-05 12:42:27 | 48.12393 | 17.63864 | 94° | 15km/h | 24036m | 6.3m/s | 0°C | 0% | 0hPa | 0V | 00:00:00 | 00:00:00 | 00:00:00 | |
| PETON7-10 | 2026-09-05 12:42:22 | 48.12386 | 17.63845 | 71° | 15km/h | 24005m | 4.3m/s | 0°C | 0% | 0hPa | 0V | 00:00:00 | 00:00:00 | 00:00:00 | |
| OE5MMP-10 | 2026-09-05 12:42:17 | 48.12376 | 17.63819 | 50° | 15km/h | 23977m | 7.5m/s | 0°C | 0% | 0hPa | 0V | 00:00:00 | 00:00:00 | 00:00:00 | |
| PETON7-10 | 2026-09-05 12:42:07 | 48.12358 | 17.63778 | 40° | 16km/h | 23917m | 4.2m/s | 0°C | 0% | 0hPa | 0V | 00:00:00 | 00:00:00 | 00:00:00 | |
| OE5MMP-10 | 2026-09-05 12:42:06 | 48.12356 | 17.63775 | 19° | 15km/h | 23912m | 4.8m/s | 0°C | 0% | 0hPa | 0V | 00:00:00 | 00:00:00 | 00:00:00 | |
| OE3OSB-13 | 2026-09-05 12:41:58 | 48.12329 | 17.63743 | 55° | 15km/h | 23857m | 7.7m/s | -52.7°C | 0.0% | 29.5hPa | 0V | 00:00:00 | 00:00:00 | 00:00:00 | |
| PETON7-10 | 2026-09-05 12:41:52 | 48.12320 | 17.63713 | 62° | 18km/h | 23823m | 5.0m/s | 0°C | 0% | 0hPa | 0V | 00:00:00 | 00:00:00 | 00:00:00 | |
| OE5MMP-10 | 2026-09-05 12:41:46 | 48.12295 | 17.63696 | 12° | 18km/h | 23787m | 6.1m/s | 0°C | 0% | 0hPa | 0V | 00:00:00 | 00:00:00 | 00:00:00 | |
| PETON7-10 | 2026-09-05 12:41:37 | 48.12266 | 17.63668 | 342° | 22km/h | 23728m | 4.6m/s | 0°C | 0% | 0hPa | 0V | 00:00:00 | 00:00:00 | 00:00:00 | |
| OE3OSB-13 | 2026-09-05 12:41:27 | 48.12228 | 17.63642 | 345° | 26km/h | 23654m | 4.0m/s | -52.3°C | 0.0% | 30.6hPa | 0V | 00:00:00 | 00:00:00 | 00:00:00 | |
| OE5MMP-10 | 2026-09-05 12:41:26 | 48.12228 | 17.63642 | 346° | 18km/h | 23654m | 3.9m/s | 0°C | 0% | 0hPa | 0V | 00:00:00 | 00:00:00 | 00:00:00 | |
| PETON7-10 | 2026-09-05 12:41:22 | 48.12207 | 17.63640 | 36° | 20km/h | 23634m | 5.0m/s | 0°C | 0% | 0hPa | 0V | 00:00:00 | 00:00:00 | 00:00:00 | |
| OE5MMP-10 | 2026-09-05 12:41:16 | 48.12191 | 17.63616 | 3° | 20km/h | 23594m | 6.8m/s | 0°C | 0% | 0hPa | 0V | 00:00:00 | 00:00:00 | 00:00:00 | |
| S52SK | 2026-09-05 12:41:07 | 48.12146 | 17.63597 | 335° | 4km/h | 23536m | 7.8m/s | 0°C | 0% | 0hPa | 0V | 00:00:00 | 00:00:00 | 00:00:00 | |
| OE5MMP-10 | 2026-09-05 12:41:06 | 48.12144 | 17.63598 | 343° | 20km/h | 23528m | 6.8m/s | 0°C | 0% | 0hPa | 0V | 00:00:00 | 00:00:00 | 00:00:00 | |
| PETON7-10 | 2026-09-05 12:41:05 | 48.12141 | 17.63600 | 347° | 20km/h | 23522m | 5.5m/s | 0°C | 0% | 0hPa | 0V | 00:00:00 | 00:00:00 | 00:00:00 | |
| S52SK | 2026-09-05 12:41:01 | 48.12117 | 17.63599 | 16° | 18km/h | 23496m | 6.4m/s | 0°C | 0% | 0hPa | 0V | 00:00:00 | 00:00:00 | 00:00:00 | |
| OE3OSB-13 | 2026-09-05 12:40:55 | 48.12095 | 17.63578 | 351° | 15km/h | 23450m | 5.2m/s | -52.4°C | 0.0% | 31.6hPa | 0V | 00:00:00 | 00:00:00 | 00:00:00 | |
| PETON7-10 | 2026-09-05 12:40:50 | 48.12071 | 17.63571 | 31° | 16km/h | 23428m | 5.1m/s | 0°C | 0% | 0hPa | 0V | 00:00:00 | 00:00:00 | 00:00:00 | |
| OE5MMP-10 | 2026-09-05 12:40:46 | 48.12059 | 17.63552 | 44° | 18km/h | 23404m | 5.5m/s | 0°C | 0% | 0hPa | 0V | 00:00:00 | 00:00:00 | 00:00:00 | |
| OE5MMP-10 | 2026-09-05 12:40:36 | 48.12026 | 17.63518 | 244° | 13km/h | 23348m | 6.5m/s | 0°C | 0% | 0hPa | 0V | 00:00:00 | 00:00:00 | 00:00:00 | |
| PETON7-10 | 2026-09-05 12:40:35 | 48.12025 | 17.63519 | 354° | 11km/h | 23342m | 5.8m/s | 0°C | 0% | 0hPa | 0V | 00:00:00 | 00:00:00 | 00:00:00 | |
| OE5MMP-10 | 2026-09-05 12:40:26 | 48.11994 | 17.63515 | 311° | 11km/h | 23289m | 5.6m/s | 0°C | 0% | 0hPa | 0V | 00:00:00 | 00:00:00 | 00:00:00 | |
| OE3OSB-13 | 2026-09-05 12:40:24 | 48.11994 | 17.63513 | 37° | 11km/h | 23270m | 6.9m/s | -52.1°C | 0.0% | 32.6hPa | 0V | 00:00:00 | 00:00:00 | 00:00:00 | |
| PETON7-10 | 2026-09-05 12:40:20 | 48.11985 | 17.63508 | 14° | 15km/h | 23249m | 4.5m/s | 0°C | 0% | 0hPa | 0V | 00:00:00 | 00:00:00 | 00:00:00 | |
| OE5MMP-10 | 2026-09-05 12:40:15 | 48.11976 | 17.63528 | 250° | 15km/h | 23217m | 7.5m/s | 0°C | 0% | 0hPa | 0V | 00:00:00 | 00:00:00 | 00:00:00 | |
| PETON7-10 | 2026-09-05 12:40:05 | 48.11956 | 17.63550 | 286° | 5km/h | 23154m | 5.1m/s | 0°C | 0% | 0hPa | 0V | 00:00:00 | 00:00:00 | 00:00:00 | |
| OE3OSB-13 | 2026-09-05 12:39:53 | 48.11955 | 17.63563 | 149° | 0km/h | 23075m | 4.8m/s | -52.0°C | 0.0% | 33.7hPa | 0V | 00:00:00 | 00:00:00 | 00:00:00 | |
| PETON7-10 | 2026-09-05 12:39:50 | 48.11955 | 17.63562 | 56° | 9km/h | 23065m | 5.9m/s | 0°C | 0% | 0hPa | 0V | 00:00:00 | 00:00:00 | 00:00:00 | |
| OE5MMP-10 | 2026-09-05 12:39:43 | 48.11947 | 17.63553 | 35° | 13km/h | 23020m | 6.7m/s | 0°C | 0% | 0hPa | 0V | 00:00:00 | 00:00:00 | 00:00:00 | |
| PETON7-10 | 2026-09-05 12:39:35 | 48.11926 | 17.63533 | 12° | 15km/h | 22969m | 8.1m/s | 0°C | 0% | 0hPa | 0V | 00:00:00 | 00:00:00 | 00:00:00 | |
| OE5MMP-10 | 2026-09-05 12:39:32 | 48.11918 | 17.63523 | 69° | 13km/h | 22947m | 6.2m/s | 0°C | 0% | 0hPa | 0V | 00:00:00 | 00:00:00 | 00:00:00 | |
| OE5MMP-10 | 2026-09-05 12:39:22 | 48.11893 | 17.63487 | 34° | 13km/h | 22882m | 3.9m/s | 0°C | 0% | 0hPa | 0V | 00:00:00 | 00:00:00 | 00:00:00 | |
| PETON7-10 | 2026-09-05 12:39:20 | 48.11887 | 17.63479 | 44° | 15km/h | 22872m | 6.4m/s | 0°C | 0% | 0hPa | 0V | 00:00:00 | 00:00:00 | 00:00:00 | |
| OE5MMP-10 | 2026-09-05 12:39:12 | 48.11867 | 17.63457 | 20° | 13km/h | 22824m | 6.2m/s | 0°C | 0% | 0hPa | 0V | 00:00:00 | 00:00:00 | 00:00:00 | |
| S52SK | 2026-09-05 12:39:11 | 48.11859 | 17.63451 | 37° | 16km/h | 22813m | 4.4m/s | 0°C | 0% | 0hPa | 0V | 00:00:00 | 00:00:00 | 00:00:00 | |
| PETON7-10 | 2026-09-05 12:39:05 | 48.11847 | 17.63440 | 77° | 7km/h | 22779m | 7.2m/s | 0°C | 0% | 0hPa | 0V | 00:00:00 | 00:00:00 | 00:00:00 | |
| S52SK | 2026-09-05 12:39:04 | 48.11847 | 17.63438 | 105° | 4km/h | 22773m | 5.1m/s | 0°C | 0% | 0hPa | 0V | 00:00:00 | 00:00:00 | 00:00:00 | |
| OE5MMP-10 | 2026-09-05 12:39:02 | 48.11848 | 17.63436 | 251° | 9km/h | 22762m | 8.1m/s | 0°C | 0% | 0hPa | 0V | 00:00:00 | 00:00:00 | 00:00:00 | |
| OE3OSB-13 | 2026-09-05 12:38:51 | 48.11823 | 17.63417 | 1° | 9km/h | 22690m | 5.5m/s | -51.6°C | 0.0% | 36.0hPa | 0V | 00:00:00 | 00:00:00 | 00:00:00 | |
| OE5MMP-10 | 2026-09-05 12:38:50 | 48.11823 | 17.63417 | 2° | 9km/h | 22690m | 5.4m/s | 0°C | 0% | 0hPa | 0V | 00:00:00 | 00:00:00 | 00:00:00 | |
| OE5MMP-10 | 2026-09-05 12:38:37 | 48.11791 | 17.63406 | 319° | 7km/h | 22605m | 7.4m/s | 0°C | 0% | 0hPa | 0V | 00:00:00 | 00:00:00 | 00:00:00 | |
| PETON7-10 | 2026-09-05 12:38:35 | 48.11788 | 17.63406 | 39° | 7km/h | 22594m | 6.0m/s | 0°C | 0% | 0hPa | 0V | 00:00:00 | 00:00:00 | 00:00:00 | |
| OE5MMP-10 | 2026-09-05 12:38:27 | 48.11781 | 17.63401 | 243° | 9km/h | 22548m | 8.2m/s | 0°C | 0% | 0hPa | 0V | 00:00:00 | 00:00:00 | 00:00:00 | |
| PETON7-10 | 2026-09-05 12:38:20 | 48.11782 | 17.63401 | 13° | 9km/h | 22502m | 6.6m/s | 0°C | 0% | 0hPa | 0V | 00:00:00 | 00:00:00 | 00:00:00 | |
| OE5MMP-10 | 2026-09-05 12:38:16 | 48.11771 | 17.63390 | 41° | 7km/h | 22477m | 7.1m/s | 0°C | 0% | 0hPa | 0V | 00:00:00 | 00:00:00 | 00:00:00 | |
| PETON7-10 | 2026-09-05 12:38:05 | 48.11760 | 17.63372 | 70° | 13km/h | 22406m | 7.3m/s | 0°C | 0% | 0hPa | 0V | 00:00:00 | 00:00:00 | 00:00:00 | |
| OE5MMP-10 | 2026-09-05 12:38:04 | 48.11759 | 17.63370 | 48° | 15km/h | 22399m | 6.0m/s | 0°C | 0% | 0hPa | 0V | 00:00:00 | 00:00:00 | 00:00:00 | |
| OE3OSB-13 | 2026-09-05 12:37:49 | 48.11803 | 17.63321 | 128° | 22km/h | 22300m | 8.3m/s | -52.8°C | 0.0% | 38.4hPa | 0V | 00:00:00 | 00:00:00 | 00:00:00 | |
| OE5MMP-10 | 2026-09-05 12:37:39 | 48.11835 | 17.63275 | 126° | 24km/h | 22246m | 2.6m/s | 0°C | 0% | 0hPa | 0V | 00:00:00 | 00:00:00 | 00:00:00 | |
| OE5MMP-10 | 2026-09-05 12:37:29 | 48.11867 | 17.63197 | 117° | 26km/h | 22182m | 6.0m/s | 0°C | 0% | 0hPa | 0V | 00:00:00 | 00:00:00 | 00:00:00 | |
| S52SK | 2026-09-05 12:37:22 | 48.11895 | 17.63120 | 112° | 27km/h | 22139m | 1.2m/s | 0°C | 0% | 0hPa | 0V | 00:00:00 | 00:00:00 | 00:00:00 | |
| PETON7-10 | 2026-09-05 12:37:20 | 48.11898 | 17.63117 | 108° | 24km/h | 22131m | 8.5m/s | 0°C | 0% | 0hPa | 0V | 00:00:00 | 00:00:00 | 00:00:00 | |
| OE3OSB-13 | 2026-09-05 12:37:18 | 48.11905 | 17.63079 | 112° | 22km/h | 22111m | 7.4m/s | -53.4°C | 0.0% | 39.6hPa | 0V | 00:00:00 | 00:00:00 | 00:00:00 | |
| PETON7-10 | 2026-09-05 12:37:05 | 48.11931 | 17.62986 | 99° | 22km/h | 22037m | 2.9m/s | 0°C | 0% | 0hPa | 0V | 00:00:00 | 00:00:00 | 00:00:00 | |
| OE3OSB-13 | 2026-09-05 12:36:47 | 48.11956 | 17.62849 | 114° | 16km/h | 21913m | 5.9m/s | -53.1°C | 0.0% | 40.9hPa | 0V | 00:00:00 | 00:00:00 | 00:00:00 | |
| OE5MMP-10 | 2026-09-05 12:36:36 | 48.11978 | 17.62779 | 118° | 15km/h | 21857m | 2.3m/s | 0°C | 0% | 0hPa | 0V | 00:00:00 | 00:00:00 | 00:00:00 | |
| PETON7-10 | 2026-09-05 12:36:33 | 48.11983 | 17.62756 | 118° | 13km/h | 21837m | 6.7m/s | 0°C | 0% | 0hPa | 0V | 00:00:00 | 00:00:00 | 00:00:00 | |
| OE5MMP-10 | 2026-09-05 12:36:23 | 48.11992 | 17.62712 | 96° | 13km/h | 21777m | 7.0m/s | 0°C | 0% | 0hPa | 0V | 00:00:00 | 00:00:00 | 00:00:00 | |
| PETON7-10 | 2026-09-05 12:36:18 | 48.11998 | 17.62696 | 88° | 18km/h | 21747m | 5.1m/s | 0°C | 0% | 0hPa | 0V | 00:00:00 | 00:00:00 | 00:00:00 | |
| OE3OSB-13 | 2026-09-05 12:36:16 | 48.12004 | 17.62679 | 133° | 20km/h | 21731m | 6.8m/s | -52.5°C | 0.0% | 42.2hPa | 0V | 00:00:00 | 00:00:00 | 00:00:00 | |
| PETON7-10 | 2026-09-05 12:36:03 | 48.12039 | 17.62609 | 142° | 16km/h | 21652m | 7.6m/s | 0°C | 0% | 0hPa | 0V | 00:00:00 | 00:00:00 | 00:00:00 | |
| OE3OSB-13 | 2026-09-05 12:35:45 | 48.12063 | 17.62511 | 78° | 15km/h | 21537m | 4.8m/s | -51.7°C | 0.0% | 43.6hPa | 0V | 00:00:00 | 00:00:00 | 00:00:00 | |
| S52SK | 2026-09-05 12:35:41 | 48.12064 | 17.62492 | 122° | 18km/h | 21520m | 6.3m/s | 0°C | 0% | 0hPa | 0V | 00:00:00 | 00:00:00 | 00:00:00 | |
| S52SK | 2026-09-05 12:35:36 | 48.12068 | 17.62469 | 94° | 11km/h | 21488m | 4.9m/s | 0°C | 0% | 0hPa | 0V | 00:00:00 | 00:00:00 | 00:00:00 | |
| PETON7-10 | 2026-09-05 12:35:33 | 48.12067 | 17.62451 | 102° | 18km/h | 21472m | 2.6m/s | 0°C | 0% | 0hPa | 0V | 00:00:00 | 00:00:00 | 00:00:00 | |
| S52SK | 2026-09-05 12:35:31 | 48.12068 | 17.62433 | 95° | 26km/h | 21459m | 7.2m/s | 0°C | 0% | 0hPa | 0V | 00:00:00 | 00:00:00 | 00:00:00 | |
| PETON7-10 | 2026-09-05 12:35:18 | 48.12066 | 17.62355 | 99° | 22km/h | 21379m | 3.5m/s | 0°C | 0% | 0hPa | 0V | 00:00:00 | 00:00:00 | 00:00:00 | |
| OE3OSB-13 | 2026-09-05 12:35:14 | 48.12058 | 17.62317 | 67° | 22km/h | 21354m | 5.4m/s | -51.7°C | 0.0% | 44.9hPa | 0V | 00:00:00 | 00:00:00 | 00:00:00 | |
| PETON7-10 | 2026-09-05 12:35:03 | 48.12025 | 17.62249 | 46° | 18km/h | 21293m | 5.4m/s | 0°C | 0% | 0hPa | 0V | 00:00:00 | 00:00:00 | 00:00:00 | |
| OE3OSB-13 | 2026-09-05 12:34:43 | 48.11983 | 17.62131 | 74° | 16km/h | 21169m | 4.9m/s | -51.3°C | 0.0% | 46.3hPa | 0V | 00:00:00 | 00:00:00 | 00:00:00 | |
| OE5MMP-10 | 2026-09-05 12:34:42 | 48.11982 | 17.62131 | 75° | 20km/h | 21169m | 4.8m/s | 0°C | 0% | 0hPa | 0V | 00:00:00 | 00:00:00 | 00:00:00 | |
| PETON7-10 | 2026-09-05 12:34:33 | 48.11977 | 17.62090 | 114° | 20km/h | 21120m | 6.6m/s | 0°C | 0% | 0hPa | 0V | 00:00:00 | 00:00:00 | 00:00:00 | |
| OE5MMP-10 | 2026-09-05 12:34:27 | 48.11975 | 17.62045 | 71° | 18km/h | 21088m | 5.3m/s | 0°C | 0% | 0hPa | 0V | 00:00:00 | 00:00:00 | 00:00:00 | |
| PETON7-10 | 2026-09-05 12:34:18 | 48.11968 | 17.61982 | 61° | 26km/h | 21025m | 6.1m/s | 0°C | 0% | 0hPa | 0V | 00:00:00 | 00:00:00 | 00:00:00 | |
| OE5MMP-10 | 2026-09-05 12:34:17 | 48.11963 | 17.61970 | 60° | 27km/h | 21019m | 5.7m/s | 0°C | 0% | 0hPa | 0V | 00:00:00 | 00:00:00 | 00:00:00 | |
| OE3OSB-13 | 2026-09-05 12:34:11 | 48.11948 | 17.61928 | 87° | 7km/h | 20988m | 6.6m/s | -51.3°C | 0.0% | 47.7hPa | 0V | 00:00:00 | 00:00:00 | 00:00:00 | |
| OE5MMP-10 | 2026-09-05 12:34:07 | 48.11944 | 17.61896 | 56° | 27km/h | 20964m | 5.7m/s | 0°C | 0% | 0hPa | 0V | 00:00:00 | 00:00:00 | 00:00:00 | |
| PETON7-10 | 2026-09-05 12:34:03 | 48.11930 | 17.61860 | 74° | 24km/h | 20941m | 6.8m/s | 0°C | 0% | 0hPa | 0V | 00:00:00 | 00:00:00 | 00:00:00 | |
| S52SK | 2026-09-05 12:33:57 | 48.11929 | 17.61819 | 85° | 29km/h | 20905m | 6.0m/s | 0°C | 0% | 0hPa | 0V | 00:00:00 | 00:00:00 | 00:00:00 | |
| PETON7-10 | 2026-09-05 12:33:48 | 48.11907 | 17.61740 | 70° | 26km/h | 20851m | 5.1m/s | 0°C | 0% | 0hPa | 0V | 00:00:00 | 00:00:00 | 00:00:00 | |
| OE3OSB-13 | 2026-09-05 12:33:41 | 48.11887 | 17.61679 | 54° | 31km/h | 20808m | 7.5m/s | -51.1°C | 0.0% | 49.2hPa | 0V | 00:00:00 | 00:00:00 | 00:00:00 | |
| PETON7-10 | 2026-09-05 12:33:33 | 48.11857 | 17.61614 | 34° | 20km/h | 20765m | 5.7m/s | 0°C | 0% | 0hPa | 0V | 00:00:00 | 00:00:00 | 00:00:00 | |
| OE5MMP-10 | 2026-09-05 12:33:28 | 48.11835 | 17.61591 | 47° | 20km/h | 20732m | 5.3m/s | 0°C | 0% | 0hPa | 0V | 00:00:00 | 00:00:00 | 00:00:00 | |
| OE5MMP-10 | 2026-09-05 12:33:18 | 48.11808 | 17.61543 | 96° | 15km/h | 20671m | 5.5m/s | 0°C | 0% | 0hPa | 0V | 00:00:00 | 00:00:00 | 00:00:00 | |
| OE3OSB-13 | 2026-09-05 12:33:09 | 48.11808 | 17.61498 | 95° | 15km/h | 20612m | 6.4m/s | -53.0°C | 0.0% | 50.7hPa | 0V | 00:00:00 | 00:00:00 | 00:00:00 | |
| OE5MMP-10 | 2026-09-05 12:33:05 | 48.11809 | 17.61483 | 73° | 18km/h | 20594m | 3.9m/s | 0°C | 0% | 0hPa | 0V | 00:00:00 | 00:00:00 | 00:00:00 | |
| PETON7-10 | 2026-09-05 12:33:03 | 48.11807 | 17.61469 | 86° | 22km/h | 20584m | 6.8m/s | 0°C | 0% | 0hPa | 0V | 00:00:00 | 00:00:00 | 00:00:00 | |
| OE5MMP-10 | 2026-09-05 12:32:51 | 48.11801 | 17.61374 | 105° | 24km/h | 20517m | 6.0m/s | 0°C | 0% | 0hPa | 0V | 00:00:00 | 00:00:00 | 00:00:00 | |
| PETON7-10 | 2026-09-05 12:32:45 | 48.11796 | 17.61321 | 51° | 26km/h | 20479m | 5.1m/s | 0°C | 0% | 0hPa | 0V | 00:00:00 | 00:00:00 | 00:00:00 | |
| OE5MMP-10 | 2026-09-05 12:32:39 | 48.11785 | 17.61282 | 109° | 26km/h | 20446m | 4.1m/s | 0°C | 0% | 0hPa | 0V | 00:00:00 | 00:00:00 | 00:00:00 | |
| OE3OSB-13 | 2026-09-05 12:32:38 | 48.11785 | 17.61261 | 79° | 31km/h | 20435m | 4.6m/s | -54.9°C | 0.0% | 52.2hPa | 0V | 00:00:00 | 00:00:00 | 00:00:00 | |
| PETON7-10 | 2026-09-05 12:32:30 | 48.11765 | 17.61191 | 85° | 24km/h | 20398m | 7.4m/s | 0°C | 0% | 0hPa | 0V | 00:00:00 | 00:00:00 | 00:00:00 | |
| OE5MMP-10 | 2026-09-05 12:32:19 | 48.11751 | 17.61088 | 75° | 26km/h | 20328m | 6.7m/s | 0°C | 0% | 0hPa | 0V | 00:00:00 | 00:00:00 | 00:00:00 | |
| PETON7-10 | 2026-09-05 12:32:15 | 48.11746 | 17.61056 | 82° | 20km/h | 20302m | 5.8m/s | 0°C | 0% | 0hPa | 0V | 00:00:00 | 00:00:00 | 00:00:00 | |
| OE5MMP-10 | 2026-09-05 12:32:08 | 48.11744 | 17.60999 | 54° | 20km/h | 20264m | 8.2m/s | 0°C | 0% | 0hPa | 0V | 00:00:00 | 00:00:00 | 00:00:00 | |
| OE3OSB-13 | 2026-09-05 12:32:07 | 48.11740 | 17.60992 | 57° | 11km/h | 20250m | 6.2m/s | -54.8°C | 0.0% | 53.8hPa | 0V | 00:00:00 | 00:00:00 | 00:00:00 | |
| S52SK | 2026-09-05 12:32:02 | 48.11741 | 17.60962 | 102° | 31km/h | 20225m | 5.4m/s | 0°C | 0% | 0hPa | 0V | 00:00:00 | 00:00:00 | 00:00:00 | |
| PETON7-10 | 2026-09-05 12:32:00 | 48.11744 | 17.60939 | 92° | 27km/h | 20214m | 6.3m/s | 0°C | 0% | 0hPa | 0V | 00:00:00 | 00:00:00 | 00:00:00 | |
| OE5MMP-10 | 2026-09-05 12:31:57 | 48.11744 | 17.60903 | 90° | 26km/h | 20197m | 7.3m/s | 0°C | 0% | 0hPa | 0V | 00:00:00 | 00:00:00 | 00:00:00 | |
| PETON7-10 | 2026-09-05 12:31:45 | 48.11725 | 17.60788 | 94° | 24km/h | 20125m | 5.0m/s | 0°C | 0% | 0hPa | 0V | 00:00:00 | 00:00:00 | 00:00:00 | |
| OE5MMP-10 | 2026-09-05 12:31:43 | 48.11725 | 17.60773 | 80° | 20km/h | 20114m | 3.3m/s | 0°C | 0% | 0hPa | 0V | 00:00:00 | 00:00:00 | 00:00:00 | |
| OE3OSB-13 | 2026-09-05 12:31:36 | 48.11712 | 17.60698 | 88° | 27km/h | 20072m | 5.0m/s | -54.4°C | 0.0% | 55.5hPa | 0V | 00:00:00 | 00:00:00 | 00:00:00 | |
| OE5MMP-10 | 2026-09-05 12:31:31 | 48.11712 | 17.60662 | 75° | 27km/h | 20052m | 7.1m/s | 0°C | 0% | 0hPa | 0V | 00:00:00 | 00:00:00 | 00:00:00 | |
| PETON7-10 | 2026-09-05 12:31:30 | 48.11710 | 17.60651 | 75° | 26km/h | 20044m | 7.4m/s | 0°C | 0% | 0hPa | 0V | 00:00:00 | 00:00:00 | 00:00:00 | |
| PETON7-10 | 2026-09-05 12:31:15 | 48.11692 | 17.60514 | 89° | 22km/h | 19955m | 2.6m/s | 0°C | 0% | 0hPa | 0V | 00:00:00 | 00:00:00 | 00:00:00 | |
| OE5MMP-10 | 2026-09-05 12:31:12 | 48.11691 | 17.60491 | 63° | 27km/h | 19939m | 7.5m/s | 0°C | 0% | 0hPa | 0V | 00:00:00 | 00:00:00 | 00:00:00 | |
| OE3OSB-13 | 2026-09-05 12:31:05 | 48.11679 | 17.60436 | 99° | 16km/h | 19888m | 4.3m/s | -55.8°C | 0.0% | 57.1hPa | 0V | 00:00:00 | 00:00:00 | 00:00:00 | |
| PETON7-10 | 2026-09-05 12:31:00 | 48.11677 | 17.60392 | 77° | 35km/h | 19862m | 3.4m/s | 0°C | 0% | 0hPa | 0V | 00:00:00 | 00:00:00 | 00:00:00 | |
| OE5MMP-10 | 2026-09-05 12:30:54 | 48.11666 | 17.60317 | 88° | 37km/h | 19829m | 6.9m/s | 0°C | 0% | 0hPa | 0V | 00:00:00 | 00:00:00 | 00:00:00 | |
| PETON7-10 | 2026-09-05 12:30:45 | 48.11662 | 17.60203 | 82° | 37km/h | 19779m | 6.7m/s | 0°C | 0% | 0hPa | 0V | 00:00:00 | 00:00:00 | 00:00:00 | |
| OE3OSB-13 | 2026-09-05 12:30:34 | 48.11667 | 17.60044 | 80° | 33km/h | 19711m | 3.5m/s | -55.7°C | 0.0% | 58.8hPa | 0V | 00:00:00 | 00:00:00 | 00:00:00 | |
| PETON7-10 | 2026-09-05 12:30:30 | 48.11668 | 17.59996 | 98° | 40km/h | 19694m | 6.0m/s | 0°C | 0% | 0hPa | 0V | 00:00:00 | 00:00:00 | 00:00:00 | |
| S52SK | 2026-09-05 12:30:26 | 48.11671 | 17.59930 | 88° | 38km/h | 19671m | 3.5m/s | 0°C | 0% | 0hPa | 0V | 00:00:00 | 00:00:00 | 00:00:00 | |
| S52SK | 2026-09-05 12:30:19 | 48.11663 | 17.59830 | 88° | 42km/h | 19638m | 4.7m/s | 0°C | 0% | 0hPa | 0V | 00:00:00 | 00:00:00 | 00:00:00 | |
| PETON7-10 | 2026-09-05 12:30:17 | 48.11655 | 17.59773 | 76° | 37km/h | 19614m | 5.7m/s | 0°C | 0% | 0hPa | 0V | 00:00:00 | 00:00:00 | 00:00:00 | |
| S52SK | 2026-09-05 12:30:13 | 48.11652 | 17.59744 | 85° | 42km/h | 19604m | 6.9m/s | 0°C | 0% | 0hPa | 0V | 00:00:00 | 00:00:00 | 00:00:00 | |
| OE5MMP-10 | 2026-09-05 12:30:11 | 48.11651 | 17.59714 | 86° | 35km/h | 19591m | 4.8m/s | 0°C | 0% | 0hPa | 0V | 00:00:00 | 00:00:00 | 00:00:00 | |
| S52SK | 2026-09-05 12:30:07 | 48.11645 | 17.59656 | 78° | 37km/h | 19573m | 8.0m/s | 0°C | 0% | 0hPa | 0V | 00:00:00 | 00:00:00 | 00:00:00 | |
| OE3OSB-13 | 2026-09-05 12:30:03 | 48.11635 | 17.59593 | 85° | 38km/h | 19544m | 6.8m/s | -54.6°C | 0.0% | 60.5hPa | 0V | 00:00:00 | 00:00:00 | 00:00:00 | |
| OE5MMP-10 | 2026-09-05 12:30:01 | 48.11634 | 17.59578 | 82° | 35km/h | 19536m | 7.8m/s | 0°C | 0% | 0hPa | 0V | 00:00:00 | 00:00:00 | 00:00:00 | |
| PETON7-10 | 2026-09-05 12:30:00 | 48.11632 | 17.59565 | 69° | 37km/h | 19530m | 6.6m/s | 0°C | 0% | 0hPa | 0V | 00:00:00 | 00:00:00 | 00:00:00 | |
| PETON7-10 | 2026-09-05 12:29:44 | 48.11586 | 17.59345 | 70° | 37km/h | 19436m | 6.8m/s | 0°C | 0% | 0hPa | 0V | 00:00:00 | 00:00:00 | 00:00:00 | |
| OE3OSB-13 | 2026-09-05 12:29:32 | 48.11544 | 17.59180 | 67° | 33km/h | 19362m | 7.3m/s | -53.5°C | 0.0% | 62.3hPa | 0V | 00:00:00 | 00:00:00 | 00:00:00 | |
| OE5MMP-10 | 2026-09-05 12:29:30 | 48.11541 | 17.59168 | 69° | 35km/h | 19358m | 4.4m/s | 0°C | 0% | 0hPa | 0V | 00:00:00 | 00:00:00 | 00:00:00 | |
| PETON7-10 | 2026-09-05 12:29:29 | 48.11538 | 17.59154 | 73° | 35km/h | 19352m | 7.4m/s | 0°C | 0% | 0hPa | 0V | 00:00:00 | 00:00:00 | 00:00:00 | |
| OE5MMP-10 | 2026-09-05 12:29:18 | 48.11508 | 17.59019 | 86° | 27km/h | 19289m | 6.0m/s | 0°C | 0% | 0hPa | 0V | 00:00:00 | 00:00:00 | 00:00:00 | |
| PETON7-10 | 2026-09-05 12:29:14 | 48.11502 | 17.58966 | 71° | 27km/h | 19265m | 6.9m/s | 0°C | 0% | 0hPa | 0V | 00:00:00 | 00:00:00 | 00:00:00 | |
| OE5MMP-10 | 2026-09-05 12:29:07 | 48.11492 | 17.58897 | 87° | 26km/h | 19218m | 4.4m/s | 0°C | 0% | 0hPa | 0V | 00:00:00 | 00:00:00 | 00:00:00 | |
| OE3OSB-13 | 2026-09-05 12:29:01 | 48.11488 | 17.58829 | 93° | 26km/h | 19178m | 7.0m/s | -52.6°C | 0.0% | 64.2hPa | 0V | 00:00:00 | 00:00:00 | 00:00:00 | |
| PETON7-10 | 2026-09-05 12:28:44 | 48.11474 | 17.58704 | 71° | 20km/h | 19084m | 5.7m/s | 0°C | 0% | 0hPa | 0V | 00:00:00 | 00:00:00 | 00:00:00 | |
| PETON7-10 | 2026-09-05 12:28:29 | 48.11455 | 17.58587 | 88° | 33km/h | 18998m | 5.7m/s | 0°C | 0% | 0hPa | 0V | 00:00:00 | 00:00:00 | 00:00:00 | |
| OE5MMP-10 | 2026-09-05 12:28:20 | 48.11448 | 17.58473 | 105° | 38km/h | 18950m | 0.6m/s | 0°C | 0% | 0hPa | 0V | 00:00:00 | 00:00:00 | 00:00:00 | |
| PETON7-10 | 2026-09-05 12:28:14 | 48.11456 | 17.58398 | 79° | 37km/h | 18918m | 6.8m/s | 0°C | 0% | 0hPa | 0V | 00:00:00 | 00:00:00 | 00:00:00 | |
| OE5MMP-10 | 2026-09-05 12:28:08 | 48.11453 | 17.58316 | 109° | 42km/h | 18882m | 7.1m/s | 0°C | 0% | 0hPa | 0V | 00:00:00 | 00:00:00 | 00:00:00 | |
| OE3OSB-13 | 2026-09-05 12:27:59 | 48.11471 | 17.58172 | 103° | 46km/h | 18821m | 4.0m/s | -55.4°C | 0.0% | 68.0hPa | 0V | 00:00:00 | 00:00:00 | 00:00:00 | |
| PETON7-10 | 2026-09-05 12:27:44 | 48.11484 | 17.57930 | 82° | 42km/h | 18744m | 4.6m/s | 0°C | 0% | 0hPa | 0V | 00:00:00 | 00:00:00 | 00:00:00 | |
| PETON7-10 | 2026-09-05 12:27:29 | 48.11464 | 17.57695 | 86° | 37km/h | 18657m | 7.7m/s | 0°C | 0% | 0hPa | 0V | 00:00:00 | 00:00:00 | 00:00:00 | |
| OE3OSB-13 | 2026-09-05 12:27:28 | 48.11464 | 17.57668 | 88° | 35km/h | 18647m | 6.5m/s | -55.2°C | 0.0% | 70.0hPa | 0V | 00:00:00 | 00:00:00 | 00:00:00 | |
| PETON7-10 | 2026-09-05 12:27:14 | 48.11440 | 17.57496 | 80° | 29km/h | 18573m | 6.2m/s | 0°C | 0% | 0hPa | 0V | 00:00:00 | 00:00:00 | 00:00:00 | |
| OE5MMP-10 | 2026-09-05 12:27:02 | 48.11407 | 17.57366 | 63° | 31km/h | 18505m | 5.5m/s | 0°C | 0% | 0hPa | 0V | 00:00:00 | 00:00:00 | 00:00:00 | |
| OE3OSB-13 | 2026-09-05 12:26:57 | 48.11388 | 17.57302 | 65° | 24km/h | 18470m | 7.2m/s | -54.7°C | 0.0% | 72.0hPa | 0V | 00:00:00 | 00:00:00 | 00:00:00 | |
| OE5MMP-10 | 2026-09-05 12:26:51 | 48.11372 | 17.57249 | 67° | 35km/h | 18441m | 5.6m/s | 0°C | 0% | 0hPa | 0V | 00:00:00 | 00:00:00 | 00:00:00 | |
| PETON7-10 | 2026-09-05 12:26:44 | 48.11354 | 17.57176 | 77° | 29km/h | 18402m | 5.2m/s | 0°C | 0% | 0hPa | 0V | 00:00:00 | 00:00:00 | 00:00:00 | |
| OE5MMP-10 | 2026-09-05 12:26:32 | 48.11325 | 17.57048 | 68° | 33km/h | 18336m | 8.1m/s | 0°C | 0% | 0hPa | 0V | 00:00:00 | 00:00:00 | 00:00:00 | |
| PETON7-10 | 2026-09-05 12:26:29 | 48.11320 | 17.57020 | 83° | 26km/h | 18318m | 6.5m/s | 0°C | 0% | 0hPa | 0V | 00:00:00 | 00:00:00 | 00:00:00 | |
| OE3OSB-13 | 2026-09-05 12:26:26 | 48.11314 | 17.56968 | 76° | 33km/h | 18296m | 2.8m/s | -53.7°C | 0.0% | 74.1hPa | 0V | 00:00:00 | 00:00:00 | 00:00:00 | |
| PETON7-10 | 2026-09-05 12:26:14 | 48.11310 | 17.56864 | 83° | 38km/h | 18238m | 5.1m/s | 0°C | 0% | 0hPa | 0V | 00:00:00 | 00:00:00 | 00:00:00 | |
| OE3OSB-13 | 2026-09-05 12:25:54 | 48.11354 | 17.56601 | 111° | 37km/h | 18119m | 6.5m/s | -54.6°C | 0.0% | 76.2hPa | 0V | 00:00:00 | 00:00:00 | 00:00:00 | |
| PETON7-10 | 2026-09-05 12:25:44 | 48.11401 | 17.56469 | 108° | 49km/h | 18071m | 6.0m/s | 0°C | 0% | 0hPa | 0V | 00:00:00 | 00:00:00 | 00:00:00 | |
| PETON7-10 | 2026-09-05 12:25:29 | 48.11487 | 17.56214 | 120° | 60km/h | 18007m | 6.5m/s | 0°C | 0% | 0hPa | 0V | 00:00:00 | 00:00:00 | 00:00:00 | |
| OE3OSB-13 | 2026-09-05 12:25:24 | 48.11524 | 17.56072 | 110° | 49km/h | 17969m | 7.6m/s | -55.4°C | 0.0% | 78.1hPa | 0V | 00:00:00 | 00:00:00 | 00:00:00 | |
| PG1ADW-2 | 2026-09-05 12:25:17 | 48.11552 | 17.55964 | 113° | 77km/h | 17943m | 4.5m/s | 0°C | 0% | 0hPa | 0V | 00:00:00 | 00:00:00 | 00:00:00 | |
| PETON7-10 | 2026-09-05 12:25:14 | 48.11564 | 17.55900 | 97° | 53km/h | 17930m | 4.7m/s | 0°C | 0% | 0hPa | 0V | 00:00:00 | 00:00:00 | 00:00:00 | |
| OE3OSB-13 | 2026-09-05 12:24:52 | 48.11572 | 17.55445 | 81° | 53km/h | 17808m | 5.0m/s | -56.1°C | 0.0% | 80.2hPa | 0V | 00:00:00 | 00:00:00 | 00:00:00 | |
| PETON7-10 | 2026-09-05 12:24:42 | 48.11552 | 17.55272 | 71° | 47km/h | 17762m | 4.1m/s | 0°C | 0% | 0hPa | 0V | 00:00:00 | 00:00:00 | 00:00:00 | |
| PETON7-10 | 2026-09-05 12:24:27 | 48.11502 | 17.55013 | 85° | 46km/h | 17674m | 6.1m/s | 0°C | 0% | 0hPa | 0V | 00:00:00 | 00:00:00 | 00:00:00 | |
| OE3OSB-13 | 2026-09-05 12:24:21 | 48.11485 | 17.54897 | 83° | 42km/h | 17639m | 5.0m/s | -54.9°C | 0.0% | 82.5hPa | 0V | 00:00:00 | 00:00:00 | 00:00:00 | |
| PETON7-10 | 2026-09-05 12:24:12 | 48.11459 | 17.54758 | 84° | 40km/h | 17592m | 3.7m/s | 0°C | 0% | 0hPa | 0V | 00:00:00 | 00:00:00 | 00:00:00 | |
| OE3OSB-13 | 2026-09-05 12:23:51 | 48.11422 | 17.54391 | 87° | 29km/h | 17471m | 4.4m/s | -54.5°C | 0.0% | 84.7hPa | 0V | 00:00:00 | 00:00:00 | 00:00:00 | |
| PETON7-10 | 2026-09-05 12:23:41 | 48.11420 | 17.54240 | 93° | 44km/h | 17428m | 5.0m/s | 0°C | 0% | 0hPa | 0V | 00:00:00 | 00:00:00 | 00:00:00 | |
| PETON7-10 | 2026-09-05 12:23:26 | 48.11443 | 17.53998 | 97° | 57km/h | 17347m | 8.1m/s | 0°C | 0% | 0hPa | 0V | 00:00:00 | 00:00:00 | 00:00:00 | |
| OE3OSB-13 | 2026-09-05 12:23:19 | 48.11470 | 17.53840 | 108° | 57km/h | 17302m | 5.3m/s | -54.8°C | 0.0% | 87.0hPa | 0V | 00:00:00 | 00:00:00 | 00:00:00 | |
| PETON7-10 | 2026-09-05 12:23:11 | 48.11497 | 17.53692 | 100° | 64km/h | 17273m | 3.6m/s | 0°C | 0% | 0hPa | 0V | 00:00:00 | 00:00:00 | 00:00:00 | |
| OE3OSB-13 | 2026-09-05 12:22:48 | 48.11586 | 17.53122 | 98° | 68km/h | 17170m | 4.8m/s | -54.9°C | 0.0% | 88.9hPa | 0V | 00:00:00 | 00:00:00 | 00:00:00 | |
| PETON7-10 | 2026-09-05 12:22:24 | 48.11639 | 17.52482 | 100° | 73km/h | 17088m | 4.2m/s | 0°C | 0% | 0hPa | 0V | 00:00:00 | 00:00:00 | 00:00:00 | |
| OE3OSB-13 | 2026-09-05 12:22:18 | 48.11656 | 17.52256 | 95° | 71km/h | 17056m | 3.4m/s | -54.8°C | 0.0% | 90.6hPa | 0V | 00:00:00 | 00:00:00 | 00:00:00 | |
| OE3OSB-13 | 2026-09-05 12:21:46 | 48.11643 | 17.51405 | 81° | 58km/h | 16931m | 2.6m/s | -57.6°C | 0.0% | 92.4hPa | 0V | 00:00:00 | 00:00:00 | 00:00:00 | |
| PETON7-10 | 2026-09-05 12:21:39 | 48.11628 | 17.51260 | 79° | 66km/h | 16905m | 5.2m/s | 0°C | 0% | 0hPa | 0V | 00:00:00 | 00:00:00 | 00:00:00 | |
| PETON7-10 | 2026-09-05 12:21:24 | 48.11597 | 17.50895 | 88° | 64km/h | 16833m | 4.6m/s | 0°C | 0% | 0hPa | 0V | 00:00:00 | 00:00:00 | 00:00:00 | |
| S52SK | 2026-09-05 12:21:22 | 48.11596 | 17.50846 | 89° | 64km/h | 16821m | 5.8m/s | 0°C | 0% | 0hPa | 0V | 00:00:00 | 00:00:00 | 00:00:00 | |
| OE3OSB-13 | 2026-09-05 12:21:15 | 48.11575 | 17.50654 | 92° | 68km/h | 16782m | 5.3m/s | -56.2°C | 0.0% | 94.8hPa | 0V | 00:00:00 | 00:00:00 | 00:00:00 | |
| PETON7-10 | 2026-09-05 12:21:09 | 48.11571 | 17.50535 | 82° | 62km/h | 16757m | 6.9m/s | 0°C | 0% | 0hPa | 0V | 00:00:00 | 00:00:00 | 00:00:00 | |
| OE3OSB-13 | 2026-09-05 12:20:44 | 48.11539 | 17.49920 | 91° | 62km/h | 16611m | 3.7m/s | -54.8°C | 0.0% | 97.4hPa | 0V | 00:00:00 | 00:00:00 | 00:00:00 | |
| PETON7-10 | 2026-09-05 12:20:39 | 48.11536 | 17.49825 | 83° | 64km/h | 16590m | 8.6m/s | 0°C | 0% | 0hPa | 0V | 00:00:00 | 00:00:00 | 00:00:00 | |
| PETON7-10 | 2026-09-05 12:20:24 | 48.11530 | 17.49475 | 89° | 58km/h | 16502m | 4.1m/s | 0°C | 0% | 0hPa | 0V | 00:00:00 | 00:00:00 | 00:00:00 | |
| OE3OSB-13 | 2026-09-05 12:20:13 | 48.11552 | 17.49220 | 98° | 62km/h | 16424m | 5.6m/s | -54.7°C | 0.0% | 100.4hPa | 0V | 00:00:00 | 00:00:00 | 00:00:00 | |
| PETON7-10 | 2026-09-05 12:20:08 | 48.11563 | 17.49126 | 103° | 69km/h | 16399m | 8.0m/s | 0°C | 0% | 0hPa | 0V | 00:00:00 | 00:00:00 | 00:00:00 | |
| OE3JTB-15 | 2026-09-05 12:20:03 | 48.11576 | 17.49003 | 98° | 75km/h | 16365m | 7.8m/s | 0°C | 0% | 0hPa | 0V | 00:00:00 | 00:00:00 | 00:00:00 | |
| PETON7-10 | 2026-09-05 12:19:54 | 48.11616 | 17.48735 | 100° | 77km/h | 16296m | 5.5m/s | 0°C | 0% | 0hPa | 0V | 00:00:00 | 00:00:00 | 00:00:00 | |
| OE3OSB-13 | 2026-09-05 12:19:42 | 48.11655 | 17.48401 | 95° | 73km/h | 16216m | 7.0m/s | -56.6°C | 0.0% | 103.8hPa | 0V | 00:00:00 | 00:00:00 | 00:00:00 | |
| PETON7-10 | 2026-09-05 12:19:37 | 48.11660 | 17.48287 | 94° | 80km/h | 16189m | 9.9m/s | 0°C | 0% | 0hPa | 0V | 00:00:00 | 00:00:00 | 00:00:00 | |
| OE3JTB-15 | 2026-09-05 12:19:31 | 48.11673 | 17.48104 | 96° | 86km/h | 16151m | 6.2m/s | 0°C | 0% | 0hPa | 0V | 00:00:00 | 00:00:00 | 00:00:00 | |
| PETON7-10 | 2026-09-05 12:19:22 | 48.11685 | 17.47827 | 96° | 86km/h | 16097m | 8.3m/s | 0°C | 0% | 0hPa | 0V | 00:00:00 | 00:00:00 | 00:00:00 | |
| OE3OSB-13 | 2026-09-05 12:19:11 | 48.11701 | 17.47441 | 87° | 84km/h | 16025m | 7.0m/s | -58.5°C | 0.0% | 107.1hPa | 0V | 00:00:00 | 00:00:00 | 00:00:00 | |
| PETON7-10 | 2026-09-05 12:19:07 | 48.11699 | 17.47342 | 92° | 93km/h | 16005m | 6.3m/s | 0°C | 0% | 0hPa | 0V | 00:00:00 | 00:00:00 | 00:00:00 | |
| PETON7-10 | 2026-09-05 12:18:52 | 48.11687 | 17.46818 | 86° | 91km/h | 15922m | 5.0m/s | 0°C | 0% | 0hPa | 0V | 00:00:00 | 00:00:00 | 00:00:00 | |
| OE3JTB-15 | 2026-09-05 12:18:51 | 48.11685 | 17.46784 | 83° | 88km/h | 15916m | 5.8m/s | 0°C | 0% | 0hPa | 0V | 00:00:00 | 00:00:00 | 00:00:00 | |
| PG1ADW-2 | 2026-09-05 12:18:48 | 48.11673 | 17.46689 | 82° | 97km/h | 15901m | 5.0m/s | 0°C | 0% | 0hPa | 0V | 00:00:00 | 00:00:00 | 00:00:00 | |
| OE3OSB-13 | 2026-09-05 12:18:40 | 48.11665 | 17.46364 | 72° | 82km/h | 15845m | 9.8m/s | -57.9°C | 0.0% | 110.2hPa | 0V | 00:00:00 | 00:00:00 | 00:00:00 | |
| PETON7-10 | 2026-09-05 12:18:37 | 48.11657 | 17.46311 | 86° | 88km/h | 15831m | 4.4m/s | 0°C | 0% | 0hPa | 0V | 00:00:00 | 00:00:00 | 00:00:00 | |
| PETON7-10 | 2026-09-05 12:18:22 | 48.11621 | 17.45795 | 92° | 93km/h | 15738m | 5.2m/s | 0°C | 0% | 0hPa | 0V | 00:00:00 | 00:00:00 | 00:00:00 | |
| OE3OSB-13 | 2026-09-05 12:18:08 | 48.11558 | 17.45280 | 73° | 89km/h | 15655m | 5.6m/s | -56.3°C | 0.0% | 113.7hPa | 0V | 00:00:00 | 00:00:00 | 00:00:00 | |
| PETON7-10 | 2026-09-05 12:18:07 | 48.11558 | 17.45280 | 74° | 95km/h | 15655m | 5.5m/s | 0°C | 0% | 0hPa | 0V | 00:00:00 | 00:00:00 | 00:00:00 | |
| OE3JTB-15 | 2026-09-05 12:18:04 | 48.11548 | 17.45182 | 89° | 91km/h | 15634m | 7.5m/s | 0°C | 0% | 0hPa | 0V | 00:00:00 | 00:00:00 | 00:00:00 | |
| PETON7-10 | 2026-09-05 12:17:52 | 48.11495 | 17.44758 | 78° | 99km/h | 15562m | 3.6m/s | 0°C | 0% | 0hPa | 0V | 00:00:00 | 00:00:00 | 00:00:00 | |
| S52SK | 2026-09-05 12:17:39 | 48.11444 | 17.44301 | 91° | 126km/h | 15493m | 5.3m/s | 0°C | 0% | 0hPa | 0V | 00:00:00 | 00:00:00 | 00:00:00 | |
| PETON7-10 | 2026-09-05 12:17:37 | 48.11438 | 17.44210 | 78° | 99km/h | 15484m | 5.2m/s | 0°C | 0% | 0hPa | 0V | 00:00:00 | 00:00:00 | 00:00:00 | |
| S52SK | 2026-09-05 12:17:33 | 48.11416 | 17.44077 | 91° | 69km/h | 15458m | 4.6m/s | 0°C | 0% | 0hPa | 0V | 00:00:00 | 00:00:00 | 00:00:00 | |
| S52SK | 2026-09-05 12:17:27 | 48.11403 | 17.43868 | 79° | 117km/h | 15419m | 5.6m/s | 0°C | 0% | 0hPa | 0V | 00:00:00 | 00:00:00 | 00:00:00 | |
| PETON7-10 | 2026-09-05 12:17:22 | 48.11384 | 17.43672 | 81° | 95km/h | 15391m | 10.2m/s | 0°C | 0% | 0hPa | 0V | 00:00:00 | 00:00:00 | 00:00:00 | |
| S52SK | 2026-09-05 12:17:20 | 48.11378 | 17.43604 | 88° | 93km/h | 15380m | 5.2m/s | 0°C | 0% | 0hPa | 0V | 00:00:00 | 00:00:00 | 00:00:00 | |
| OE3OSB-13 | 2026-09-05 12:17:06 | 48.11357 | 17.43073 | 89° | 86km/h | 15326m | 4.8m/s | -54.3°C | 0.0% | 119.9hPa | 0V | 00:00:00 | 00:00:00 | 00:00:00 | |
| PETON7-10 | 2026-09-05 12:16:49 | 48.11330 | 17.42521 | 83° | 88km/h | 15256m | 6.6m/s | 0°C | 0% | 0hPa | 0V | 00:00:00 | 00:00:00 | 00:00:00 | |
| OE3OSB-13 | 2026-09-05 12:16:35 | 48.11305 | 17.42026 | 86° | 95km/h | 15188m | 5.0m/s | -54.2°C | 0.2% | 122.5hPa | 0V | 00:00:00 | 00:00:00 | 00:00:00 | |
| PETON7-10 | 2026-09-05 12:16:33 | 48.11303 | 17.41990 | 89° | 86km/h | 15183m | 5.5m/s | 0°C | 0% | 0hPa | 0V | 00:00:00 | 00:00:00 | 00:00:00 | |
| PETON7-10 | 2026-09-05 12:16:18 | 48.11316 | 17.41513 | 102° | 91km/h | 15105m | 5.9m/s | 0°C | 0% | 0hPa | 0V | 00:00:00 | 00:00:00 | 00:00:00 | |
| OE3JTB-15 | 2026-09-05 12:16:06 | 48.11351 | 17.41104 | 103° | 99km/h | 15037m | 5.7m/s | 0°C | 0% | 0hPa | 0V | 00:00:00 | 00:00:00 | 00:00:00 | |
| OE3OSB-13 | 2026-09-05 12:16:04 | 48.11361 | 17.40993 | 92° | 93km/h | 15021m | 4.5m/s | -54.0°C | 0.4% | 125.8hPa | 0V | 00:00:00 | 00:00:00 | 00:00:00 | |
| PETON7-10 | 2026-09-05 12:16:03 | 48.11360 | 17.40993 | 93° | 99km/h | 15022m | 4.5m/s | 0°C | 0% | 0hPa | 0V | 00:00:00 | 00:00:00 | 00:00:00 | |
| PETON7-10 | 2026-09-05 12:15:48 | 48.11417 | 17.40461 | 103° | 100km/h | 14929m | 3.8m/s | 0°C | 0% | 0hPa | 0V | 00:00:00 | 00:00:00 | 00:00:00 | |
| OE3JTB-15 | 2026-09-05 12:15:36 | 48.11458 | 17.40002 | 95° | 122km/h | 14855m | 4.8m/s | 0°C | 0% | 0hPa | 0V | 00:00:00 | 00:00:00 | 00:00:00 | |
| OE3OSB-13 | 2026-09-05 12:15:33 | 48.11474 | 17.39839 | 100° | 130km/h | 14835m | 7.2m/s | -54.1°C | 0.5% | 129.6hPa | 0V | 00:00:00 | 00:00:00 | 00:00:00 | |
| S52SK | 2026-09-05 12:15:26 | 48.11487 | 17.39597 | 92° | 84km/h | 14799m | 5.3m/s | 0°C | 0% | 0hPa | 0V | 00:00:00 | 00:00:00 | 00:00:00 | |
| PETON7-10 | 2026-09-05 12:15:18 | 48.11500 | 17.39244 | 92° | 126km/h | 14741m | 7.5m/s | 0°C | 0% | 0hPa | 0V | 00:00:00 | 00:00:00 | 00:00:00 | |
| PG1ADW-2 | 2026-09-05 12:15:09 | 48.11500 | 17.38826 | 86° | 128km/h | 14691m | 4.7m/s | 0°C | 0% | 0hPa | 0V | 00:00:00 | 00:00:00 | 00:00:00 | |
| PETON7-10 | 2026-09-05 12:15:03 | 48.11488 | 17.38535 | 93° | 126km/h | 14655m | 7.1m/s | 0°C | 0% | 0hPa | 0V | 00:00:00 | 00:00:00 | 00:00:00 | |
| OE3OSB-13 | 2026-09-05 12:15:02 | 48.11491 | 17.38426 | 91° | 131km/h | 14642m | 8.5m/s | -55.0°C | 0.9% | 133.6hPa | 0V | 00:00:00 | 00:00:00 | 00:00:00 | |
| PG1ADW-2 | 2026-09-05 12:14:49 | 48.11502 | 17.37868 | 85° | 110km/h | 14548m | 7.7m/s | 0°C | 0% | 0hPa | 0V | 00:00:00 | 00:00:00 | 00:00:00 | |
| PETON7-10 | 2026-09-05 12:14:48 | 48.11500 | 17.37823 | 89° | 110km/h | 14542m | 5.3m/s | 0°C | 0% | 0hPa | 0V | 00:00:00 | 00:00:00 | 00:00:00 | |
| PETON7-10 | 2026-09-05 12:14:33 | 48.11535 | 17.37210 | 100° | 106km/h | 14433m | 5.9m/s | 0°C | 0% | 0hPa | 0V | 00:00:00 | 00:00:00 | 00:00:00 | |
| OE3OSB-13 | 2026-09-05 12:14:31 | 48.11548 | 17.37097 | 98° | 104km/h | 14414m | 7.4m/s | -54.7°C | 1.5% | 138.6hPa | 0V | 00:00:00 | 00:00:00 | 00:00:00 | |
| PG1ADW-2 | 2026-09-05 12:14:27 | 48.11559 | 17.36976 | 98° | 130km/h | 14396m | 7.2m/s | 0°C | 0% | 0hPa | 0V | 00:00:00 | 00:00:00 | 00:00:00 | |
| PETON7-10 | 2026-09-05 12:14:17 | 48.11595 | 17.36578 | 105° | 104km/h | 14334m | 6.9m/s | 0°C | 0% | 0hPa | 0V | 00:00:00 | 00:00:00 | 00:00:00 | |
| PETON7-10 | 2026-09-05 12:14:02 | 48.11676 | 17.36003 | 104° | 106km/h | 14227m | 6.6m/s | 0°C | 0% | 0hPa | 0V | 00:00:00 | 00:00:00 | 00:00:00 | |
| OE3OSB-13 | 2026-09-05 12:14:00 | 48.11693 | 17.35898 | 105° | 99km/h | 14206m | 9.2m/s | -54.6°C | 2.2% | 143.3hPa | 0V | 00:00:00 | 00:00:00 | 00:00:00 | |
| PETON7-10 | 2026-09-05 12:13:47 | 48.11787 | 17.35415 | 108° | 108km/h | 14123m | 4.1m/s | 0°C | 0% | 0hPa | 0V | 00:00:00 | 00:00:00 | 00:00:00 | |
| PETON7-10 | 2026-09-05 12:13:32 | 48.11922 | 17.34838 | 113° | 117km/h | 14025m | 3.2m/s | 0°C | 0% | 0hPa | 0V | 00:00:00 | 00:00:00 | 00:00:00 | |
| OE3OSB-13 | 2026-09-05 12:13:30 | 48.11962 | 17.34678 | 105° | 120km/h | 14001m | 5.5m/s | -54.8°C | 2.6% | 148.1hPa | 0V | 00:00:00 | 00:00:00 | 00:00:00 | |
| S52SK | 2026-09-05 12:13:20 | 48.12039 | 17.34341 | 113° | 117km/h | 13958m | 2.7m/s | 0°C | 0% | 0hPa | 0V | 00:00:00 | 00:00:00 | 00:00:00 | |
| PETON7-10 | 2026-09-05 12:13:17 | 48.12073 | 17.34206 | 111° | 131km/h | 13939m | 6.1m/s | 0°C | 0% | 0hPa | 0V | 00:00:00 | 00:00:00 | 00:00:00 | |
| S52SK | 2026-09-05 12:13:15 | 48.12096 | 17.34114 | 111° | 124km/h | 13928m | 5.1m/s | 0°C | 0% | 0hPa | 0V | 00:00:00 | 00:00:00 | 00:00:00 | |
| PETON7-10 | 2026-09-05 12:13:02 | 48.12230 | 17.33499 | 108° | 146km/h | 13849m | 6.0m/s | 0°C | 0% | 0hPa | 0V | 00:00:00 | 00:00:00 | 00:00:00 | |
| OE3OSB-13 | 2026-09-05 12:12:58 | 48.12274 | 17.33247 | 104° | 137km/h | 13817m | 5.1m/s | -56.6°C | 3.0% | 152.6hPa | 0V | 00:00:00 | 00:00:00 | 00:00:00 | |
| PETON7-10 | 2026-09-05 12:12:46 | 48.12358 | 17.32631 | 100° | 150km/h | 13759m | 8.1m/s | 0°C | 0% | 0hPa | 0V | 00:00:00 | 00:00:00 | 00:00:00 | |
| PETON7-10 | 2026-09-05 12:12:31 | 48.12442 | 17.31798 | 99° | 139km/h | 13692m | 3.9m/s | 0°C | 0% | 0hPa | 0V | 00:00:00 | 00:00:00 | 00:00:00 | |
| OE3OSB-13 | 2026-09-05 12:12:28 | 48.12469 | 17.31527 | 96° | 150km/h | 13669m | 6.3m/s | -57.5°C | 3.6% | 156.3hPa | 0V | 00:00:00 | 00:00:00 | 00:00:00 | |
| OE3JTB-15 | 2026-09-05 12:12:11 | 48.12515 | 17.30753 | 95° | 128km/h | 13592m | 4.5m/s | 0°C | 0% | 0hPa | 0V | 00:00:00 | 00:00:00 | 00:00:00 | |
| PETON7-10 | 2026-09-05 12:12:01 | 48.12538 | 17.30244 | 89° | 128km/h | 13548m | 0.9m/s | 0°C | 0% | 0hPa | 0V | 00:00:00 | 00:00:00 | 00:00:00 | |
| OE3OSB-13 | 2026-09-05 12:11:56 | 48.12539 | 17.29955 | 94° | 124km/h | 13521m | 4.1m/s | -56.7°C | 5.1% | 160.2hPa | 0V | 00:00:00 | 00:00:00 | 00:00:00 | |
| PETON7-10 | 2026-09-05 12:11:45 | 48.12557 | 17.29477 | 88° | 122km/h | 13469m | 5.1m/s | 0°C | 0% | 0hPa | 0V | 00:00:00 | 00:00:00 | 00:00:00 | |
| OE3JTB-15 | 2026-09-05 12:11:39 | 48.12554 | 17.29206 | 92° | 119km/h | 13436m | 2.8m/s | 0°C | 0% | 0hPa | 0V | 00:00:00 | 00:00:00 | 00:00:00 | |
| S52SK | 2026-09-05 12:11:34 | 48.12548 | 17.28972 | 89° | 120km/h | 13407m | 8.4m/s | 0°C | 0% | 0hPa | 0V | 00:00:00 | 00:00:00 | 00:00:00 | |
| PETON7-10 | 2026-09-05 12:11:29 | 48.12552 | 17.28743 | 91° | 119km/h | 13381m | 4.2m/s | 0°C | 0% | 0hPa | 0V | 00:00:00 | 00:00:00 | 00:00:00 | |
| S52SK | 2026-09-05 12:11:28 | 48.12552 | 17.28698 | 90° | 122km/h | 13376m | 4.7m/s | 0°C | 0% | 0hPa | 0V | 00:00:00 | 00:00:00 | 00:00:00 | |
| OE3OSB-13 | 2026-09-05 12:11:25 | 48.12543 | 17.28477 | 90° | 126km/h | 13352m | 5.0m/s | -55.7°C | 7.3% | 164.6hPa | 0V | 00:00:00 | 00:00:00 | 00:00:00 | |
| PETON7-10 | 2026-09-05 12:11:14 | 48.12542 | 17.28068 | 85° | 115km/h | 13311m | 4.5m/s | 0°C | 0% | 0hPa | 0V | 00:00:00 | 00:00:00 | 00:00:00 | |
| OE3OSB-13 | 2026-09-05 12:10:54 | 48.12523 | 17.27111 | 86° | 111km/h | 13201m | 4.7m/s | -55.6°C | 10.1% | 168.7hPa | 0V | 00:00:00 | 00:00:00 | 00:00:00 | |
| PETON7-10 | 2026-09-05 12:10:44 | 48.12515 | 17.26785 | 91° | 110km/h | 13158m | 5.1m/s | 0°C | 0% | 0hPa | 0V | 00:00:00 | 00:00:00 | 00:00:00 | |
| OE3OSB-13 | 2026-09-05 12:10:22 | 48.12513 | 17.25819 | 96° | 117km/h | 13045m | 6.4m/s | -57.4°C | 12.7% | 172.8hPa | 0V | 00:00:00 | 00:00:00 | 00:00:00 | |
| OE3JTB-15 | 2026-09-05 12:10:16 | 48.12531 | 17.25617 | 100° | 126km/h | 13017m | 5.5m/s | 0°C | 0% | 0hPa | 0V | 00:00:00 | 00:00:00 | 00:00:00 | |
| PETON7-10 | 2026-09-05 12:10:13 | 48.12548 | 17.25473 | 104° | 115km/h | 13001m | 5.4m/s | 0°C | 0% | 0hPa | 0V | 00:00:00 | 00:00:00 | 00:00:00 | |
| S52SK | 2026-09-05 12:10:01 | 48.12634 | 17.24961 | 113° | 117km/h | 12931m | 6.9m/s | 0°C | 0% | 0hPa | 0V | 00:00:00 | 00:00:00 | 00:00:00 | |
| PETON7-10 | 2026-09-05 12:09:58 | 48.12661 | 17.24839 | 105° | 122km/h | 12912m | 3.2m/s | 0°C | 0% | 0hPa | 0V | 00:00:00 | 00:00:00 | 00:00:00 | |
| S52SK | 2026-09-05 12:09:56 | 48.12673 | 17.24756 | 103° | 110km/h | 12899m | 6.1m/s | 0°C | 0% | 0hPa | 0V | 00:00:00 | 00:00:00 | 00:00:00 | |
| S52SK | 2026-09-05 12:09:51 | 48.12725 | 17.24522 | 111° | 144km/h | 12870m | 6.0m/s | 0°C | 0% | 0hPa | 0V | 00:00:00 | 00:00:00 | 00:00:00 | |
| PETON7-10 | 2026-09-05 12:09:43 | 48.12820 | 17.24179 | 109° | 141km/h | 12829m | 6.4m/s | 0°C | 0% | 0hPa | 0V | 00:00:00 | 00:00:00 | 00:00:00 | |
| OE3JTB-15 | 2026-09-05 12:09:39 | 48.12864 | 17.23986 | 117° | 155km/h | 12803m | 4.7m/s | 0°C | 0% | 0hPa | 0V | 00:00:00 | 00:00:00 | 00:00:00 | |
| PETON7-10 | 2026-09-05 12:09:28 | 48.13025 | 17.23440 | 112° | 151km/h | 12743m | 6.1m/s | 0°C | 0% | 0hPa | 0V | 00:00:00 | 00:00:00 | 00:00:00 | |
| OE3OSB-13 | 2026-09-05 12:09:20 | 48.13161 | 17.22971 | 112° | 150km/h | 12697m | 5.7m/s | -57.0°C | 19.5% | 182.7hPa | 0V | 00:00:00 | 00:00:00 | 00:00:00 | |
| PETON7-10 | 2026-09-05 12:09:12 | 48.13274 | 17.22600 | 117° | 157km/h | 12664m | 5.3m/s | 0°C | 0% | 0hPa | 0V | 00:00:00 | 00:00:00 | 00:00:00 | |
| OE3OSB-13 | 2026-09-05 12:08:49 | 48.13652 | 17.21268 | 112° | 166km/h | 12550m | 2.4m/s | -57.3°C | 23.6% | 187.1hPa | 0V | 00:00:00 | 00:00:00 | 00:00:00 | |
| OE3JTB-15 | 2026-09-05 12:08:47 | 48.13680 | 17.21149 | 108° | 166km/h | 12543m | 2.7m/s | 0°C | 0% | 0hPa | 0V | 00:00:00 | 00:00:00 | 00:00:00 | |
| PETON7-10 | 2026-09-05 12:08:42 | 48.13730 | 17.20906 | 111° | 168km/h | 12526m | 4.5m/s | 0°C | 0% | 0hPa | 0V | 00:00:00 | 00:00:00 | 00:00:00 | |
| PETON7-10 | 2026-09-05 12:08:27 | 48.13938 | 17.20010 | 105° | 164km/h | 12461m | 5.2m/s | 0°C | 0% | 0hPa | 0V | 00:00:00 | 00:00:00 | 00:00:00 | |
| S52SK | 2026-09-05 12:08:22 | 48.13987 | 17.19713 | 104° | 168km/h | 12438m | 4.5m/s | 0°C | 0% | 0hPa | 0V | 00:00:00 | 00:00:00 | 00:00:00 | |
| OE3OSB-13 | 2026-09-05 12:08:18 | 48.14039 | 17.19411 | 101° | 155km/h | 12423m | 2.1m/s | -58.6°C | 28.6% | 191.0hPa | 0V | 00:00:00 | 00:00:00 | 00:00:00 | |
| OE3JTB-15 | 2026-09-05 12:08:17 | 48.14039 | 17.19411 | 102° | 155km/h | 12423m | 2.0m/s | 0°C | 0% | 0hPa | 0V | 00:00:00 | 00:00:00 | 00:00:00 | |
| S52SK | 2026-09-05 12:08:16 | 48.14047 | 17.19353 | 102° | 157km/h | 12420m | 4.1m/s | 0°C | 0% | 0hPa | 0V | 00:00:00 | 00:00:00 | 00:00:00 | |
| PETON7-10 | 2026-09-05 12:08:10 | 48.14098 | 17.18981 | 103° | 159km/h | 12395m | 6.1m/s | 0°C | 0% | 0hPa | 0V | 00:00:00 | 00:00:00 | 00:00:00 | |
| OE3OSB-13 | 2026-09-05 12:07:47 | 48.14285 | 17.17618 | 101° | 148km/h | 12284m | 3.7m/s | -59.4°C | 33.2% | 195.3hPa | 0V | 00:00:00 | 00:00:00 | 00:00:00 | |
| OE3JTB-15 | 2026-09-05 12:07:46 | 48.14284 | 17.17618 | 102° | 148km/h | 12284m | 3.7m/s | 0°C | 0% | 0hPa | 0V | 00:00:00 | 00:00:00 | 00:00:00 | |
| PETON7-10 | 2026-09-05 12:07:40 | 48.14320 | 17.17296 | 101° | 146km/h | 12260m | 6.0m/s | 0°C | 0% | 0hPa | 0V | 00:00:00 | 00:00:00 | 00:00:00 | |
| PETON7-10 | 2026-09-05 12:07:21 | 48.14472 | 17.16275 | 103° | 151km/h | 12176m | 5.9m/s | 0°C | 0% | 0hPa | 0V | 00:00:00 | 00:00:00 | 00:00:00 | |
| OE3JTB-15 | 2026-09-05 12:07:17 | 48.14496 | 17.16043 | 98° | 148km/h | 12156m | 3.0m/s | 0°C | 0% | 0hPa | 0V | 00:00:00 | 00:00:00 | 00:00:00 | |
| OE3OSB-13 | 2026-09-05 12:07:16 | 48.14507 | 17.15937 | 100° | 139km/h | 12146m | 5.0m/s | -59.9°C | 34.8% | 199.7hPa | 0V | 00:00:00 | 00:00:00 | 00:00:00 | |
| PG1ADW-2 | 2026-09-05 12:07:10 | 48.14543 | 17.15663 | 99° | 146km/h | 12127m | 2.4m/s | 0°C | 0% | 0hPa | 0V | 00:00:00 | 00:00:00 | 00:00:00 | |
| PETON7-10 | 2026-09-05 12:07:05 | 48.14574 | 17.15377 | 100° | 148km/h | 12110m | 4.0m/s | 0°C | 0% | 0hPa | 0V | 00:00:00 | 00:00:00 | 00:00:00 | |
| OE3OSB-13 | 2026-09-05 12:06:45 | 48.14715 | 17.14218 | 96° | 151km/h | 12032m | 3.2m/s | -59.1°C | 34.3% | 203.4hPa | 0V | 00:00:00 | 00:00:00 | 00:00:00 | |
| PETON7-10 | 2026-09-05 12:06:35 | 48.14775 | 17.13724 | 102° | 146km/h | 11992m | 4.3m/s | 0°C | 0% | 0hPa | 0V | 00:00:00 | 00:00:00 | 00:00:00 | |
| S52SK | 2026-09-05 12:06:28 | 48.14831 | 17.13362 | 102° | 150km/h | 11962m | 3.3m/s | 0°C | 0% | 0hPa | 0V | 00:00:00 | 00:00:00 | 00:00:00 | |
| S52SK | 2026-09-05 12:06:23 | 48.14863 | 17.13086 | 102° | 142km/h | 11939m | 6.1m/s | 0°C | 0% | 0hPa | 0V | 00:00:00 | 00:00:00 | 00:00:00 | |
| PETON7-10 | 2026-09-05 12:06:20 | 48.14884 | 17.12925 | 102° | 146km/h | 11922m | 6.4m/s | 0°C | 0% | 0hPa | 0V | 00:00:00 | 00:00:00 | 00:00:00 | |
| OE3JTB-15 | 2026-09-05 12:06:17 | 48.14910 | 17.12762 | 105° | 144km/h | 11905m | 5.2m/s | 0°C | 0% | 0hPa | 0V | 00:00:00 | 00:00:00 | 00:00:00 | |
| OE3OSB-13 | 2026-09-05 12:06:14 | 48.14939 | 17.12550 | 97° | 141km/h | 11885m | 4.4m/s | -58.0°C | 35.9% | 208.3hPa | 0V | 00:00:00 | 00:00:00 | 00:00:00 | |
| PG1ADW-2 | 2026-09-05 12:06:09 | 48.14963 | 17.12336 | 105° | 144km/h | 11870m | 4.9m/s | 0°C | 0% | 0hPa | 0V | 00:00:00 | 00:00:00 | 00:00:00 | |
| PETON7-10 | 2026-09-05 12:06:05 | 48.14996 | 17.12112 | 103° | 146km/h | 11854m | 4.2m/s | 0°C | 0% | 0hPa | 0V | 00:00:00 | 00:00:00 | 00:00:00 | |
| OE3OSB-13 | 2026-09-05 12:05:43 | 48.15145 | 17.10880 | 99° | 122km/h | 11734m | 6.6m/s | -56.7°C | 37.9% | 213.5hPa | 0V | 00:00:00 | 00:00:00 | 00:00:00 | |
| PETON7-10 | 2026-09-05 12:05:35 | 48.15194 | 17.10526 | 106° | 141km/h | 11702m | 4.7m/s | 0°C | 0% | 0hPa | 0V | 00:00:00 | 00:00:00 | 00:00:00 | |
| PG1ADW-2 | 2026-09-05 12:05:23 | 48.15266 | 17.09900 | 101° | 137km/h | 11634m | 4.2m/s | 0°C | 0% | 0hPa | 0V | 00:00:00 | 00:00:00 | 00:00:00 | |
| PETON7-10 | 2026-09-05 12:05:20 | 48.15285 | 17.09744 | 101° | 137km/h | 11617m | 5.2m/s | 0°C | 0% | 0hPa | 0V | 00:00:00 | 00:00:00 | 00:00:00 | |
| OE3OSB-13 | 2026-09-05 12:05:12 | 48.15350 | 17.09279 | 102° | 128km/h | 11573m | 5.5m/s | -55.3°C | 38.2% | 219.0hPa | 0V | 00:00:00 | 00:00:00 | 00:00:00 | |
| PETON7-10 | 2026-09-05 12:05:04 | 48.15385 | 17.08935 | 98° | 133km/h | 11536m | 7.5m/s | 0°C | 0% | 0hPa | 0V | 00:00:00 | 00:00:00 | 00:00:00 | |
| PG1ADW-2 | 2026-09-05 12:05:01 | 48.15401 | 17.08782 | 102° | 131km/h | 11518m | 5.3m/s | 0°C | 0% | 0hPa | 0V | 00:00:00 | 00:00:00 | 00:00:00 | |
| PETON7-10 | 2026-09-05 12:04:49 | 48.15461 | 17.08186 | 96° | 131km/h | 11450m | 5.9m/s | 0°C | 0% | 0hPa | 0V | 00:00:00 | 00:00:00 | 00:00:00 | |
| OE3OSB-13 | 2026-09-05 12:04:40 | 48.15503 | 17.07750 | 95° | 124km/h | 11397m | 6.5m/s | -53.8°C | 37.8% | 225.3hPa | 0V | 00:00:00 | 00:00:00 | 00:00:00 | |
| PETON7-10 | 2026-09-05 12:04:34 | 48.15532 | 17.07444 | 99° | 130km/h | 11358m | 4.3m/s | 0°C | 0% | 0hPa | 0V | 00:00:00 | 00:00:00 | 00:00:00 | |
| S52SK | 2026-09-05 12:04:30 | 48.15554 | 17.07250 | 99° | 130km/h | 11336m | 8.2m/s | 0°C | 0% | 0hPa | 0V | 00:00:00 | 00:00:00 | 00:00:00 | |
| S52SK | 2026-09-05 12:04:25 | 48.15580 | 17.07004 | 101° | 131km/h | 11305m | 7.2m/s | 0°C | 0% | 0hPa | 0V | 00:00:00 | 00:00:00 | 00:00:00 | |
| S52SK | 2026-09-05 12:04:20 | 48.15606 | 17.06768 | 101° | 130km/h | 11280m | 2.1m/s | 0°C | 0% | 0hPa | 0V | 00:00:00 | 00:00:00 | 00:00:00 | |
| PETON7-10 | 2026-09-05 12:04:19 | 48.15611 | 17.06720 | 101° | 130km/h | 11275m | 8.5m/s | 0°C | 0% | 0hPa | 0V | 00:00:00 | 00:00:00 | 00:00:00 | |
| PG1ADW-2 | 2026-09-05 12:04:10 | 48.15655 | 17.06275 | 102° | 130km/h | 11222m | 4.5m/s | 0°C | 0% | 0hPa | 0V | 00:00:00 | 00:00:00 | 00:00:00 | |
| OE3OSB-13 | 2026-09-05 12:04:09 | 48.15668 | 17.06181 | 102° | 119km/h | 11211m | 8.7m/s | -52.3°C | 40.0% | 231.9hPa | 0V | 00:00:00 | 00:00:00 | 00:00:00 | |
| OE3JTB-15 | 2026-09-05 12:04:05 | 48.15686 | 17.06044 | 99° | 130km/h | 11192m | 5.8m/s | 0°C | 0% | 0hPa | 0V | 00:00:00 | 00:00:00 | 00:00:00 | |
| PETON7-10 | 2026-09-05 12:04:04 | 48.15691 | 17.05995 | 99° | 128km/h | 11187m | 4.0m/s | 0°C | 0% | 0hPa | 0V | 00:00:00 | 00:00:00 | 00:00:00 | |
| PETON7-10 | 2026-09-05 12:03:49 | 48.15788 | 17.05273 | 105° | 130km/h | 11099m | 5.7m/s | 0°C | 0% | 0hPa | 0V | 00:00:00 | 00:00:00 | 00:00:00 | |
| OE3OSB-13 | 2026-09-05 12:03:39 | 48.15869 | 17.04701 | 104° | 122km/h | 11030m | 8.6m/s | -50.7°C | 43.5% | 238.5hPa | 0V | 00:00:00 | 00:00:00 | 00:00:00 | |
| PETON7-10 | 2026-09-05 12:03:34 | 48.15897 | 17.04562 | 106° | 128km/h | 11013m | 5.9m/s | 0°C | 0% | 0hPa | 0V | 00:00:00 | 00:00:00 | 00:00:00 | |
| OE3JTB-15 | 2026-09-05 12:03:32 | 48.15914 | 17.04471 | 106° | 126km/h | 11002m | 5.3m/s | 0°C | 0% | 0hPa | 0V | 00:00:00 | 00:00:00 | 00:00:00 | |
| PG1ADW-2 | 2026-09-05 12:03:27 | 48.15951 | 17.04240 | 98° | 126km/h | 10976m | 3.0m/s | 0°C | 0% | 0hPa | 0V | 00:00:00 | 00:00:00 | 00:00:00 | |
| PETON7-10 | 2026-09-05 12:03:19 | 48.16007 | 17.03855 | 103° | 124km/h | 10935m | 5.9m/s | 0°C | 0% | 0hPa | 0V | 00:00:00 | 00:00:00 | 00:00:00 | |
| OE3OSB-13 | 2026-09-05 12:03:07 | 48.16109 | 17.03259 | 99° | 124km/h | 10873m | 2.9m/s | -49.4°C | 48.1% | 244.3hPa | 0V | 00:00:00 | 00:00:00 | 00:00:00 | |
| PETON7-10 | 2026-09-05 12:03:04 | 48.16119 | 17.03169 | 100° | 128km/h | 10860m | 7.4m/s | 0°C | 0% | 0hPa | 0V | 00:00:00 | 00:00:00 | 00:00:00 | |
| OE3JTB-15 | 2026-09-05 12:03:00 | 48.16142 | 17.02970 | 100° | 128km/h | 10836m | 6.4m/s | 0°C | 0% | 0hPa | 0V | 00:00:00 | 00:00:00 | 00:00:00 | |
| PETON7-10 | 2026-09-05 12:02:49 | 48.16211 | 17.02462 | 100° | 128km/h | 10770m | 6.3m/s | 0°C | 0% | 0hPa | 0V | 00:00:00 | 00:00:00 | 00:00:00 | |
| PG1ADW-2 | 2026-09-05 12:02:47 | 48.16225 | 17.02362 | 104° | 130km/h | 10759m | 5.9m/s | 0°C | 0% | 0hPa | 0V | 00:00:00 | 00:00:00 | 00:00:00 | |
| S52SK | 2026-09-05 12:02:42 | 48.16265 | 17.02135 | 108° | 124km/h | 10731m | 3.6m/s | 0°C | 0% | 0hPa | 0V | 00:00:00 | 00:00:00 | 00:00:00 | |
| S52SK | 2026-09-05 12:02:37 | 48.16299 | 17.01897 | 99° | 122km/h | 10702m | 8.0m/s | 0°C | 0% | 0hPa | 0V | 00:00:00 | 00:00:00 | 00:00:00 | |
| OE3OSB-13 | 2026-09-05 12:02:36 | 48.16310 | 17.01806 | 103° | 119km/h | 10687m | 8.1m/s | -47.9°C | 50.5% | 251.4hPa | 0V | 00:00:00 | 00:00:00 | 00:00:00 | |
| PETON7-10 | 2026-09-05 12:02:33 | 48.16324 | 17.01714 | 103° | 128km/h | 10674m | 5.3m/s | 0°C | 0% | 0hPa | 0V | 00:00:00 | 00:00:00 | 00:00:00 | |
| OE3JTB-15 | 2026-09-05 12:02:30 | 48.16356 | 17.01516 | 103° | 131km/h | 10653m | 6.6m/s | 0°C | 0% | 0hPa | 0V | 00:00:00 | 00:00:00 | 00:00:00 | |
| PETON7-10 | 2026-09-05 12:02:17 | 48.16437 | 17.00955 | 99° | 128km/h | 10591m | 6.2m/s | 0°C | 0% | 0hPa | 0V | 00:00:00 | 00:00:00 | 00:00:00 | |
| OE3OSB-13 | 2026-09-05 12:02:05 | 48.16526 | 17.00348 | 108° | 122km/h | 10517m | 5.5m/s | -46.5°C | 49.4% | 258.1hPa | 0V | 00:00:00 | 00:00:00 | 00:00:00 | |
| PETON7-10 | 2026-09-05 12:02:02 | 48.16540 | 17.00262 | 104° | 124km/h | 10504m | 6.1m/s | 0°C | 0% | 0hPa | 0V | 00:00:00 | 00:00:00 | 00:00:00 | |
| OE3JTB-15 | 2026-09-05 12:01:50 | 48.16612 | 16.99694 | 103° | 120km/h | 10442m | 3.7m/s | 0°C | 0% | 0hPa | 0V | 00:00:00 | 00:00:00 | 00:00:00 | |
| PETON7-10 | 2026-09-05 12:01:47 | 48.16625 | 16.99569 | 96° | 122km/h | 10431m | 2.0m/s | 0°C | 0% | 0hPa | 0V | 00:00:00 | 00:00:00 | 00:00:00 | |
| PG1ADW-2 | 2026-09-05 12:01:41 | 48.16662 | 16.99278 | 97° | 128km/h | 10400m | 5.7m/s | 0°C | 0% | 0hPa | 0V | 00:00:00 | 00:00:00 | 00:00:00 | |
| OE3OSB-13 | 2026-09-05 12:01:34 | 48.16681 | 16.98907 | 101° | 124km/h | 10348m | 6.9m/s | -44.9°C | 43.7% | 264.8hPa | 0V | 00:00:00 | 00:00:00 | 00:00:00 | |
| PETON7-10 | 2026-09-05 12:01:32 | 48.16687 | 16.98860 | 100° | 126km/h | 10342m | 5.3m/s | 0°C | 0% | 0hPa | 0V | 00:00:00 | 00:00:00 | 00:00:00 | |
| PETON7-10 | 2026-09-05 12:01:17 | 48.16730 | 16.98153 | 104° | 126km/h | 10259m | 8.4m/s | 0°C | 0% | 0hPa | 0V | 00:00:00 | 00:00:00 | 00:00:00 | |
| OE3OSB-13 | 2026-09-05 12:01:03 | 48.16783 | 16.97442 | 91° | 135km/h | 10167m | 5.2m/s | -43.2°C | 44.6% | 272.0hPa | 0V | 00:00:00 | 00:00:00 | 00:00:00 | |
| PETON7-10 | 2026-09-05 12:01:02 | 48.16783 | 16.97442 | 92° | 126km/h | 10167m | 5.1m/s | 0°C | 0% | 0hPa | 0V | 00:00:00 | 00:00:00 | 00:00:00 | |
| S52SK | 2026-09-05 12:01:00 | 48.16789 | 16.97335 | 99° | 146km/h | 10158m | 3.4m/s | 0°C | 0% | 0hPa | 0V | 00:00:00 | 00:00:00 | 00:00:00 | |
| S52SK | 2026-09-05 12:00:55 | 48.16806 | 16.97091 | 96° | 115km/h | 10136m | 5.0m/s | 0°C | 0% | 0hPa | 0V | 00:00:00 | 00:00:00 | 00:00:00 | |
| OE3JTB-15 | 2026-09-05 12:00:51 | 48.16822 | 16.96915 | 100° | 131km/h | 10117m | 3.9m/s | 0°C | 0% | 0hPa | 0V | 00:00:00 | 00:00:00 | 00:00:00 | |
| PG1ADW-2 | 2026-09-05 12:00:49 | 48.16831 | 16.96823 | 97° | 131km/h | 10103m | 8.6m/s | 0°C | 0% | 0hPa | 0V | 00:00:00 | 00:00:00 | 00:00:00 | |
| PETON7-10 | 2026-09-05 12:00:47 | 48.16833 | 16.96730 | 92° | 133km/h | 10092m | 2.7m/s | 0°C | 0% | 0hPa | 0V | 00:00:00 | 00:00:00 | 00:00:00 | |
| OE3OSB-13 | 2026-09-05 12:00:32 | 48.16890 | 16.95933 | 96° | 130km/h | 10008m | 6.4m/s | -42.1°C | 41.4% | 278.6hPa | 0V | 00:00:00 | 00:00:00 | 00:00:00 | |
| PG1ADW-2 | 2026-09-05 12:00:26 | 48.16900 | 16.95687 | 96° | 124km/h | 9978m | 6.4m/s | 0°C | 0% | 0hPa | 0V | 00:00:00 | 00:00:00 | 00:00:00 | |
| OE3JTB-15 | 2026-09-05 12:00:22 | 48.16912 | 16.95490 | 93° | 131km/h | 9957m | 8.4m/s | 0°C | 0% | 0hPa | 0V | 00:00:00 | 00:00:00 | 00:00:00 | |
| PETON7-10 | 2026-09-05 12:00:18 | 48.16935 | 16.95185 | 97° | 128km/h | 9916m | 5.8m/s | 0°C | 0% | 0hPa | 0V | 00:00:00 | 00:00:00 | 00:00:00 | |
| OE3OSB-13 | 2026-09-05 12:00:01 | 48.16985 | 16.94412 | 95° | 122km/h | 9826m | 6.5m/s | -41.8°C | 14.7% | 286.1hPa | 0V | 00:00:00 | 00:00:00 | 00:00:00 | |
| OE3JTB-15 | 2026-09-05 11:59:52 | 48.17019 | 16.93960 | 97° | 119km/h | 9777m | 5.3m/s | 0°C | 0% | 0hPa | 0V | 00:00:00 | 00:00:00 | 00:00:00 | |
| PETON7-10 | 2026-09-05 11:59:46 | 48.17025 | 16.93730 | 95° | 126km/h | 9751m | 6.7m/s | 0°C | 0% | 0hPa | 0V | 00:00:00 | 00:00:00 | 00:00:00 | |
| OE3OSB-13 | 2026-09-05 11:59:30 | 48.17080 | 16.92930 | 93° | 122km/h | 9641m | 3.0m/s | -40.3°C | 14.8% | 294.3hPa | 0V | 00:00:00 | 00:00:00 | 00:00:00 | |
| PETON7-10 | 2026-09-05 11:59:29 | 48.17080 | 16.92930 | 94° | 120km/h | 9641m | 2.9m/s | 0°C | 0% | 0hPa | 0V | 00:00:00 | 00:00:00 | 00:00:00 | |
| S52SK | 2026-09-05 11:59:14 | 48.17128 | 16.92251 | 92° | 119km/h | 9555m | 4.7m/s | 0°C | 0% | 0hPa | 0V | 00:00:00 | 00:00:00 | 00:00:00 | |
| PETON7-10 | 2026-09-05 11:59:13 | 48.17128 | 16.92207 | 89° | 115km/h | 9551m | 4.2m/s | 0°C | 0% | 0hPa | 0V | 00:00:00 | 00:00:00 | 00:00:00 | |
| S52SK | 2026-09-05 11:59:09 | 48.17134 | 16.92039 | 99° | 108km/h | 9530m | 6.6m/s | 0°C | 0% | 0hPa | 0V | 00:00:00 | 00:00:00 | 00:00:00 | |
| OE3JTB-15 | 2026-09-05 11:59:05 | 48.17149 | 16.91862 | 96° | 115km/h | 9507m | 4.1m/s | 0°C | 0% | 0hPa | 0V | 00:00:00 | 00:00:00 | 00:00:00 | |
| OE3OSB-13 | 2026-09-05 11:58:59 | 48.17178 | 16.91556 | 97° | 115km/h | 9474m | 4.9m/s | -38.9°C | 14.8% | 301.8hPa | 0V | 00:00:00 | 00:00:00 | 00:00:00 | |
| PETON7-10 | 2026-09-05 11:58:58 | 48.17178 | 16.91556 | 98° | 115km/h | 9474m | 4.9m/s | 0°C | 0% | 0hPa | 0V | 00:00:00 | 00:00:00 | 00:00:00 | |
| PG1ADW-2 | 2026-09-05 11:58:44 | 48.17218 | 16.90952 | 97° | 117km/h | 9382m | 4.6m/s | 0°C | 0% | 0hPa | 0V | 00:00:00 | 00:00:00 | 00:00:00 | |
| PETON7-10 | 2026-09-05 11:58:39 | 48.17245 | 16.90736 | 104° | 119km/h | 9354m | 6.4m/s | 0°C | 0% | 0hPa | 0V | 00:00:00 | 00:00:00 | 00:00:00 | |
| OE3JTB-15 | 2026-09-05 11:58:36 | 48.17261 | 16.90606 | 99° | 117km/h | 9336m | 5.4m/s | 0°C | 0% | 0hPa | 0V | 00:00:00 | 00:00:00 | 00:00:00 | |
| OE3OSB-13 | 2026-09-05 11:58:27 | 48.17306 | 16.90204 | 102° | 113km/h | 9289m | 5.6m/s | -37.3°C | 12.0% | 310.0hPa | 0V | 00:00:00 | 00:00:00 | 00:00:00 | |
| PETON7-10 | 2026-09-05 11:58:23 | 48.17326 | 16.90034 | 99° | 115km/h | 9269m | 7.3m/s | 0°C | 0% | 0hPa | 0V | 00:00:00 | 00:00:00 | 00:00:00 | |
| PG1ADW-2 | 2026-09-05 11:58:17 | 48.17356 | 16.89776 | 103° | 120km/h | 9234m | 6.1m/s | 0°C | 0% | 0hPa | 0V | 00:00:00 | 00:00:00 | 00:00:00 | |
| OE3JTB-15 | 2026-09-05 11:58:07 | 48.17416 | 16.89296 | 96° | 119km/h | 9171m | 6.1m/s | 0°C | 0% | 0hPa | 0V | 00:00:00 | 00:00:00 | 00:00:00 | |
| PETON7-10 | 2026-09-05 11:58:06 | 48.17416 | 16.89296 | 96° | 117km/h | 9171m | 6.1m/s | 0°C | 0% | 0hPa | 0V | 00:00:00 | 00:00:00 | 00:00:00 | |
| OE3OSB-13 | 2026-09-05 11:57:56 | 48.17471 | 16.88844 | 101° | 120km/h | 9115m | 5.8m/s | -35.8°C | 11.3% | 318.1hPa | 0V | 00:00:00 | 00:00:00 | 00:00:00 | |
| PG1ADW-2 | 2026-09-05 11:57:52 | 48.17494 | 16.88636 | 103° | 119km/h | 9087m | 4.9m/s | 0°C | 0% | 0hPa | 0V | 00:00:00 | 00:00:00 | 00:00:00 | |
| PETON7-10 | 2026-09-05 11:57:51 | 48.17494 | 16.88636 | 103° | 119km/h | 9087m | 4.9m/s | 0°C | 0% | 0hPa | 0V | 00:00:00 | 00:00:00 | 00:00:00 | |
| PETON7-10 | 2026-09-05 11:57:36 | 48.17584 | 16.87975 | 97° | 117km/h | 9001m | 4.3m/s | 0°C | 0% | 0hPa | 0V | 00:00:00 | 00:00:00 | 00:00:00 | |
| PG1ADW-2 | 2026-09-05 11:57:31 | 48.17612 | 16.87760 | 103° | 117km/h | 8976m | 6.1m/s | 0°C | 0% | 0hPa | 0V | 00:00:00 | 00:00:00 | 00:00:00 | |
| S52SK | 2026-09-05 11:57:30 | 48.17619 | 16.87714 | 105° | 124km/h | 8971m | 5.8m/s | 0°C | 0% | 0hPa | 0V | 00:00:00 | 00:00:00 | 00:00:00 | |
| OE3OSB-13 | 2026-09-05 11:57:25 | 48.17656 | 16.87458 | 103° | 110km/h | 8933m | 5.6m/s | -34.2°C | 10.8% | 326.4hPa | 0V | 00:00:00 | 00:00:00 | 00:00:00 | |
| S52SK | 2026-09-05 11:57:24 | 48.17656 | 16.87458 | 104° | 110km/h | 8933m | 5.6m/s | 0°C | 0% | 0hPa | 0V | 00:00:00 | 00:00:00 | 00:00:00 | |
| PETON7-10 | 2026-09-05 11:57:21 | 48.17670 | 16.87330 | 96° | 120km/h | 8918m | 7.0m/s | 0°C | 0% | 0hPa | 0V | 00:00:00 | 00:00:00 | 00:00:00 | |
| PG1ADW-2 | 2026-09-05 11:57:09 | 48.17747 | 16.86804 | 103° | 119km/h | 8845m | 7.0m/s | 0°C | 0% | 0hPa | 0V | 00:00:00 | 00:00:00 | 00:00:00 | |
| OE3JTB-15 | 2026-09-05 11:57:07 | 48.17770 | 16.86668 | 105° | 119km/h | 8825m | 3.0m/s | 0°C | 0% | 0hPa | 0V | 00:00:00 | 00:00:00 | 00:00:00 | |
| OE3OSB-13 | 2026-09-05 11:56:54 | 48.17861 | 16.86102 | 101° | 122km/h | 8761m | 3.1m/s | -32.6°C | 10.4% | 334.6hPa | 0V | 00:00:00 | 00:00:00 | 00:00:00 | |
| PETON7-10 | 2026-09-05 11:56:47 | 48.17904 | 16.85845 | 109° | 119km/h | 8733m | 5.0m/s | 0°C | 0% | 0hPa | 0V | 00:00:00 | 00:00:00 | 00:00:00 | |
| OE3JTB-15 | 2026-09-05 11:56:38 | 48.17995 | 16.85318 | 103° | 120km/h | 8662m | 5.7m/s | 0°C | 0% | 0hPa | 0V | 00:00:00 | 00:00:00 | 00:00:00 | |
| PETON7-10 | 2026-09-05 11:56:32 | 48.18018 | 16.85190 | 106° | 122km/h | 8643m | 5.6m/s | 0°C | 0% | 0hPa | 0V | 00:00:00 | 00:00:00 | 00:00:00 | |
| OE3OSB-13 | 2026-09-05 11:56:23 | 48.18099 | 16.84743 | 104° | 113km/h | 8594m | 3.8m/s | -31.2°C | 10.1% | 342.6hPa | 0V | 00:00:00 | 00:00:00 | 00:00:00 | |
| PG1ADW-2 | 2026-09-05 11:56:19 | 48.18123 | 16.84613 | 107° | 124km/h | 8578m | 4.7m/s | 0°C | 0% | 0hPa | 0V | 00:00:00 | 00:00:00 | 00:00:00 | |
| PETON7-10 | 2026-09-05 11:56:17 | 48.18139 | 16.84522 | 102° | 122km/h | 8568m | 4.5m/s | 0°C | 0% | 0hPa | 0V | 00:00:00 | 00:00:00 | 00:00:00 | |
| OE3JTB-15 | 2026-09-05 11:56:08 | 48.18243 | 16.83937 | 105° | 120km/h | 8492m | 7.2m/s | 0°C | 0% | 0hPa | 0V | 00:00:00 | 00:00:00 | 00:00:00 | |
| PETON7-10 | 2026-09-05 11:56:02 | 48.18259 | 16.83844 | 104° | 124km/h | 8481m | 4.1m/s | 0°C | 0% | 0hPa | 0V | 00:00:00 | 00:00:00 | 00:00:00 | |
| OE3OSB-13 | 2026-09-05 11:55:52 | 48.18350 | 16.83363 | 101° | 124km/h | 8419m | 3.7m/s | -29.9°C | 10.8% | 351.1hPa | 0V | 00:00:00 | 00:00:00 | 00:00:00 | |
| PETON7-10 | 2026-09-05 11:55:47 | 48.18389 | 16.83183 | 110° | 120km/h | 8403m | 3.7m/s | 0°C | 0% | 0hPa | 0V | 00:00:00 | 00:00:00 | 00:00:00 | |
| S52SK | 2026-09-05 11:55:42 | 48.18438 | 16.82973 | 107° | 126km/h | 8378m | 4.0m/s | 0°C | 0% | 0hPa | 0V | 00:00:00 | 00:00:00 | 00:00:00 | |
| OE3JTB-15 | 2026-09-05 11:55:39 | 48.18484 | 16.82697 | 110° | 119km/h | 8345m | 6.1m/s | 0°C | 0% | 0hPa | 0V | 00:00:00 | 00:00:00 | 00:00:00 | |
| S52SK | 2026-09-05 11:55:36 | 48.18484 | 16.82697 | 110° | 130km/h | 8345m | 6.2m/s | 0°C | 0% | 0hPa | 0V | 00:00:00 | 00:00:00 | 00:00:00 | |
| PETON7-10 | 2026-09-05 11:55:32 | 48.18524 | 16.82526 | 108° | 117km/h | 8324m | 7.8m/s | 0°C | 0% | 0hPa | 0V | 00:00:00 | 00:00:00 | 00:00:00 | |
| S52SK | 2026-09-05 11:55:31 | 48.18533 | 16.82481 | 106° | 124km/h | 8316m | 6.6m/s | 0°C | 0% | 0hPa | 0V | 00:00:00 | 00:00:00 | 00:00:00 | |
| S52SK | 2026-09-05 11:55:24 | 48.18588 | 16.82188 | 101° | 102km/h | 8277m | 4.3m/s | 0°C | 0% | 0hPa | 0V | 00:00:00 | 00:00:00 | 00:00:00 | |
| OE3OSB-13 | 2026-09-05 11:55:21 | 48.18614 | 16.82016 | 106° | 128km/h | 8257m | 4.8m/s | -28.9°C | 9.8% | 359.3hPa | 0V | 00:00:00 | 00:00:00 | 00:00:00 | |
| PG1ADW-2 | 2026-09-05 11:55:20 | 48.18614 | 16.82016 | 107° | 119km/h | 8257m | 4.7m/s | 0°C | 0% | 0hPa | 0V | 00:00:00 | 00:00:00 | 00:00:00 | |
| OE3JTB-15 | 2026-09-05 11:55:10 | 48.18712 | 16.81464 | 105° | 117km/h | 8182m | 5.9m/s | 0°C | 0% | 0hPa | 0V | 00:00:00 | 00:00:00 | 00:00:00 | |
| PETON7-10 | 2026-09-05 11:55:01 | 48.18749 | 16.81201 | 104° | 117km/h | 8153m | 4.0m/s | 0°C | 0% | 0hPa | 0V | 00:00:00 | 00:00:00 | 00:00:00 | |
| OE3OSB-13 | 2026-09-05 11:54:50 | 48.18838 | 16.80695 | 103° | 113km/h | 8090m | 4.1m/s | -27.9°C | 11.2% | 368.1hPa | 0V | 00:00:00 | 00:00:00 | 00:00:00 | |
| PETON7-10 | 2026-09-05 11:54:46 | 48.18856 | 16.80562 | 98° | 115km/h | 8071m | 5.2m/s | 0°C | 0% | 0hPa | 0V | 00:00:00 | 00:00:00 | 00:00:00 | |
| PG1ADW-2 | 2026-09-05 11:54:40 | 48.18887 | 16.80303 | 103° | 111km/h | 8039m | 5.4m/s | 0°C | 0% | 0hPa | 0V | 00:00:00 | 00:00:00 | 00:00:00 | |
| PETON7-10 | 2026-09-05 11:54:31 | 48.18951 | 16.79928 | 103° | 120km/h | 8002m | 2.8m/s | 0°C | 0% | 0hPa | 0V | 00:00:00 | 00:00:00 | 00:00:00 | |
| OE3OSB-13 | 2026-09-05 11:54:19 | 48.19042 | 16.79361 | 106° | 124km/h | 7936m | 5.6m/s | -26.7°C | 11.7% | 376.0hPa | 0V | 00:00:00 | 00:00:00 | 00:00:00 | |
| PETON7-10 | 2026-09-05 11:54:16 | 48.19059 | 16.79271 | 107° | 117km/h | 7925m | 4.5m/s | 0°C | 0% | 0hPa | 0V | 00:00:00 | 00:00:00 | 00:00:00 | |
| OE3JTB-15 | 2026-09-05 11:54:11 | 48.19113 | 16.78936 | 102° | 117km/h | 7885m | 6.3m/s | 0°C | 0% | 0hPa | 0V | 00:00:00 | 00:00:00 | 00:00:00 | |
| PETON7-10 | 2026-09-05 11:54:00 | 48.19182 | 16.78592 | 102° | 113km/h | 7855m | 4.3m/s | 0°C | 0% | 0hPa | 0V | 00:00:00 | 00:00:00 | 00:00:00 | |
| OE3OSB-13 | 2026-09-05 11:53:48 | 48.19271 | 16.78043 | 108° | 110km/h | 7783m | 7.1m/s | -25.5°C | 11.5% | 384.2hPa | 0V | 00:00:00 | 00:00:00 | 00:00:00 | |
| PETON7-10 | 2026-09-05 11:53:45 | 48.19285 | 16.77960 | 103° | 113km/h | 7773m | 4.9m/s | 0°C | 0% | 0hPa | 0V | 00:00:00 | 00:00:00 | 00:00:00 | |
| OE3JTB-15 | 2026-09-05 11:53:42 | 48.19326 | 16.77698 | 98° | 110km/h | 7747m | 4.9m/s | 0°C | 0% | 0hPa | 0V | 00:00:00 | 00:00:00 | 00:00:00 | |
| S52SK | 2026-09-05 11:53:39 | 48.19325 | 16.77698 | 99° | 117km/h | 7747m | 4.9m/s | 0°C | 0% | 0hPa | 0V | 00:00:00 | 00:00:00 | 00:00:00 | |
| S52SK | 2026-09-05 11:53:33 | 48.19365 | 16.77457 | 106° | 110km/h | 7720m | 4.2m/s | 0°C | 0% | 0hPa | 0V | 00:00:00 | 00:00:00 | 00:00:00 | |
| PETON7-10 | 2026-09-05 11:53:30 | 48.19383 | 16.77336 | 100° | 111km/h | 7706m | 4.2m/s | 0°C | 0% | 0hPa | 0V | 00:00:00 | 00:00:00 | 00:00:00 | |
| OE3OSB-13 | 2026-09-05 11:53:17 | 48.19476 | 16.76779 | 94° | 115km/h | 7640m | 4.5m/s | -24.7°C | 11.4% | 392.1hPa | 0V | 00:00:00 | 00:00:00 | 00:00:00 | |
| PETON7-10 | 2026-09-05 11:53:15 | 48.19479 | 16.76736 | 97° | 106km/h | 7635m | 7.5m/s | 0°C | 0% | 0hPa | 0V | 00:00:00 | 00:00:00 | 00:00:00 | |
| OE3JTB-15 | 2026-09-05 11:53:13 | 48.19501 | 16.76534 | 103° | 108km/h | 7604m | 5.3m/s | 0°C | 0% | 0hPa | 0V | 00:00:00 | 00:00:00 | 00:00:00 | |
| PETON7-10 | 2026-09-05 11:53:00 | 48.19535 | 16.76136 | 104° | 106km/h | 7558m | 3.7m/s | 0°C | 0% | 0hPa | 0V | 00:00:00 | 00:00:00 | 00:00:00 | |
| OE3OSB-13 | 2026-09-05 11:52:46 | 48.19602 | 16.75555 | 98° | 95km/h | 7474m | 4.8m/s | -23.3°C | 10.3% | 401.0hPa | 0V | 00:00:00 | 00:00:00 | 00:00:00 | |
| PETON7-10 | 2026-09-05 11:52:45 | 48.19602 | 16.75555 | 99° | 102km/h | 7474m | 4.7m/s | 0°C | 0% | 0hPa | 0V | 00:00:00 | 00:00:00 | 00:00:00 | |
| OE3JTB-15 | 2026-09-05 11:52:43 | 48.19613 | 16.75355 | 97° | 100km/h | 7444m | 6.6m/s | 0°C | 0% | 0hPa | 0V | 00:00:00 | 00:00:00 | 00:00:00 | |
| PETON7-10 | 2026-09-05 11:52:30 | 48.19659 | 16.74975 | 96° | 102km/h | 7387m | 4.9m/s | 0°C | 0% | 0hPa | 0V | 00:00:00 | 00:00:00 | 00:00:00 | |
| OE3OSB-13 | 2026-09-05 11:52:14 | 48.19698 | 16.74363 | 97° | 106km/h | 7301m | 7.3m/s | -21.8°C | 9.4% | 410.8hPa | 0V | 00:00:00 | 00:00:00 | 00:00:00 | |
| PETON7-10 | 2026-09-05 11:52:12 | 48.19708 | 16.74287 | 103° | 102km/h | 7287m | 4.9m/s | 0°C | 0% | 0hPa | 0V | 00:00:00 | 00:00:00 | 00:00:00 | |
| OE3JTB-15 | 2026-09-05 11:52:10 | 48.19718 | 16.74138 | 90° | 102km/h | 7266m | 4.5m/s | 0°C | 0% | 0hPa | 0V | 00:00:00 | 00:00:00 | 00:00:00 | |
| PETON7-10 | 2026-09-05 11:51:56 | 48.19739 | 16.73676 | 97° | 102km/h | 7205m | 3.8m/s | 0°C | 0% | 0hPa | 0V | 00:00:00 | 00:00:00 | 00:00:00 | |
| S52SK | 2026-09-05 11:51:54 | 48.19747 | 16.73598 | 98° | 106km/h | 7193m | 7.0m/s | 0°C | 0% | 0hPa | 0V | 00:00:00 | 00:00:00 | 00:00:00 | |
| S52SK | 2026-09-05 11:51:48 | 48.19769 | 16.73362 | 97° | 99km/h | 7157m | 4.8m/s | 0°C | 0% | 0hPa | 0V | 00:00:00 | 00:00:00 | 00:00:00 | |
| PETON7-10 | 2026-09-05 11:51:41 | 48.19777 | 16.73101 | 93° | 102km/h | 7116m | 4.2m/s | 0°C | 0% | 0hPa | 0V | 00:00:00 | 00:00:00 | 00:00:00 | |
| PG1ADW-2 | 2026-09-05 11:51:40 | 48.19779 | 16.73063 | 99° | 91km/h | 7111m | 3.3m/s | 0°C | 0% | 0hPa | 0V | 00:00:00 | 00:00:00 | 00:00:00 | |
| PETON7-10 | 2026-09-05 11:51:25 | 48.19819 | 16.72482 | 97° | 97km/h | 7021m | 5.1m/s | 0°C | 0% | 0hPa | 0V | 00:00:00 | 00:00:00 | 00:00:00 | |
| OE3OSB-13 | 2026-09-05 11:51:13 | 48.19847 | 16.71970 | 91° | 95km/h | 6944m | 3.4m/s | -19.2°C | 9.6% | 431.2hPa | 0V | 00:00:00 | 00:00:00 | 00:00:00 | |
| PETON7-10 | 2026-09-05 11:51:10 | 48.19848 | 16.71934 | 91° | 102km/h | 6941m | 4.4m/s | 0°C | 0% | 0hPa | 0V | 00:00:00 | 00:00:00 | 00:00:00 | |
| PETON7-10 | 2026-09-05 11:50:55 | 48.19860 | 16.71350 | 90° | 104km/h | 6858m | 3.3m/s | 0°C | 0% | 0hPa | 0V | 00:00:00 | 00:00:00 | 00:00:00 | |
| OE3OSB-13 | 2026-09-05 11:50:42 | 48.19873 | 16.70771 | 91° | 95km/h | 6778m | 3.9m/s | -17.8°C | 9.0% | 440.8hPa | 0V | 00:00:00 | 00:00:00 | 00:00:00 | |
| OE3JTB-15 | 2026-09-05 11:50:39 | 48.19872 | 16.70632 | 91° | 100km/h | 6756m | 3.6m/s | 0°C | 0% | 0hPa | 0V | 00:00:00 | 00:00:00 | 00:00:00 | |
| PETON7-10 | 2026-09-05 11:50:25 | 48.19898 | 16.70232 | 90° | 100km/h | 6698m | 4.6m/s | 0°C | 0% | 0hPa | 0V | 00:00:00 | 00:00:00 | 00:00:00 | |
| PETON7-10 | 2026-09-05 11:50:10 | 48.19915 | 16.69666 | 94° | 100km/h | 6618m | 2.9m/s | 0°C | 0% | 0hPa | 0V | 00:00:00 | 00:00:00 | 00:00:00 | |
| OE3JTB-15 | 2026-09-05 11:50:04 | 48.19929 | 16.69327 | 91° | 99km/h | 6564m | 6.4m/s | 0°C | 0% | 0hPa | 0V | 00:00:00 | 00:00:00 | 00:00:00 | |
| PETON7-10 | 2026-09-05 11:49:56 | 48.19927 | 16.69096 | 92° | 93km/h | 6535m | 3.6m/s | 0°C | 0% | 0hPa | 0V | 00:00:00 | 00:00:00 | 00:00:00 | |
| OM5KV | 2026-09-05 11:49:51 | 48.19944 | 16.68942 | 105° | 89km/h | 6515m | 3.3m/s | 0°C | 0% | 0hPa | 0V | 00:00:00 | 00:00:00 | 00:00:00 | |
| OM5KV | 2026-09-05 11:49:44 | 48.19958 | 16.68704 | 94° | 95km/h | 6472m | 8.2m/s | 0°C | 0% | 0hPa | 0V | 00:00:00 | 00:00:00 | 00:00:00 | |
| PETON7-10 | 2026-09-05 11:49:40 | 48.19966 | 16.68570 | 87° | 91km/h | 6441m | 5.5m/s | 0°C | 0% | 0hPa | 0V | 00:00:00 | 00:00:00 | 00:00:00 | |
| OE3OSB-13 | 2026-09-05 11:49:39 | 48.19960 | 16.68504 | 80° | 84km/h | 6429m | 6.2m/s | -15.9°C | 11.5% | 461.8hPa | 0V | 00:00:00 | 00:00:00 | 00:00:00 | |
| OE3JTB-15 | 2026-09-05 11:49:36 | 48.19963 | 16.68334 | 91° | 93km/h | 6398m | 4.4m/s | 0°C | 0% | 0hPa | 0V | 00:00:00 | 00:00:00 | 00:00:00 | |
| S52SK | 2026-09-05 11:49:27 | 48.19938 | 16.68126 | 76° | 91km/h | 6363m | 2.5m/s | 0°C | 0% | 0hPa | 0V | 00:00:00 | 00:00:00 | 00:00:00 | |
| OM5KV | 2026-09-05 11:49:26 | 48.19933 | 16.68092 | 84° | 93km/h | 6359m | 3.9m/s | 0°C | 0% | 0hPa | 0V | 00:00:00 | 00:00:00 | 00:00:00 | |
| PETON7-10 | 2026-09-05 11:49:25 | 48.19932 | 16.68056 | 90° | 93km/h | 6354m | 5.0m/s | 0°C | 0% | 0hPa | 0V | 00:00:00 | 00:00:00 | 00:00:00 | |
| OM5KV | 2026-09-05 11:49:21 | 48.19941 | 16.67916 | 96° | 100km/h | 6329m | 5.6m/s | 0°C | 0% | 0hPa | 0V | 00:00:00 | 00:00:00 | 00:00:00 | |
| OM5KV | 2026-09-05 11:49:15 | 48.19932 | 16.67700 | 94° | 89km/h | 6288m | 5.8m/s | 0°C | 0% | 0hPa | 0V | 00:00:00 | 00:00:00 | 00:00:00 | |
| OM5KV | 2026-09-05 11:49:14 | 48.19932 | 16.67668 | 89° | 84km/h | 6282m | 6.1m/s | 0°C | 0% | 0hPa | 0V | 00:00:00 | 00:00:00 | 00:00:00 | |
| PETON7-10 | 2026-09-05 11:49:10 | 48.19923 | 16.67524 | 84° | 91km/h | 6261m | 1.3m/s | 0°C | 0% | 0hPa | 0V | 00:00:00 | 00:00:00 | 00:00:00 | |
| OE3OSB-13 | 2026-09-05 11:49:08 | 48.19923 | 16.67340 | 90° | 95km/h | 6235m | 7.1m/s | -13.9°C | 10.9% | 474.1hPa | 0V | 00:00:00 | 00:00:00 | 00:00:00 | |
| OM5KV | 2026-09-05 11:49:01 | 48.19904 | 16.67206 | 74° | 78km/h | 6209m | 4.1m/s | 0°C | 0% | 0hPa | 0V | 00:00:00 | 00:00:00 | 00:00:00 | |
| OM5KV | 2026-09-05 11:48:56 | 48.19899 | 16.67050 | 92° | 95km/h | 6181m | 6.1m/s | 0°C | 0% | 0hPa | 0V | 00:00:00 | 00:00:00 | 00:00:00 | |
| PETON7-10 | 2026-09-05 11:48:55 | 48.19899 | 16.67013 | 89° | 91km/h | 6174m | 5.9m/s | 0°C | 0% | 0hPa | 0V | 00:00:00 | 00:00:00 | 00:00:00 | |
| OM5KV | 2026-09-05 11:48:52 | 48.19889 | 16.66901 | 80° | 95km/h | 6155m | 4.0m/s | 0°C | 0% | 0hPa | 0V | 00:00:00 | 00:00:00 | 00:00:00 | |
| OM5KV | 2026-09-05 11:48:49 | 48.19879 | 16.66809 | 85° | 77km/h | 6141m | 3.4m/s | 0°C | 0% | 0hPa | 0V | 00:00:00 | 00:00:00 | 00:00:00 | |
| OM5KV | 2026-09-05 11:48:41 | 48.19852 | 16.66546 | 87° | 108km/h | 6104m | 4.2m/s | 0°C | 0% | 0hPa | 0V | 00:00:00 | 00:00:00 | 00:00:00 | |
| PETON7-10 | 2026-09-05 11:48:40 | 48.19851 | 16.66506 | 91° | 95km/h | 6098m | 4.4m/s | 0°C | 0% | 0hPa | 0V | 00:00:00 | 00:00:00 | 00:00:00 | |
| OM5KV | 2026-09-05 11:48:38 | 48.19849 | 16.66430 | 84° | 97km/h | 6088m | 4.5m/s | 0°C | 0% | 0hPa | 0V | 00:00:00 | 00:00:00 | 00:00:00 | |
| OE3OSB-13 | 2026-09-05 11:48:37 | 48.19840 | 16.66365 | 72° | 84km/h | 6076m | 4.6m/s | -12.5°C | 10.8% | 484.1hPa | 0V | 00:00:00 | 00:00:00 | 00:00:00 | |
| OM5KV | 2026-09-05 11:48:33 | 48.19827 | 16.66268 | 83° | 97km/h | 6061m | 4.8m/s | 0°C | 0% | 0hPa | 0V | 00:00:00 | 00:00:00 | 00:00:00 | |
| OM5KV | 2026-09-05 11:48:32 | 48.19825 | 16.66231 | 87° | 99km/h | 6055m | 7.0m/s | 0°C | 0% | 0hPa | 0V | 00:00:00 | 00:00:00 | 00:00:00 | |
| OM5KV | 2026-09-05 11:48:26 | 48.19799 | 16.66017 | 87° | 93km/h | 6021m | 5.2m/s | 0°C | 0% | 0hPa | 0V | 00:00:00 | 00:00:00 | 00:00:00 | |
| PETON7-10 | 2026-09-05 11:48:25 | 48.19797 | 16.65982 | 87° | 91km/h | 6015m | 4.4m/s | 0°C | 0% | 0hPa | 0V | 00:00:00 | 00:00:00 | 00:00:00 | |
| OM5KV | 2026-09-05 11:48:24 | 48.19796 | 16.65947 | 94° | 86km/h | 6010m | 3.2m/s | 0°C | 0% | 0hPa | 0V | 00:00:00 | 00:00:00 | 00:00:00 | |
| OM5KV | 2026-09-05 11:48:17 | 48.19787 | 16.65722 | 77° | 88km/h | 5973m | 4.6m/s | 0°C | 0% | 0hPa | 0V | 00:00:00 | 00:00:00 | 00:00:00 | |
| OM5KV | 2026-09-05 11:48:16 | 48.19782 | 16.65689 | 83° | 93km/h | 5968m | 4.6m/s | 0°C | 0% | 0hPa | 0V | 00:00:00 | 00:00:00 | 00:00:00 | |
| OM5KV | 2026-09-05 11:48:14 | 48.19776 | 16.65616 | 85° | 102km/h | 5958m | 4.6m/s | 0°C | 0% | 0hPa | 0V | 00:00:00 | 00:00:00 | 00:00:00 | |
| OM5KV | 2026-09-05 11:48:11 | 48.19773 | 16.65505 | 94° | 89km/h | 5940m | 5.1m/s | 0°C | 0% | 0hPa | 0V | 00:00:00 | 00:00:00 | 00:00:00 | |
| PETON7-10 | 2026-09-05 11:48:10 | 48.19773 | 16.65473 | 91° | 86km/h | 5935m | 4.6m/s | 0°C | 0% | 0hPa | 0V | 00:00:00 | 00:00:00 | 00:00:00 | |
| OE3OSB-13 | 2026-09-05 11:48:06 | 48.19758 | 16.65324 | 82° | 91km/h | 5911m | 5.8m/s | -11.3°C | 10.9% | 495.0hPa | 0V | 00:00:00 | 00:00:00 | 00:00:00 | |
| OM5KV | 2026-09-05 11:48:04 | 48.19755 | 16.65290 | 85° | 89km/h | 5904m | 7.3m/s | 0°C | 0% | 0hPa | 0V | 00:00:00 | 00:00:00 | 00:00:00 | |
| OM5KV | 2026-09-05 11:47:58 | 48.19751 | 16.65084 | 98° | 84km/h | 5868m | 5.2m/s | 0°C | 0% | 0hPa | 0V | 00:00:00 | 00:00:00 | 00:00:00 | |
| PETON7-10 | 2026-09-05 11:47:55 | 48.19749 | 16.64988 | 82° | 89km/h | 5853m | 4.5m/s | 0°C | 0% | 0hPa | 0V | 00:00:00 | 00:00:00 | 00:00:00 | |
| OM5KV | 2026-09-05 11:47:52 | 48.19738 | 16.64891 | 82° | 84km/h | 5840m | 2.4m/s | 0°C | 0% | 0hPa | 0V | 00:00:00 | 00:00:00 | 00:00:00 | |
| OM5KV | 2026-09-05 11:47:49 | 48.19733 | 16.64791 | 91° | 95km/h | 5826m | 4.7m/s | 0°C | 0% | 0hPa | 0V | 00:00:00 | 00:00:00 | 00:00:00 | |
| OM5KV | 2026-09-05 11:47:48 | 48.19733 | 16.64753 | 91° | 102km/h | 5821m | 4.4m/s | 0°C | 0% | 0hPa | 0V | 00:00:00 | 00:00:00 | 00:00:00 | |
| OM5KV | 2026-09-05 11:47:42 | 48.19719 | 16.64559 | 84° | 80km/h | 5790m | 3.5m/s | 0°C | 0% | 0hPa | 0V | 00:00:00 | 00:00:00 | 00:00:00 | |
| OM5KV | 2026-09-05 11:47:41 | 48.19717 | 16.64527 | 87° | 89km/h | 5784m | 5.3m/s | 0°C | 0% | 0hPa | 0V | 00:00:00 | 00:00:00 | 00:00:00 | |
| PETON7-10 | 2026-09-05 11:47:39 | 48.19717 | 16.64453 | 89° | 93km/h | 5772m | 4.1m/s | 0°C | 0% | 0hPa | 0V | 00:00:00 | 00:00:00 | 00:00:00 | |
| OE3OSB-13 | 2026-09-05 11:47:35 | 48.19711 | 16.64261 | 86° | 91km/h | 5747m | 4.2m/s | -10.5°C | 8.4% | 505.6hPa | 0V | 00:00:00 | 00:00:00 | 00:00:00 | |
| OM5KV | 2026-09-05 11:47:34 | 48.19711 | 16.64261 | 87° | 91km/h | 5747m | 4.2m/s | 0°C | 0% | 0hPa | 0V | 00:00:00 | 00:00:00 | 00:00:00 | |
| OM5KV | 2026-09-05 11:47:29 | 48.19715 | 16.64104 | 91° | 82km/h | 5723m | 2.3m/s | 0°C | 0% | 0hPa | 0V | 00:00:00 | 00:00:00 | 00:00:00 | |
| OM5KV | 2026-09-05 11:47:28 | 48.19715 | 16.64070 | 90° | 95km/h | 5718m | 4.5m/s | 0°C | 0% | 0hPa | 0V | 00:00:00 | 00:00:00 | 00:00:00 | |
| PETON7-10 | 2026-09-05 11:47:24 | 48.19714 | 16.63927 | 91° | 93km/h | 5696m | 4.1m/s | 0°C | 0% | 0hPa | 0V | 00:00:00 | 00:00:00 | 00:00:00 | |
| OM5KV | 2026-09-05 11:47:23 | 48.19714 | 16.63896 | 88° | 82km/h | 5691m | 5.7m/s | 0°C | 0% | 0hPa | 0V | 00:00:00 | 00:00:00 | 00:00:00 | |
| OE3JTB-15 | 2026-09-05 11:47:20 | 48.19714 | 16.63716 | 95° | 91km/h | 5662m | 6.1m/s | 0°C | 0% | 0hPa | 0V | 00:00:00 | 00:00:00 | 00:00:00 | |
| OM5KV | 2026-09-05 11:47:18 | 48.19714 | 16.63716 | 95° | 91km/h | 5662m | 6.2m/s | 0°C | 0% | 0hPa | 0V | 00:00:00 | 00:00:00 | 00:00:00 | |
| OM5KV | 2026-09-05 11:47:17 | 48.19715 | 16.63682 | 94° | 88km/h | 5656m | 3.5m/s | 0°C | 0% | 0hPa | 0V | 00:00:00 | 00:00:00 | 00:00:00 | |
| S52SK | 2026-09-05 11:47:14 | 48.19721 | 16.63577 | 93° | 95km/h | 5642m | 3.8m/s | 0°C | 0% | 0hPa | 0V | 00:00:00 | 00:00:00 | 00:00:00 | |
| OM5KV | 2026-09-05 11:47:12 | 48.19722 | 16.63506 | 91° | 93km/h | 5633m | 5.0m/s | 0°C | 0% | 0hPa | 0V | 00:00:00 | 00:00:00 | 00:00:00 | |
| PETON7-10 | 2026-09-05 11:47:08 | 48.19722 | 16.63371 | 88° | 91km/h | 5616m | 1.0m/s | 0°C | 0% | 0hPa | 0V | 00:00:00 | 00:00:00 | 00:00:00 | |
| OM5KV | 2026-09-05 11:47:07 | 48.19720 | 16.63338 | 85° | 89km/h | 5613m | 2.3m/s | 0°C | 0% | 0hPa | 0V | 00:00:00 | 00:00:00 | 00:00:00 | |
| OE3OSB-13 | 2026-09-05 11:47:04 | 48.19726 | 16.63185 | 101° | 95km/h | 5594m | 4.1m/s | -9.7°C | 9.4% | 515.5hPa | 0V | 00:00:00 | 00:00:00 | 00:00:00 | |
| OM5KV | 2026-09-05 11:47:02 | 48.19731 | 16.63151 | 105° | 86km/h | 5589m | 5.9m/s | 0°C | 0% | 0hPa | 0V | 00:00:00 | 00:00:00 | 00:00:00 | |
| OM5KV | 2026-09-05 11:47:00 | 48.19737 | 16.63092 | 91° | 75km/h | 5577m | 4.1m/s | 0°C | 0% | 0hPa | 0V | 00:00:00 | 00:00:00 | 00:00:00 | |
| OM5KV | 2026-09-05 11:46:56 | 48.19729 | 16.62962 | 91° | 102km/h | 5556m | 3.8m/s | 0°C | 0% | 0hPa | 0V | 00:00:00 | 00:00:00 | 00:00:00 | |
| PETON7-10 | 2026-09-05 11:46:53 | 48.19730 | 16.62853 | 89° | 88km/h | 5538m | 3.4m/s | 0°C | 0% | 0hPa | 0V | 00:00:00 | 00:00:00 | 00:00:00 | |
| OM5KV | 2026-09-05 11:46:48 | 48.19721 | 16.62689 | 90° | 82km/h | 5512m | 6.6m/s | 0°C | 0% | 0hPa | 0V | 00:00:00 | 00:00:00 | 00:00:00 | |
| PG1ADW-2 | 2026-09-05 11:46:47 | 48.19722 | 16.62659 | 95° | 91km/h | 5506m | 4.7m/s | 0°C | 0% | 0hPa | 0V | 00:00:00 | 00:00:00 | 00:00:00 | |
| OM5KV | 2026-09-05 11:46:45 | 48.19724 | 16.62602 | 88° | 84km/h | 5496m | 2.9m/s | 0°C | 0% | 0hPa | 0V | 00:00:00 | 00:00:00 | 00:00:00 | |
| OM5KV | 2026-09-05 11:46:41 | 48.19716 | 16.62463 | 91° | 95km/h | 5473m | 5.0m/s | 0°C | 0% | 0hPa | 0V | 00:00:00 | 00:00:00 | 00:00:00 | |
| OM5KV | 2026-09-05 11:46:40 | 48.19717 | 16.62428 | 93° | 91km/h | 5468m | 4.2m/s | 0°C | 0% | 0hPa | 0V | 00:00:00 | 00:00:00 | 00:00:00 | |
| PETON7-10 | 2026-09-05 11:46:38 | 48.19720 | 16.62360 | 92° | 91km/h | 5457m | 4.1m/s | 0°C | 0% | 0hPa | 0V | 00:00:00 | 00:00:00 | 00:00:00 | |
| OM5KV | 2026-09-05 11:46:36 | 48.19718 | 16.62290 | 83° | 95km/h | 5446m | 2.5m/s | 0°C | 0% | 0hPa | 0V | 00:00:00 | 00:00:00 | 00:00:00 | |
| OE3OSB-13 | 2026-09-05 11:46:33 | 48.19701 | 16.62149 | 84° | 91km/h | 5428m | 5.7m/s | -8.2°C | 9.1% | 526.9hPa | 0V | 00:00:00 | 00:00:00 | 00:00:00 | |
| OE3JTB-15 | 2026-09-05 11:46:32 | 48.19700 | 16.62081 | 94° | 89km/h | 5414m | 5.5m/s | 0°C | 0% | 0hPa | 0V | 00:00:00 | 00:00:00 | 00:00:00 | |
| OM5KV | 2026-09-05 11:46:24 | 48.19699 | 16.61874 | 87° | 78km/h | 5382m | 4.1m/s | 0°C | 0% | 0hPa | 0V | 00:00:00 | 00:00:00 | 00:00:00 | |
| PETON7-10 | 2026-09-05 11:46:23 | 48.19699 | 16.61845 | 94° | 89km/h | 5379m | 2.4m/s | 0°C | 0% | 0hPa | 0V | 00:00:00 | 00:00:00 | 00:00:00 | |
| OM5KV | 2026-09-05 11:46:19 | 48.19703 | 16.61711 | 91° | 89km/h | 5360m | 5.5m/s | 0°C | 0% | 0hPa | 0V | 00:00:00 | 00:00:00 | 00:00:00 | |
| PG1ADW-2 | 2026-09-05 11:46:15 | 48.19699 | 16.61576 | 88° | 95km/h | 5336m | 6.5m/s | 0°C | 0% | 0hPa | 0V | 00:00:00 | 00:00:00 | 00:00:00 | |
| OM5KV | 2026-09-05 11:46:13 | 48.19699 | 16.61506 | 93° | 102km/h | 5326m | 4.8m/s | 0°C | 0% | 0hPa | 0V | 00:00:00 | 00:00:00 | 00:00:00 | |
| PETON7-10 | 2026-09-05 11:46:08 | 48.19702 | 16.61317 | 91° | 89km/h | 5305m | 6.1m/s | 0°C | 0% | 0hPa | 0V | 00:00:00 | 00:00:00 | 00:00:00 | |
| OE3OSB-13 | 2026-09-05 11:46:02 | 48.19695 | 16.61079 | 84° | 91km/h | 5268m | 3.4m/s | -7.0°C | 7.8% | 538.3hPa | 0V | 00:00:00 | 00:00:00 | 00:00:00 | |
| PETON7-10 | 2026-09-05 11:45:53 | 48.19710 | 16.60810 | 89° | 88km/h | 5232m | 4.5m/s | 0°C | 0% | 0hPa | 0V | 00:00:00 | 00:00:00 | 00:00:00 | |
| PETON7-10 | 2026-09-05 11:45:38 | 48.19708 | 16.60314 | 96° | 95km/h | 5147m | 4.6m/s | 0°C | 0% | 0hPa | 0V | 00:00:00 | 00:00:00 | 00:00:00 | |
| OE3JTB-15 | 2026-09-05 11:45:34 | 48.19705 | 16.60089 | 90° | 91km/h | 5120m | 5.5m/s | 0°C | 0% | 0hPa | 0V | 00:00:00 | 00:00:00 | 00:00:00 | |
| OE3OSB-13 | 2026-09-05 11:45:30 | 48.19707 | 16.60025 | 93° | 88km/h | 5106m | 5.7m/s | -5.9°C | 7.0% | 549.6hPa | 0V | 00:00:00 | 00:00:00 | 00:00:00 | |
| PETON7-10 | 2026-09-05 11:45:23 | 48.19722 | 16.59775 | 90° | 93km/h | 5060m | 2.6m/s | 0°C | 0% | 0hPa | 0V | 00:00:00 | 00:00:00 | 00:00:00 | |
| PG1ADW-2 | 2026-09-05 11:45:09 | 48.19729 | 16.59283 | 96° | 91km/h | 4988m | 5.1m/s | 0°C | 0% | 0hPa | 0V | 00:00:00 | 00:00:00 | 00:00:00 | |
| PETON7-10 | 2026-09-05 11:45:08 | 48.19731 | 16.59248 | 95° | 91km/h | 4982m | 4.1m/s | 0°C | 0% | 0hPa | 0V | 00:00:00 | 00:00:00 | 00:00:00 | |
| OE3JTB-15 | 2026-09-05 11:45:05 | 48.19727 | 16.59073 | 94° | 95km/h | 4960m | 3.7m/s | 0°C | 0% | 0hPa | 0V | 00:00:00 | 00:00:00 | 00:00:00 | |
| OE3OSB-13 | 2026-09-05 11:45:00 | 48.19727 | 16.58942 | 91° | 93km/h | 4939m | 4.8m/s | -4.9°C | 6.1% | 561.6hPa | 0V | 00:00:00 | 00:00:00 | 00:00:00 | |
| PETON7-10 | 2026-09-05 11:44:53 | 48.19744 | 16.58727 | 97° | 93km/h | 4908m | 5.7m/s | 0°C | 0% | 0hPa | 0V | 00:00:00 | 00:00:00 | 00:00:00 | |
| PETON7-10 | 2026-09-05 11:44:38 | 48.19743 | 16.58196 | 85° | 97km/h | 4826m | 4.9m/s | 0°C | 0% | 0hPa | 0V | 00:00:00 | 00:00:00 | 00:00:00 | |
| OE3JTB-15 | 2026-09-05 11:44:36 | 48.19739 | 16.58004 | 90° | 93km/h | 4803m | 6.4m/s | 0°C | 0% | 0hPa | 0V | 00:00:00 | 00:00:00 | 00:00:00 | |
| OE3OSB-13 | 2026-09-05 11:44:29 | 48.19747 | 16.57827 | 97° | 100km/h | 4773m | 2.5m/s | -3.9°C | 5.8% | 573.6hPa | 0V | 00:00:00 | 00:00:00 | 00:00:00 | |
| PETON7-10 | 2026-09-05 11:44:23 | 48.19769 | 16.57646 | 93° | 95km/h | 4751m | 5.6m/s | 0°C | 0% | 0hPa | 0V | 00:00:00 | 00:00:00 | 00:00:00 | |
| OE3JTB-15 | 2026-09-05 11:44:07 | 48.19820 | 16.56989 | 89° | 89km/h | 4649m | 6.7m/s | 0°C | 0% | 0hPa | 0V | 00:00:00 | 00:00:00 | 00:00:00 | |
| OE3OSB-13 | 2026-09-05 11:43:58 | 48.19830 | 16.56765 | 89° | 93km/h | 4604m | 6.0m/s | -2.8°C | 11.0% | 585.9hPa | 0V | 00:00:00 | 00:00:00 | 00:00:00 | |
| PETON7-10 | 2026-09-05 11:43:53 | 48.19838 | 16.56635 | 97° | 93km/h | 4582m | 5.4m/s | 0°C | 0% | 0hPa | 0V | 00:00:00 | 00:00:00 | 00:00:00 | |
| PETON7-10 | 2026-09-05 11:43:38 | 48.19880 | 16.56109 | 93° | 93km/h | 4500m | 6.3m/s | 0°C | 0% | 0hPa | 0V | 00:00:00 | 00:00:00 | 00:00:00 | |
| OE3JTB-15 | 2026-09-05 11:43:37 | 48.19881 | 16.55968 | 94° | 95km/h | 4475m | 6.0m/s | 0°C | 0% | 0hPa | 0V | 00:00:00 | 00:00:00 | 00:00:00 | |
| OE3OSB-13 | 2026-09-05 11:43:27 | 48.19883 | 16.55645 | 90° | 91km/h | 4426m | 4.9m/s | -2.1°C | 32.0% | 599.2hPa | 0V | 00:00:00 | 00:00:00 | 00:00:00 | |
| PETON7-10 | 2026-09-05 11:43:23 | 48.19884 | 16.55573 | 94° | 99km/h | 4414m | 6.6m/s | 0°C | 0% | 0hPa | 0V | 00:00:00 | 00:00:00 | 00:00:00 | |
| PETON7-10 | 2026-09-05 11:43:10 | 48.19889 | 16.55017 | 89° | 104km/h | 4317m | 4.1m/s | 0°C | 0% | 0hPa | 0V | 00:00:00 | 00:00:00 | 00:00:00 | |
| OE3JTB-15 | 2026-09-05 11:43:08 | 48.19890 | 16.54862 | 95° | 102km/h | 4293m | 7.6m/s | 0°C | 0% | 0hPa | 0V | 00:00:00 | 00:00:00 | 00:00:00 | |
| OE3OSB-13 | 2026-09-05 11:42:55 | 48.19909 | 16.54470 | 93° | 104km/h | 4242m | 5.5m/s | -1.4°C | 32.9% | 613.6hPa | 0V | 00:00:00 | 00:00:00 | 00:00:00 | |
| PETON7-10 | 2026-09-05 11:42:53 | 48.19912 | 16.54429 | 96° | 104km/h | 4235m | 7.2m/s | 0°C | 0% | 0hPa | 0V | 00:00:00 | 00:00:00 | 00:00:00 | |
| PG1ADW-2 | 2026-09-05 11:42:41 | 48.19937 | 16.53966 | 97° | 100km/h | 4164m | 2.9m/s | 0°C | 0% | 0hPa | 0V | 00:00:00 | 00:00:00 | 00:00:00 | |
| OE3JTB-15 | 2026-09-05 11:42:38 | 48.19955 | 16.53808 | 104° | 102km/h | 4147m | 3.9m/s | 0°C | 0% | 0hPa | 0V | 00:00:00 | 00:00:00 | 00:00:00 | |
| PETON7-10 | 2026-09-05 11:42:37 | 48.19955 | 16.53808 | 104° | 104km/h | 4147m | 3.9m/s | 0°C | 0% | 0hPa | 0V | 00:00:00 | 00:00:00 | 00:00:00 | |
| OE3OSB-13 | 2026-09-05 11:42:24 | 48.20016 | 16.53267 | 96° | 110km/h | 4067m | 4.8m/s | -1.1°C | 59.0% | 627.5hPa | 0V | 00:00:00 | 00:00:00 | 00:00:00 | |
| PETON7-10 | 2026-09-05 11:42:22 | 48.20018 | 16.53228 | 95° | 100km/h | 4062m | 4.6m/s | 0°C | 0% | 0hPa | 0V | 00:00:00 | 00:00:00 | 00:00:00 | |
| OE3JTB-15 | 2026-09-05 11:42:09 | 48.20117 | 16.52738 | 101° | 100km/h | 3989m | 5.5m/s | 0°C | 0% | 0hPa | 0V | 00:00:00 | 00:00:00 | 00:00:00 | |
| PETON7-10 | 2026-09-05 11:42:07 | 48.20106 | 16.52662 | 95° | 104km/h | 3979m | 5.8m/s | 0°C | 0% | 0hPa | 0V | 00:00:00 | 00:00:00 | 00:00:00 | |
| OE3OSB-13 | 2026-09-05 11:41:53 | 48.20209 | 16.52068 | 108° | 110km/h | 3893m | 2.3m/s | -0.0°C | 64.7% | 641.2hPa | 0V | 00:00:00 | 00:00:00 | 00:00:00 | |
| PETON7-10 | 2026-09-05 11:41:52 | 48.20209 | 16.52068 | 109° | 108km/h | 3893m | 2.3m/s | 0°C | 0% | 0hPa | 0V | 00:00:00 | 00:00:00 | 00:00:00 | |
| OE3JTB-15 | 2026-09-05 11:41:39 | 48.20298 | 16.51558 | 100° | 99km/h | 3830m | 4.9m/s | 0°C | 0% | 0hPa | 0V | 00:00:00 | 00:00:00 | 00:00:00 | |
| PETON7-10 | 2026-09-05 11:41:37 | 48.20308 | 16.51479 | 105° | 102km/h | 3820m | 2.4m/s | 0°C | 0% | 0hPa | 0V | 00:00:00 | 00:00:00 | 00:00:00 | |
| OE3OSB-13 | 2026-09-05 11:41:22 | 48.20423 | 16.50890 | 113° | 100km/h | 3740m | 4.2m/s | 1.0°C | 65.0% | 653.7hPa | 0V | 00:00:00 | 00:00:00 | 00:00:00 | |
| OE3JTB-15 | 2026-09-05 11:41:09 | 48.20484 | 16.50472 | 116° | 102km/h | 3693m | 6.0m/s | 0°C | 0% | 0hPa | 0V | 00:00:00 | 00:00:00 | 00:00:00 | |
| PETON7-10 | 2026-09-05 11:41:07 | 48.20508 | 16.50394 | 116° | 100km/h | 3681m | 3.1m/s | 0°C | 0% | 0hPa | 0V | 00:00:00 | 00:00:00 | 00:00:00 | |
| OE3OSB-13 | 2026-09-05 11:40:51 | 48.20673 | 16.49804 | 113° | 108km/h | 3617m | 3.7m/s | 0.6°C | 75.3% | 664.0hPa | 0V | 00:00:00 | 00:00:00 | 00:00:00 | |
| OE3JTB-15 | 2026-09-05 11:40:40 | 48.20773 | 16.49436 | 106° | 106km/h | 3583m | 2.9m/s | 0°C | 0% | 0hPa | 0V | 00:00:00 | 00:00:00 | 00:00:00 | |
| PETON7-10 | 2026-09-05 11:40:37 | 48.20791 | 16.49312 | 105° | 104km/h | 3565m | 3.6m/s | 0°C | 0% | 0hPa | 0V | 00:00:00 | 00:00:00 | 00:00:00 | |
| PETON7-10 | 2026-09-05 11:40:22 | 48.20923 | 16.48754 | 104° | 102km/h | 3505m | 1.3m/s | 0°C | 0% | 0hPa | 0V | 00:00:00 | 00:00:00 | 00:00:00 | |
| OE3OSB-13 | 2026-09-05 11:40:20 | 48.20951 | 16.48634 | 115° | 108km/h | 3494m | 3.6m/s | 1.0°C | 75.4% | 674.1hPa | 0V | 00:00:00 | 00:00:00 | 00:00:00 | |
| OE3JTB-15 | 2026-09-05 11:40:11 | 48.21026 | 16.48351 | 119° | 97km/h | 3459m | 3.2m/s | 0°C | 0% | 0hPa | 0V | 00:00:00 | 00:00:00 | 00:00:00 | |
| PETON7-10 | 2026-09-05 11:40:07 | 48.21063 | 16.48218 | 102° | 100km/h | 3445m | 3.4m/s | 0°C | 0% | 0hPa | 0V | 00:00:00 | 00:00:00 | 00:00:00 | |
| OE3OSB-13 | 2026-09-05 11:39:49 | 48.21228 | 16.47526 | 113° | 95km/h | 3373m | 3.2m/s | 1.7°C | 69.3% | 684.4hPa | 0V | 00:00:00 | 00:00:00 | 00:00:00 | |
| OE3JTB-15 | 2026-09-05 11:39:42 | 48.21272 | 16.47357 | 118° | 93km/h | 3355m | 2.5m/s | 0°C | 0% | 0hPa | 0V | 00:00:00 | 00:00:00 | 00:00:00 | |
| PETON7-10 | 2026-09-05 11:39:36 | 48.21330 | 16.47152 | 107° | 88km/h | 3334m | 4.6m/s | 0°C | 0% | 0hPa | 0V | 00:00:00 | 00:00:00 | 00:00:00 | |
| PETON7-10 | 2026-09-05 11:39:21 | 48.21431 | 16.46678 | 119° | 97km/h | 3279m | 2.2m/s | 0°C | 0% | 0hPa | 0V | 00:00:00 | 00:00:00 | 00:00:00 | |
| OE3OSB-13 | 2026-09-05 11:39:18 | 48.21477 | 16.46542 | 111° | 110km/h | 3261m | 2.3m/s | 2.6°C | 67.0% | 693.8hPa | 0V | 00:00:00 | 00:00:00 | 00:00:00 | |
| OE3JTB-15 | 2026-09-05 11:39:13 | 48.21510 | 16.46401 | 111° | 93km/h | 3248m | 2.2m/s | 0°C | 0% | 0hPa | 0V | 00:00:00 | 00:00:00 | 00:00:00 | |
| PETON7-10 | 2026-09-05 11:39:06 | 48.21564 | 16.46163 | 120° | 99km/h | 3224m | 3.2m/s | 0°C | 0% | 0hPa | 0V | 00:00:00 | 00:00:00 | 00:00:00 | |
| OE3OSB-13 | 2026-09-05 11:38:47 | 48.21738 | 16.45489 | 109° | 80km/h | 3162m | 2.4m/s | 3.3°C | 63.8% | 702.8hPa | 0V | 00:00:00 | 00:00:00 | 00:00:00 | |
| OE3JTB-15 | 2026-09-05 11:38:44 | 48.21752 | 16.45426 | 110° | 93km/h | 3154m | 4.1m/s | 0°C | 0% | 0hPa | 0V | 00:00:00 | 00:00:00 | 00:00:00 | |
| PETON7-10 | 2026-09-05 11:38:36 | 48.21816 | 16.45145 | 102° | 88km/h | 3123m | 2.5m/s | 0°C | 0% | 0hPa | 0V | 00:00:00 | 00:00:00 | 00:00:00 | |
| PETON7-10 | 2026-09-05 11:38:21 | 48.21950 | 16.44679 | 101° | 86km/h | 3061m | 4.3m/s | 0°C | 0% | 0hPa | 0V | 00:00:00 | 00:00:00 | 00:00:00 | |
| OE3JTB-15 | 2026-09-05 11:38:15 | 48.21991 | 16.44477 | 115° | 82km/h | 3039m | 2.5m/s | 0°C | 0% | 0hPa | 0V | 00:00:00 | 00:00:00 | 00:00:00 | |
| PETON7-10 | 2026-09-05 11:38:06 | 48.22048 | 16.44208 | 116° | 80km/h | 3006m | 5.1m/s | 0°C | 0% | 0hPa | 0V | 00:00:00 | 00:00:00 | 00:00:00 | |
| OE3OSB-13 | 2026-09-05 11:37:44 | 48.22200 | 16.43572 | 122° | 71km/h | 2904m | 3.1m/s | 4.4°C | 57.5% | 725.2hPa | 0V | 00:00:00 | 00:00:00 | 00:00:00 | |
| PETON7-10 | 2026-09-05 11:37:36 | 48.22260 | 16.43347 | 111° | 69km/h | 2872m | 3.7m/s | 0°C | 0% | 0hPa | 0V | 00:00:00 | 00:00:00 | 00:00:00 | |
| PETON7-10 | 2026-09-05 11:37:21 | 48.22392 | 16.43007 | 117° | 66km/h | 2799m | 3.9m/s | 0°C | 0% | 0hPa | 0V | 00:00:00 | 00:00:00 | 00:00:00 | |
| OE3OSB-13 | 2026-09-05 11:37:13 | 48.22440 | 16.42804 | 103° | 53km/h | 2753m | 3.1m/s | 4.1°C | 67.6% | 738.9hPa | 0V | 00:00:00 | 00:00:00 | 00:00:00 | |
| PETON7-10 | 2026-09-05 11:37:06 | 48.22492 | 16.42664 | 125° | 57km/h | 2719m | 4.7m/s | 0°C | 0% | 0hPa | 0V | 00:00:00 | 00:00:00 | 00:00:00 | |
| PETON7-10 | 2026-09-05 11:36:50 | 48.22596 | 16.42355 | 114° | 58km/h | 2636m | 4.0m/s | 0°C | 0% | 0hPa | 0V | 00:00:00 | 00:00:00 | 00:00:00 | |
| OE3JTB-15 | 2026-09-05 11:36:48 | 48.22604 | 16.42317 | 107° | 62km/h | 2626m | 3.9m/s | 0°C | 0% | 0hPa | 0V | 00:00:00 | 00:00:00 | 00:00:00 | |
| OE3OSB-13 | 2026-09-05 11:36:42 | 48.22666 | 16.42173 | 132° | 47km/h | 2591m | 5.3m/s | 5.4°C | 55.8% | 753.7hPa | 0V | 00:00:00 | 00:00:00 | 00:00:00 | |
| PETON7-10 | 2026-09-05 11:36:35 | 48.22698 | 16.42051 | 113° | 62km/h | 2560m | 3.8m/s | 0°C | 0% | 0hPa | 0V | 00:00:00 | 00:00:00 | 00:00:00 | |
| PETON7-10 | 2026-09-05 11:36:20 | 48.22808 | 16.41748 | 125° | 64km/h | 2489m | 3.9m/s | 0°C | 0% | 0hPa | 0V | 00:00:00 | 00:00:00 | 00:00:00 | |
| OE3JTB-15 | 2026-09-05 11:36:19 | 48.22817 | 16.41731 | 133° | 62km/h | 2482m | 3.4m/s | 0°C | 0% | 0hPa | 0V | 00:00:00 | 00:00:00 | 00:00:00 | |
| OE3OSB-13 | 2026-09-05 11:36:11 | 48.22879 | 16.41553 | 111° | 66km/h | 2440m | 3.0m/s | 6.3°C | 55.6% | 767.8hPa | 0V | 00:00:00 | 00:00:00 | 00:00:00 | |
| PETON7-10 | 2026-09-05 11:36:05 | 48.22925 | 16.41442 | 121° | 60km/h | 2417m | 2.2m/s | 0°C | 0% | 0hPa | 0V | 00:00:00 | 00:00:00 | 00:00:00 | |
| PETON7-10 | 2026-09-05 11:35:50 | 48.23021 | 16.41150 | 128° | 62km/h | 2343m | 3.3m/s | 0°C | 0% | 0hPa | 0V | 00:00:00 | 00:00:00 | 00:00:00 | |
| OE3JTB-15 | 2026-09-05 11:35:49 | 48.23031 | 16.41128 | 121° | 58km/h | 2339m | 2.1m/s | 0°C | 0% | 0hPa | 0V | 00:00:00 | 00:00:00 | 00:00:00 | |
| OE3OSB-13 | 2026-09-05 11:35:40 | 48.23106 | 16.40923 | 121° | 69km/h | 2278m | 3.3m/s | 7.5°C | 52.8% | 783.2hPa | 0V | 00:00:00 | 00:00:00 | 00:00:00 | |
| PETON7-10 | 2026-09-05 11:35:35 | 48.23140 | 16.40850 | 130° | 57km/h | 2259m | 3.7m/s | 0°C | 0% | 0hPa | 0V | 00:00:00 | 00:00:00 | 00:00:00 | |
| PETON7-10 | 2026-09-05 11:35:20 | 48.23247 | 16.40574 | 133° | 53km/h | 2179m | 3.6m/s | 0°C | 0% | 0hPa | 0V | 00:00:00 | 00:00:00 | 00:00:00 | |
| OE3JTB-15 | 2026-09-05 11:35:19 | 48.23259 | 16.40557 | 138° | 53km/h | 2174m | 4.1m/s | 0°C | 0% | 0hPa | 0V | 00:00:00 | 00:00:00 | 00:00:00 | |
| OE3OSB-13 | 2026-09-05 11:35:09 | 48.23343 | 16.40385 | 139° | 53km/h | 2109m | 4.5m/s | 8.8°C | 50.4% | 799.6hPa | 0V | 00:00:00 | 00:00:00 | 00:00:00 | |
| PETON7-10 | 2026-09-05 11:35:05 | 48.23369 | 16.40339 | 115° | 49km/h | 2092m | 3.9m/s | 0°C | 0% | 0hPa | 0V | 00:00:00 | 00:00:00 | 00:00:00 | |
| PETON7-10 | 2026-09-05 11:34:50 | 48.23485 | 16.40114 | 122° | 57km/h | 2010m | 4.2m/s | 0°C | 0% | 0hPa | 0V | 00:00:00 | 00:00:00 | 00:00:00 | |
| OE3JTB-15 | 2026-09-05 11:34:41 | 48.23553 | 16.39958 | 118° | 60km/h | 1957m | 4.9m/s | 0°C | 0% | 0hPa | 0V | 00:00:00 | 00:00:00 | 00:00:00 | |
| OE3OSB-13 | 2026-09-05 11:34:38 | 48.23578 | 16.39880 | 122° | 46km/h | 1931m | 5.5m/s | 10.4°C | 49.8% | 816.9hPa | 0V | 00:00:00 | 00:00:00 | 00:00:00 | |
| PETON7-10 | 2026-09-05 11:34:35 | 48.23595 | 16.39850 | 133° | 64km/h | 1918m | 3.8m/s | 0°C | 0% | 0hPa | 0V | 00:00:00 | 00:00:00 | 00:00:00 | |
| PETON7-10 | 2026-09-05 11:34:20 | 48.23710 | 16.39533 | 109° | 68km/h | 1828m | 5.9m/s | 0°C | 0% | 0hPa | 0V | 00:00:00 | 00:00:00 | 00:00:00 | |
| OE3JTB-15 | 2026-09-05 11:34:12 | 48.23748 | 16.39375 | 108° | 64km/h | 1767m | 4.8m/s | 0°C | 0% | 0hPa | 0V | 00:00:00 | 00:00:00 | 00:00:00 | |
| OE3OSB-13 | 2026-09-05 11:34:07 | 48.23789 | 16.39215 | 113° | 75km/h | 1739m | 3.6m/s | 11.0°C | 55.3% | 836.1hPa | 0V | 00:00:00 | 00:00:00 | 00:00:00 | |
| PETON7-10 | 2026-09-05 11:34:05 | 48.23797 | 16.39188 | 111° | 57km/h | 1733m | 4.2m/s | 0°C | 0% | 0hPa | 0V | 00:00:00 | 00:00:00 | 00:00:00 | |
| PETON7-10 | 2026-09-05 11:33:49 | 48.23879 | 16.38853 | 112° | 53km/h | 1631m | 6.5m/s | 0°C | 0% | 0hPa | 0V | 00:00:00 | 00:00:00 | 00:00:00 | |
| OE3JTB-15 | 2026-09-05 11:33:43 | 48.23918 | 16.38744 | 123° | 55km/h | 1591m | 6.3m/s | 0°C | 0% | 0hPa | 0V | 00:00:00 | 00:00:00 | 00:00:00 | |
| OE3OSB-13 | 2026-09-05 11:33:36 | 48.23966 | 16.38613 | 120° | 64km/h | 1538m | 3.8m/s | 12.9°C | 53.6% | 856.5hPa | 0V | 00:00:00 | 00:00:00 | 00:00:00 | |
| PETON7-10 | 2026-09-05 11:33:34 | 48.23975 | 16.38591 | 122° | 58km/h | 1533m | 5.0m/s | 0°C | 0% | 0hPa | 0V | 00:00:00 | 00:00:00 | 00:00:00 | |
| PETON7-10 | 2026-09-05 11:33:19 | 48.24076 | 16.38307 | 109° | 55km/h | 1447m | 2.9m/s | 0°C | 0% | 0hPa | 0V | 00:00:00 | 00:00:00 | 00:00:00 | |
| OE3JTB-15 | 2026-09-05 11:33:14 | 48.24110 | 16.38215 | 133° | 51km/h | 1418m | 4.4m/s | 0°C | 0% | 0hPa | 0V | 00:00:00 | 00:00:00 | 00:00:00 | |
| OE3OSB-13 | 2026-09-05 11:33:05 | 48.24203 | 16.38052 | 132° | 57km/h | 1351m | 5.1m/s | 11.3°C | 81.7% | 875.6hPa | 0V | 00:00:00 | 00:00:00 | 00:00:00 | |
| PETON7-10 | 2026-09-05 11:33:04 | 48.24203 | 16.38052 | 133° | 49km/h | 1351m | 5.1m/s | 0°C | 0% | 0hPa | 0V | 00:00:00 | 00:00:00 | 00:00:00 | |
| PETON7-10 | 2026-09-05 11:32:48 | 48.24338 | 16.37844 | 130° | 57km/h | 1240m | 8.6m/s | 0°C | 0% | 0hPa | 0V | 00:00:00 | 00:00:00 | 00:00:00 | |
| OE3JTB-15 | 2026-09-05 11:32:45 | 48.24358 | 16.37787 | 106° | 51km/h | 1218m | 4.8m/s | 0°C | 0% | 0hPa | 0V | 00:00:00 | 00:00:00 | 00:00:00 | |
| PETON7-10 | 2026-09-05 11:32:33 | 48.24452 | 16.37634 | 147° | 57km/h | 1123m | 5.2m/s | 0°C | 0% | 0hPa | 0V | 00:00:00 | 00:00:00 | 00:00:00 | |
| PETON7-10 | 2026-09-05 11:32:18 | 48.24567 | 16.37380 | 111° | 35km/h | 1020m | 7.7m/s | 0°C | 0% | 0hPa | 0V | 00:00:00 | 00:00:00 | 00:00:00 | |
| OE3JTB-15 | 2026-09-05 11:32:15 | 48.24580 | 16.37342 | 132° | 38km/h | 993m | 4.4m/s | 0°C | 0% | 0hPa | 0V | 00:00:00 | 00:00:00 | 00:00:00 | |
| PETON7-10 | 2026-09-05 11:32:02 | 48.24632 | 16.37184 | 106° | 38km/h | 903m | 3.7m/s | 0°C | 0% | 0hPa | 0V | 00:00:00 | 00:00:00 | 00:00:00 | |
| OE3JTB-15 | 2026-09-05 11:31:46 | 48.24693 | 16.36964 | 111° | 40km/h | 806m | 4.3m/s | 0°C | 0% | 0hPa | 0V | 00:00:00 | 00:00:00 | 00:00:00 | |
| OE3JTB-15 | 2026-09-05 11:31:17 | 48.24773 | 16.36552 | 120° | 35km/h | 615m | 7.5m/s | 0°C | 0% | 0hPa | 0V | 00:00:00 | 00:00:00 | 00:00:00 | |
| OE3JTB-15 | 2026-09-05 11:30:48 | 48.24816 | 16.36194 | 102° | 35km/h | 441m | 3.9m/s | 0°C | 0% | 0hPa | 0V | 00:00:00 | 00:00:00 | 00:00:00 |